PWSweather.com
Personal Weather Stations
Station Observations
KGAMILLE3
Southwest Baldwin County, Milledgeville, GA 31061

Southwest Baldwin CountyMilledgeville, GA 31061

Lat: 32.9849557, Lon: -83.33361130000003

Elevation: 384

Station Type: Davis Vantage Pro 3

High Low Average
Temperature 86.7°F30.4°C 72.2°F22.3°C 79.6°F26.4°C
Dew Point 72.0°F22.2°C -30.9°F-34.9°C 35.7°F2.1°C
Winds 19.0 mph 30.6 kmh Calm Calm 4.0 mph WSW6.4 kmh WSW
Wind Gusts 28.0 mph45.1 kmh -- 12.0 mph19.3 kmh
Humidity 64% 1% 31%
Pressure 29.84 in1010.5 mb 29.02 in982.7 mb -
Precipitation 1.54 in39.1 mm - -
Hour Temp Dew Point Humidity Winds Wind Gusts Pressure Precip Precip Rate Daily Precip Total
12:00 AM 79.9°F26.6°C 52.7°F11.5°C 39% 10.0 mph ENE16.1 kmh ENE 23.0 mph37.0 kmh 29.29 in991.9 mb 0.38 in9.7 mm 0.00 in0.0 mm 1.71 in43.4 mm
12:01 AM 79.9°F26.6°C 52.7°F11.5°C 39% 11.0 mph ENE17.7 kmh ENE 23.0 mph37.0 kmh 29.29 in991.9 mb 0.39 in9.9 mm 0.60 in15.2 mm 0.01 in0.3 mm
12:02 AM 79.9°F26.6°C 52.7°F11.5°C 39% 13.0 mph ENE20.9 kmh ENE 23.0 mph37.0 kmh 29.27 in991.2 mb 0.39 in9.9 mm 0.00 in0.0 mm 0.02 in0.5 mm
12:03 AM 79.9°F26.6°C 52.7°F11.5°C 39% 11.0 mph ENE17.7 kmh ENE 23.0 mph37.0 kmh 29.28 in991.5 mb 0.39 in9.9 mm 0.00 in0.0 mm 0.02 in0.5 mm
12:04 AM 79.9°F26.6°C 52.7°F11.5°C 39% 14.0 mph ENE22.5 kmh ENE 23.0 mph37.0 kmh 29.28 in991.5 mb 0.40 in10.2 mm 0.60 in15.2 mm 0.03 in0.8 mm
12:05 AM 79.9°F26.6°C 52.7°F11.5°C 39% 12.0 mph ENE19.3 kmh ENE 23.0 mph37.0 kmh 29.28 in991.5 mb 0.40 in10.2 mm 0.00 in0.0 mm 0.03 in0.8 mm
12:06 AM 79.9°F26.6°C 52.7°F11.5°C 39% 10.0 mph ENE16.1 kmh ENE 22.0 mph35.4 kmh 29.27 in991.2 mb 0.41 in10.4 mm 0.60 in15.2 mm 0.04 in1.0 mm
12:07 AM 79.9°F26.6°C 52.0°F11.1°C 38% 10.0 mph ENE16.1 kmh ENE 22.0 mph35.4 kmh 29.27 in991.2 mb 0.40 in10.2 mm 0.00 in0.0 mm 0.04 in1.0 mm
12:08 AM 79.9°F26.6°C 52.0°F11.1°C 38% 11.0 mph ENE17.7 kmh ENE 22.0 mph35.4 kmh 29.27 in991.2 mb 0.40 in10.2 mm 0.00 in0.0 mm 0.05 in1.3 mm
12:09 AM 79.9°F26.6°C 52.7°F11.5°C 39% 12.0 mph ENE19.3 kmh ENE 22.0 mph35.4 kmh 29.27 in991.2 mb 0.40 in10.2 mm 0.00 in0.0 mm 0.05 in1.3 mm
12:10 AM 79.9°F26.6°C 52.7°F11.5°C 39% 13.0 mph ENE20.9 kmh ENE 22.0 mph35.4 kmh 29.26 in990.9 mb 0.40 in10.2 mm 0.00 in0.0 mm 0.05 in1.3 mm
12:11 AM 79.8°F26.6°C 52.6°F11.4°C 39% 19.0 mph ENE30.6 kmh ENE 25.0 mph40.2 kmh 29.26 in990.9 mb 0.39 in9.9 mm 0.00 in0.0 mm 0.05 in1.3 mm
12:12 AM 79.8°F26.6°C 52.6°F11.4°C 39% 14.0 mph ENE22.5 kmh ENE 25.0 mph40.2 kmh 29.25 in990.5 mb 0.40 in10.2 mm 0.60 in15.2 mm 0.06 in1.5 mm
12:13 AM 79.8°F26.6°C 51.9°F11.1°C 38% 14.0 mph ENE22.5 kmh ENE 25.0 mph40.2 kmh 29.26 in990.9 mb 0.39 in9.9 mm 0.00 in0.0 mm 0.06 in1.5 mm
12:14 AM 79.9°F26.6°C 52.0°F11.1°C 38% 13.0 mph ENE20.9 kmh ENE 25.0 mph40.2 kmh 29.25 in990.5 mb 0.39 in9.9 mm 0.00 in0.0 mm 0.07 in1.8 mm
12:15 AM 79.9°F26.6°C 52.0°F11.1°C 38% 12.0 mph ENE19.3 kmh ENE 25.0 mph40.2 kmh 29.25 in990.5 mb 0.39 in9.9 mm 0.00 in0.0 mm 0.08 in2.0 mm
12:16 AM 79.8°F26.6°C 51.9°F11.1°C 38% 12.0 mph ENE19.3 kmh ENE 25.0 mph40.2 kmh 29.24 in990.2 mb 0.39 in9.9 mm 0.00 in0.0 mm 0.09 in2.3 mm
12:17 AM 79.8°F26.6°C 52.6°F11.4°C 39% 12.0 mph ENE19.3 kmh ENE 25.0 mph40.2 kmh 29.24 in990.2 mb 0.38 in9.7 mm 0.00 in0.0 mm 0.09 in2.3 mm
12:18 AM 79.8°F26.6°C 52.6°F11.4°C 39% 14.0 mph ENE22.5 kmh ENE 25.0 mph40.2 kmh 29.24 in990.2 mb 0.38 in9.7 mm 0.00 in0.0 mm 0.10 in2.5 mm
12:19 AM 79.8°F26.6°C 52.6°F11.4°C 39% 14.0 mph ENE22.5 kmh ENE 25.0 mph40.2 kmh 29.24 in990.2 mb 0.37 in9.4 mm 0.00 in0.0 mm 0.10 in2.5 mm
12:20 AM 79.8°F26.6°C 52.6°F11.4°C 39% 10.0 mph ENE16.1 kmh ENE 25.0 mph40.2 kmh 29.24 in990.2 mb 0.38 in9.7 mm 0.60 in15.2 mm 0.11 in2.8 mm
12:21 AM 79.8°F26.6°C 52.6°F11.4°C 39% 9.0 mph ENE14.5 kmh ENE 25.0 mph40.2 kmh 29.24 in990.2 mb 0.37 in9.4 mm 0.00 in0.0 mm 0.11 in2.8 mm
12:22 AM 79.8°F26.6°C 52.6°F11.4°C 39% 10.0 mph ENE16.1 kmh ENE 24.0 mph38.6 kmh 29.23 in989.8 mb 0.38 in9.7 mm 0.60 in15.2 mm 0.12 in3.0 mm
12:23 AM 79.8°F26.6°C 52.6°F11.4°C 39% 10.0 mph ENE16.1 kmh ENE 23.0 mph37.0 kmh 29.24 in990.2 mb 0.37 in9.4 mm 0.00 in0.0 mm 0.12 in3.0 mm
12:24 AM 79.8°F26.6°C 52.6°F11.4°C 39% 7.0 mph ENE11.3 kmh ENE 23.0 mph37.0 kmh 29.24 in990.2 mb 0.37 in9.4 mm 0.00 in0.0 mm 0.13 in3.3 mm
12:25 AM 79.8°F26.6°C 52.6°F11.4°C 39% 10.0 mph ENE16.1 kmh ENE 23.0 mph37.0 kmh 29.24 in990.2 mb 0.36 in9.1 mm 0.00 in0.0 mm 0.13 in3.3 mm
12:26 AM 79.8°F26.6°C 52.6°F11.4°C 39% 13.0 mph ENE20.9 kmh ENE 23.0 mph37.0 kmh 29.23 in989.8 mb 0.37 in9.4 mm 0.60 in15.2 mm 0.14 in3.6 mm
12:27 AM 79.8°F26.6°C 52.6°F11.4°C 39% 11.0 mph ENE17.7 kmh ENE 25.0 mph40.2 kmh 29.24 in990.2 mb 0.38 in9.7 mm 0.60 in15.2 mm 0.15 in3.8 mm
12:28 AM 79.8°F26.6°C 52.6°F11.4°C 39% 12.0 mph ENE19.3 kmh ENE 25.0 mph40.2 kmh 29.24 in990.2 mb 0.38 in9.7 mm 0.00 in0.0 mm 0.15 in3.8 mm
12:29 AM 79.7°F26.5°C 52.5°F11.4°C 39% 14.0 mph ENE22.5 kmh ENE 25.0 mph40.2 kmh 29.24 in990.2 mb 0.38 in9.7 mm 0.00 in0.0 mm 0.16 in4.1 mm
12:30 AM 79.8°F26.6°C 51.9°F11.1°C 38% 11.0 mph ENE17.7 kmh ENE 25.0 mph40.2 kmh 29.24 in990.2 mb 0.38 in9.7 mm 0.00 in0.0 mm 0.17 in4.3 mm
12:31 AM 79.8°F26.6°C 51.9°F11.1°C 38% 14.0 mph ENE22.5 kmh ENE 25.0 mph40.2 kmh 29.24 in990.2 mb 0.38 in9.7 mm 0.00 in0.0 mm 0.17 in4.3 mm
12:32 AM 79.8°F26.6°C 51.9°F11.1°C 38% 9.0 mph ENE14.5 kmh ENE 25.0 mph40.2 kmh 29.23 in989.8 mb 0.39 in9.9 mm 0.60 in15.2 mm 0.18 in4.6 mm
12:33 AM 79.8°F26.6°C 51.9°F11.1°C 38% 11.0 mph ENE17.7 kmh ENE 25.0 mph40.2 kmh 29.24 in990.2 mb 0.39 in9.9 mm 0.00 in0.0 mm 0.19 in4.8 mm
12:34 AM 79.7°F26.5°C 51.8°F11.0°C 38% 10.0 mph ENE16.1 kmh ENE 25.0 mph40.2 kmh 29.24 in990.2 mb 0.40 in10.2 mm 0.60 in15.2 mm 0.20 in5.1 mm
12:35 AM 79.7°F26.5°C 51.8°F11.0°C 38% 9.0 mph ENE14.5 kmh ENE 25.0 mph40.2 kmh 29.24 in990.2 mb 0.41 in10.4 mm 0.60 in15.2 mm 0.22 in5.6 mm
12:36 AM 79.7°F26.5°C 52.5°F11.4°C 39% 11.0 mph ENE17.7 kmh ENE 25.0 mph40.2 kmh 29.24 in990.2 mb 0.43 in10.9 mm 1.20 in30.5 mm 0.24 in6.1 mm
12:37 AM 79.7°F26.5°C 51.8°F11.0°C 38% 7.0 mph ENE11.3 kmh ENE 25.0 mph40.2 kmh 29.24 in990.2 mb 0.44 in11.2 mm 0.60 in15.2 mm 0.26 in6.6 mm
12:38 AM 79.7°F26.5°C 51.8°F11.0°C 38% 9.0 mph ENE14.5 kmh ENE 25.0 mph40.2 kmh 29.24 in990.2 mb 0.46 in11.7 mm 1.20 in30.5 mm 0.28 in7.1 mm
12:39 AM 79.7°F26.5°C 52.5°F11.4°C 39% 11.0 mph ENE17.7 kmh ENE 25.0 mph40.2 kmh 29.23 in989.8 mb 0.48 in12.2 mm 1.20 in30.5 mm 0.31 in7.9 mm
12:40 AM 79.7°F26.5°C 52.5°F11.4°C 39% 8.0 mph ENE12.9 kmh ENE 25.0 mph40.2 kmh 29.23 in989.8 mb 0.50 in12.7 mm 1.20 in30.5 mm 0.33 in8.4 mm
12:41 AM 79.7°F26.5°C 52.5°F11.4°C 39% 9.0 mph ENE14.5 kmh ENE 19.0 mph30.6 kmh 29.23 in989.8 mb 0.54 in13.7 mm 2.40 in61.0 mm 0.37 in9.4 mm
12:42 AM 79.7°F26.5°C 52.5°F11.4°C 39% 11.0 mph ENE17.7 kmh ENE 19.0 mph30.6 kmh 29.23 in989.8 mb 0.56 in14.2 mm 1.20 in30.5 mm 0.39 in9.9 mm
12:43 AM 79.7°F26.5°C 52.5°F11.4°C 39% 9.0 mph ENE14.5 kmh ENE 19.0 mph30.6 kmh 29.22 in989.5 mb 0.57 in14.5 mm 0.60 in15.2 mm 0.41 in10.4 mm
12:44 AM 79.7°F26.5°C 51.8°F11.0°C 38% 7.0 mph ENE11.3 kmh ENE 18.0 mph29.0 kmh 29.21 in989.2 mb 0.58 in14.7 mm 0.60 in15.2 mm 0.43 in10.9 mm
12:45 AM 79.6°F26.4°C 51.8°F11.0°C 38% 8.0 mph ENE12.9 kmh ENE 18.0 mph29.0 kmh 29.21 in989.2 mb 0.60 in15.2 mm 1.20 in30.5 mm 0.46 in11.7 mm
12:46 AM 79.6°F26.4°C 51.8°F11.0°C 38% 9.0 mph ENE14.5 kmh ENE 18.0 mph29.0 kmh 29.21 in989.2 mb 0.61 in15.5 mm 0.60 in15.2 mm 0.48 in12.2 mm
12:47 AM 79.6°F26.4°C 51.8°F11.0°C 38% 12.0 mph ENE19.3 kmh ENE 18.0 mph29.0 kmh 29.21 in989.2 mb 0.64 in16.3 mm 1.80 in45.7 mm 0.51 in13.0 mm
12:48 AM 79.6°F26.4°C 51.8°F11.0°C 38% 12.0 mph ENE19.3 kmh ENE 21.0 mph33.8 kmh 29.20 in988.8 mb 0.65 in16.5 mm 0.60 in15.2 mm 0.53 in13.5 mm
12:49 AM 79.6°F26.4°C 51.8°F11.0°C 38% 15.0 mph ENE24.1 kmh ENE 21.0 mph33.8 kmh 29.19 in988.5 mb 0.68 in17.3 mm 1.80 in45.7 mm 0.56 in14.2 mm
12:50 AM 79.5°F26.4°C 51.7°F10.9°C 38% 16.0 mph ENE25.7 kmh ENE 24.0 mph38.6 kmh 29.19 in988.5 mb 0.70 in17.8 mm 1.20 in30.5 mm 0.59 in15.0 mm
12:51 AM 79.5°F26.4°C 51.7°F10.9°C 38% 13.0 mph ENE20.9 kmh ENE 24.0 mph38.6 kmh 29.19 in988.5 mb 0.71 in18.0 mm 0.60 in15.2 mm 0.61 in15.5 mm
12:52 AM 79.5°F26.4°C 51.7°F10.9°C 38% 13.0 mph ENE20.9 kmh ENE 24.0 mph38.6 kmh 29.19 in988.5 mb 0.72 in18.3 mm 0.60 in15.2 mm 0.63 in16.0 mm
12:53 AM 79.5°F26.4°C 50.9°F10.5°C 37% 12.0 mph ENE19.3 kmh ENE 24.0 mph38.6 kmh 29.19 in988.5 mb 0.74 in18.8 mm 1.20 in30.5 mm 0.67 in17.0 mm
12:54 AM 79.5°F26.4°C 50.9°F10.5°C 37% 8.0 mph ENE12.9 kmh ENE 24.0 mph38.6 kmh 29.18 in988.1 mb 0.74 in18.8 mm 0.00 in0.0 mm 0.68 in17.3 mm
12:55 AM 79.5°F26.4°C 50.9°F10.5°C 37% 9.0 mph ENE14.5 kmh ENE 24.0 mph38.6 kmh 29.18 in988.1 mb 0.75 in19.1 mm 0.60 in15.2 mm 0.70 in17.8 mm
12:56 AM 79.5°F26.4°C 50.9°F10.5°C 37% 10.0 mph ENE16.1 kmh ENE 24.0 mph38.6 kmh 29.18 in988.1 mb 0.76 in19.3 mm 0.60 in15.2 mm 0.72 in18.3 mm
12:57 AM 79.5°F26.4°C 50.9°F10.5°C 37% 13.0 mph ENE20.9 kmh ENE 24.0 mph38.6 kmh 29.17 in987.8 mb 0.76 in19.3 mm 0.00 in0.0 mm 0.73 in18.5 mm
12:58 AM 79.5°F26.4°C 50.9°F10.5°C 37% 13.0 mph ENE20.9 kmh ENE 24.0 mph38.6 kmh 29.17 in987.8 mb 0.76 in19.3 mm 0.00 in0.0 mm 0.74 in18.8 mm
12:59 AM 79.4°F26.3°C 50.9°F10.5°C 37% 14.0 mph ENE22.5 kmh ENE 24.0 mph38.6 kmh 29.16 in987.5 mb 0.76 in19.3 mm 0.00 in0.0 mm 0.75 in19.1 mm
01:00 AM 79.5°F26.4°C 50.9°F10.5°C 37% 16.0 mph ENE25.7 kmh ENE 22.0 mph35.4 kmh 29.17 in987.8 mb 0.76 in19.3 mm 0.00 in0.0 mm 0.76 in19.3 mm
01:01 AM 79.4°F26.3°C 50.9°F10.5°C 37% 19.0 mph ENE30.6 kmh ENE 28.0 mph45.1 kmh 29.17 in987.8 mb 0.76 in19.3 mm 0.00 in0.0 mm 0.77 in19.6 mm
01:02 AM 79.4°F26.3°C 50.9°F10.5°C 37% 16.0 mph ENE25.7 kmh ENE 28.0 mph45.1 kmh 29.16 in987.5 mb 0.76 in19.3 mm 0.00 in0.0 mm 0.78 in19.8 mm
01:03 AM 79.4°F26.3°C 50.9°F10.5°C 37% 12.0 mph ENE19.3 kmh ENE 28.0 mph45.1 kmh 29.17 in987.8 mb 0.77 in19.6 mm 0.60 in15.2 mm 0.79 in20.1 mm
01:04 AM 79.4°F26.3°C 50.9°F10.5°C 37% 13.0 mph ENE20.9 kmh ENE 28.0 mph45.1 kmh 29.16 in987.5 mb 0.78 in19.8 mm 0.60 in15.2 mm 0.81 in20.6 mm
01:05 AM 79.4°F26.3°C 50.9°F10.5°C 37% 11.0 mph ENE17.7 kmh ENE 28.0 mph45.1 kmh 29.16 in987.5 mb 0.79 in20.1 mm 0.60 in15.2 mm 0.82 in20.8 mm
01:06 AM 79.4°F26.3°C 50.9°F10.5°C 37% 14.0 mph ENE22.5 kmh ENE 28.0 mph45.1 kmh 29.16 in987.5 mb 0.79 in20.1 mm 0.00 in0.0 mm 0.83 in21.1 mm
01:07 AM 79.4°F26.3°C 50.9°F10.5°C 37% 10.0 mph ENE16.1 kmh ENE 28.0 mph45.1 kmh 29.16 in987.5 mb 0.80 in20.3 mm 0.60 in15.2 mm 0.84 in21.3 mm
01:08 AM 79.4°F26.3°C 50.9°F10.5°C 37% 13.0 mph ENE20.9 kmh ENE 28.0 mph45.1 kmh 29.15 in987.1 mb 0.81 in20.6 mm 0.60 in15.2 mm 0.86 in21.8 mm
01:09 AM 79.4°F26.3°C 50.9°F10.5°C 37% 11.0 mph ENE17.7 kmh ENE 28.0 mph45.1 kmh 29.16 in987.5 mb 0.82 in20.8 mm 0.60 in15.2 mm 0.87 in22.1 mm
01:10 AM 79.4°F26.3°C 50.9°F10.5°C 37% 11.0 mph ENE17.7 kmh ENE 28.0 mph45.1 kmh 29.15 in987.1 mb 0.84 in21.3 mm 1.20 in30.5 mm 0.89 in22.6 mm
01:11 AM 79.4°F26.3°C 50.9°F10.5°C 37% 12.0 mph ENE19.3 kmh ENE 28.0 mph45.1 kmh 29.15 in987.1 mb 0.86 in21.8 mm 1.20 in30.5 mm 0.91 in23.1 mm
01:12 AM 79.4°F26.3°C 50.9°F10.5°C 37% 13.0 mph ENE20.9 kmh ENE 23.0 mph37.0 kmh 29.14 in986.8 mb 0.86 in21.8 mm 0.00 in0.0 mm 0.92 in23.4 mm
01:13 AM 79.4°F26.3°C 50.9°F10.5°C 37% 8.0 mph ENE12.9 kmh ENE 23.0 mph37.0 kmh 29.14 in986.8 mb 0.87 in22.1 mm 0.60 in15.2 mm 0.93 in23.6 mm
01:14 AM 79.4°F26.3°C 50.9°F10.5°C 37% 11.0 mph ENE17.7 kmh ENE 23.0 mph37.0 kmh 29.14 in986.8 mb 0.87 in22.1 mm 0.00 in0.0 mm 0.94 in23.9 mm
01:15 AM 79.3°F26.3°C 50.8°F10.4°C 37% 10.0 mph ENE16.1 kmh ENE 23.0 mph37.0 kmh 29.14 in986.8 mb 0.87 in22.1 mm 0.00 in0.0 mm 0.95 in24.1 mm
01:16 AM 79.3°F26.3°C 50.8°F10.4°C 37% 11.0 mph ENE17.7 kmh ENE 23.0 mph37.0 kmh 29.14 in986.8 mb 0.87 in22.1 mm 0.00 in0.0 mm 0.96 in24.4 mm
01:17 AM 79.3°F26.3°C 50.8°F10.4°C 37% 14.0 mph ENE22.5 kmh ENE 23.0 mph37.0 kmh 29.13 in986.5 mb 0.88 in22.4 mm 0.60 in15.2 mm 0.97 in24.6 mm
01:18 AM 79.3°F26.3°C 50.8°F10.4°C 37% 10.0 mph ENE16.1 kmh ENE 21.0 mph33.8 kmh 29.13 in986.5 mb 0.88 in22.4 mm 0.00 in0.0 mm 0.98 in24.9 mm
01:19 AM 79.3°F26.3°C 50.8°F10.4°C 37% 15.0 mph ENE24.1 kmh ENE 25.0 mph40.2 kmh 29.12 in986.1 mb 0.89 in22.6 mm 0.60 in15.2 mm 0.99 in25.1 mm
01:20 AM 79.3°F26.3°C 50.8°F10.4°C 37% 12.0 mph ENE19.3 kmh ENE 25.0 mph40.2 kmh 29.13 in986.5 mb 0.89 in22.6 mm 0.00 in0.0 mm 1.00 in25.4 mm
01:21 AM 79.3°F26.3°C 50.0°F10.0°C 36% 14.0 mph ENE22.5 kmh ENE 25.0 mph40.2 kmh 29.12 in986.1 mb 0.89 in22.6 mm 0.00 in0.0 mm 1.00 in25.4 mm
01:22 AM 79.3°F26.3°C 50.0°F10.0°C 36% 11.0 mph ENE17.7 kmh ENE 25.0 mph40.2 kmh 29.13 in986.5 mb 0.89 in22.6 mm 0.00 in0.0 mm 1.01 in25.7 mm
01:23 AM 79.3°F26.3°C 50.0°F10.0°C 36% 11.0 mph ENE17.7 kmh ENE 25.0 mph40.2 kmh 29.12 in986.1 mb 0.90 in22.9 mm 0.60 in15.2 mm 1.02 in25.9 mm
01:24 AM 79.3°F26.3°C 50.0°F10.0°C 36% 13.0 mph ENE20.9 kmh ENE 25.0 mph40.2 kmh 29.11 in985.8 mb 0.90 in22.9 mm 0.00 in0.0 mm 1.03 in26.2 mm
01:25 AM 79.2°F26.2°C 49.9°F9.9°C 36% 12.0 mph ENE19.3 kmh ENE 25.0 mph40.2 kmh 29.11 in985.8 mb 0.90 in22.9 mm 0.00 in0.0 mm 1.03 in26.2 mm
01:26 AM 79.2°F26.2°C 49.9°F9.9°C 36% 12.0 mph ENE19.3 kmh ENE 25.0 mph40.2 kmh 29.11 in985.8 mb 0.91 in23.1 mm 0.60 in15.2 mm 1.05 in26.7 mm
01:27 AM 79.2°F26.2°C 49.2°F9.6°C 35% 13.0 mph ENE20.9 kmh ENE 25.0 mph40.2 kmh 29.11 in985.8 mb 0.91 in23.1 mm 0.00 in0.0 mm 1.06 in26.9 mm
01:28 AM 79.2°F26.2°C 49.2°F9.6°C 35% 12.0 mph ENE19.3 kmh ENE 25.0 mph40.2 kmh 29.11 in985.8 mb 0.92 in23.4 mm 0.60 in15.2 mm 1.07 in27.2 mm
01:29 AM 79.2°F26.2°C 49.2°F9.6°C 35% 13.0 mph ENE20.9 kmh ENE 23.0 mph37.0 kmh 29.10 in985.4 mb 0.91 in23.1 mm 0.00 in0.0 mm 1.07 in27.2 mm
01:30 AM 79.2°F26.2°C 49.2°F9.6°C 35% 12.0 mph ENE19.3 kmh ENE 23.0 mph37.0 kmh 29.10 in985.4 mb 0.91 in23.1 mm 0.00 in0.0 mm 1.08 in27.4 mm
01:31 AM 79.2°F26.2°C 49.2°F9.6°C 35% 11.0 mph ENE17.7 kmh ENE 21.0 mph33.8 kmh 29.10 in985.4 mb 0.92 in23.4 mm 0.60 in15.2 mm 1.09 in27.7 mm
01:32 AM 79.2°F26.2°C 49.2°F9.6°C 35% 11.0 mph ENE17.7 kmh ENE 21.0 mph33.8 kmh 29.10 in985.4 mb 0.91 in23.1 mm 0.00 in0.0 mm 1.09 in27.7 mm
01:33 AM 79.2°F26.2°C 49.2°F9.6°C 35% 10.0 mph ENE16.1 kmh ENE 21.0 mph33.8 kmh 29.09 in985.1 mb 0.90 in22.9 mm 0.00 in0.0 mm 1.09 in27.7 mm
01:34 AM 79.2°F26.2°C 48.4°F9.1°C 34% 11.0 mph ENE17.7 kmh ENE 21.0 mph33.8 kmh 29.08 in984.8 mb 0.90 in22.9 mm 0.00 in0.0 mm 1.10 in27.9 mm
01:35 AM 79.2°F26.2°C 48.4°F9.1°C 34% 17.0 mph ENE27.4 kmh ENE 24.0 mph38.6 kmh 29.09 in985.1 mb 0.89 in22.6 mm 0.00 in0.0 mm 1.11 in28.2 mm
01:36 AM 79.1°F26.2°C 48.3°F9.1°C 34% 13.0 mph ENE20.9 kmh ENE 24.0 mph38.6 kmh 29.09 in985.1 mb 0.87 in22.1 mm 0.00 in0.0 mm 1.11 in28.2 mm
01:37 AM 79.1°F26.2°C 48.3°F9.1°C 34% 12.0 mph ENE19.3 kmh ENE 24.0 mph38.6 kmh 29.08 in984.8 mb 0.86 in21.8 mm 0.00 in0.0 mm 1.12 in28.4 mm
01:38 AM 79.1°F26.2°C 48.3°F9.1°C 34% 14.0 mph ENE22.5 kmh ENE 24.0 mph38.6 kmh 29.08 in984.8 mb 0.84 in21.3 mm 0.00 in0.0 mm 1.12 in28.4 mm
01:39 AM 79.1°F26.2°C 48.3°F9.1°C 34% 13.0 mph ENE20.9 kmh ENE 24.0 mph38.6 kmh 29.09 in985.1 mb 0.82 in20.8 mm 0.00 in0.0 mm 1.13 in28.7 mm
01:40 AM 79.1°F26.2°C 48.3°F9.1°C 34% 17.0 mph ENE27.4 kmh ENE 24.0 mph38.6 kmh 29.07 in984.4 mb 0.80 in20.3 mm 0.00 in0.0 mm 1.13 in28.7 mm
01:41 AM 79.1°F26.2°C 47.5°F8.6°C 33% 11.0 mph ENE17.7 kmh ENE 24.0 mph38.6 kmh 29.07 in984.4 mb 0.76 in19.3 mm 0.00 in0.0 mm 1.13 in28.7 mm
01:42 AM 79.1°F26.2°C 47.5°F8.6°C 33% 10.0 mph ENE16.1 kmh ENE 24.0 mph38.6 kmh 29.07 in984.4 mb 0.74 in18.8 mm 0.00 in0.0 mm 1.13 in28.7 mm
01:43 AM 79.1°F26.2°C 47.5°F8.6°C 33% 8.0 mph ENE12.9 kmh ENE 24.0 mph38.6 kmh 29.07 in984.4 mb 0.73 in18.5 mm 0.00 in0.0 mm 1.14 in29.0 mm
01:44 AM 79.1°F26.2°C 47.5°F8.6°C 33% 12.0 mph NE19.3 kmh NE 24.0 mph38.6 kmh 29.07 in984.4 mb 0.71 in18.0 mm 0.00 in0.0 mm 1.14 in29.0 mm
01:45 AM 79.1°F26.2°C 47.5°F8.6°C 33% 11.0 mph NE17.7 kmh NE 24.0 mph38.6 kmh 29.07 in984.4 mb 0.69 in17.5 mm 0.00 in0.0 mm 1.15 in29.2 mm
01:46 AM 79.0°F26.1°C 47.4°F8.6°C 33% 7.0 mph NE11.3 kmh NE 24.0 mph38.6 kmh 29.07 in984.4 mb 0.67 in17.0 mm 0.00 in0.0 mm 1.15 in29.2 mm
01:47 AM 79.0°F26.1°C 47.4°F8.6°C 33% 10.0 mph ENE16.1 kmh ENE 24.0 mph38.6 kmh 29.07 in984.4 mb 0.64 in16.3 mm 0.00 in0.0 mm 1.15 in29.2 mm
01:48 AM 79.0°F26.1°C 47.4°F8.6°C 33% 15.0 mph NE24.1 kmh NE 26.0 mph41.8 kmh 29.06 in984.1 mb 0.63 in16.0 mm 0.00 in0.0 mm 1.16 in29.5 mm
01:49 AM 79.0°F26.1°C 43.1°F6.2°C 28% 10.0 mph NE16.1 kmh NE 26.0 mph41.8 kmh 29.06 in984.1 mb 0.60 in15.2 mm 0.00 in0.0 mm 1.16 in29.5 mm
01:50 AM 79.0°F26.1°C 38.0°F3.3°C 23% 12.0 mph NE19.3 kmh NE 26.0 mph41.8 kmh 29.05 in983.7 mb 0.57 in14.5 mm 0.00 in0.0 mm 1.16 in29.5 mm
01:51 AM 79.0°F26.1°C 40.2°F4.6°C 25% 13.0 mph NE20.9 kmh NE 26.0 mph41.8 kmh 29.05 in983.7 mb 0.56 in14.2 mm 0.00 in0.0 mm 1.17 in29.7 mm
01:52 AM 79.0°F26.1°C 39.1°F3.9°C 24% 8.0 mph NE12.9 kmh NE 26.0 mph41.8 kmh 29.05 in983.7 mb 0.54 in13.7 mm 0.00 in0.0 mm 1.17 in29.7 mm
01:53 AM 79.0°F26.1°C 38.0°F3.3°C 23% 11.0 mph NE17.7 kmh NE 26.0 mph41.8 kmh 29.05 in983.7 mb 0.50 in12.7 mm 0.00 in0.0 mm 1.17 in29.7 mm
01:54 AM 78.9°F26.1°C 34.4°F1.3°C 20% 10.0 mph ENE16.1 kmh ENE 26.0 mph41.8 kmh 29.05 in983.7 mb 0.49 in12.4 mm 0.00 in0.0 mm 1.17 in29.7 mm
01:55 AM 79.0°F26.1°C 35.7°F2.1°C 21% 10.0 mph NE16.1 kmh NE 26.0 mph41.8 kmh 29.05 in983.7 mb 0.48 in12.2 mm 0.00 in0.0 mm 1.18 in30.0 mm
01:56 AM 78.9°F26.1°C 35.6°F2.0°C 21% 10.0 mph NE16.1 kmh NE 26.0 mph41.8 kmh 29.04 in983.4 mb 0.46 in11.7 mm 0.00 in0.0 mm 1.18 in30.0 mm
01:57 AM 78.9°F26.1°C 35.6°F2.0°C 21% 10.0 mph NE16.1 kmh NE 26.0 mph41.8 kmh 29.05 in983.7 mb 0.45 in11.4 mm 0.00 in0.0 mm 1.18 in30.0 mm
01:58 AM 78.9°F26.1°C 35.6°F2.0°C 21% 10.0 mph NE16.1 kmh NE 23.0 mph37.0 kmh 29.04 in983.4 mb 0.44 in11.2 mm 0.00 in0.0 mm 1.18 in30.0 mm
01:59 AM 78.9°F26.1°C 35.6°F2.0°C 21% 15.0 mph ENE24.1 kmh ENE 25.0 mph40.2 kmh 29.05 in983.7 mb 0.44 in11.2 mm 0.00 in0.0 mm 1.19 in30.2 mm
02:00 AM 78.9°F26.1°C 35.6°F2.0°C 21% 12.0 mph NE19.3 kmh NE 25.0 mph40.2 kmh 29.04 in983.4 mb 0.43 in10.9 mm 0.00 in0.0 mm 1.19 in30.2 mm
02:01 AM 78.9°F26.1°C 35.6°F2.0°C 21% 15.0 mph NE24.1 kmh NE 25.0 mph40.2 kmh 29.04 in983.4 mb 0.42 in10.7 mm 0.00 in0.0 mm 1.19 in30.2 mm
02:02 AM 78.9°F26.1°C 35.6°F2.0°C 21% 11.0 mph NE17.7 kmh NE 25.0 mph40.2 kmh 29.04 in983.4 mb 0.41 in10.4 mm 0.00 in0.0 mm 1.19 in30.2 mm
02:03 AM 78.8°F26.0°C 35.5°F1.9°C 21% 9.0 mph NE14.5 kmh NE 25.0 mph40.2 kmh 29.04 in983.4 mb 0.40 in10.2 mm 0.00 in0.0 mm 1.19 in30.2 mm
02:04 AM 78.8°F26.0°C 35.5°F1.9°C 21% 11.0 mph ENE17.7 kmh ENE 25.0 mph40.2 kmh 29.04 in983.4 mb 0.39 in9.9 mm 0.00 in0.0 mm 1.20 in30.5 mm
02:05 AM 78.8°F26.0°C 35.5°F1.9°C 21% 10.0 mph NE16.1 kmh NE 25.0 mph40.2 kmh 29.04 in983.4 mb 0.38 in9.7 mm 0.00 in0.0 mm 1.20 in30.5 mm
02:06 AM 78.8°F26.0°C 35.5°F1.9°C 21% 10.0 mph NE16.1 kmh NE 25.0 mph40.2 kmh 29.04 in983.4 mb 0.37 in9.4 mm 0.00 in0.0 mm 1.20 in30.5 mm
02:07 AM 78.8°F26.0°C 35.5°F1.9°C 21% 10.0 mph NE16.1 kmh NE 25.0 mph40.2 kmh 29.04 in983.4 mb 0.36 in9.1 mm 0.00 in0.0 mm 1.20 in30.5 mm
02:08 AM 78.8°F26.0°C 35.5°F1.9°C 21% 11.0 mph NE17.7 kmh NE 25.0 mph40.2 kmh 29.04 in983.4 mb 0.34 in8.6 mm 0.00 in0.0 mm 1.20 in30.5 mm
02:09 AM 78.8°F26.0°C 35.5°F1.9°C 21% 11.0 mph NE17.7 kmh NE 22.0 mph35.4 kmh 29.04 in983.4 mb 0.33 in8.4 mm 0.00 in0.0 mm 1.20 in30.5 mm
02:10 AM 78.8°F26.0°C 34.3°F1.3°C 20% 8.0 mph NE12.9 kmh NE 22.0 mph35.4 kmh 29.04 in983.4 mb 0.31 in7.9 mm 0.00 in0.0 mm 1.20 in30.5 mm
02:11 AM 78.8°F26.0°C 34.3°F1.3°C 20% 6.0 mph NE9.7 kmh NE 18.0 mph29.0 kmh 29.04 in983.4 mb 0.29 in7.4 mm 0.00 in0.0 mm 1.20 in30.5 mm
02:12 AM 78.8°F26.0°C 34.3°F1.3°C 20% 10.0 mph NE16.1 kmh NE 18.0 mph29.0 kmh 29.03 in983.1 mb 0.29 in7.4 mm 0.00 in0.0 mm 1.21 in30.7 mm
02:13 AM 78.8°F26.0°C 34.3°F1.3°C 20% 6.0 mph NE9.7 kmh NE 18.0 mph29.0 kmh 29.03 in983.1 mb 0.28 in7.1 mm 0.00 in0.0 mm 1.21 in30.7 mm
02:14 AM 78.8°F26.0°C 34.3°F1.3°C 20% 7.0 mph NE11.3 kmh NE 18.0 mph29.0 kmh 29.03 in983.1 mb 0.27 in6.9 mm 0.00 in0.0 mm 1.21 in30.7 mm
02:15 AM 78.7°F25.9°C 34.2°F1.2°C 20% 8.0 mph NE12.9 kmh NE 18.0 mph29.0 kmh 29.04 in983.4 mb 0.26 in6.6 mm 0.00 in0.0 mm 1.21 in30.7 mm
02:16 AM 78.7°F25.9°C 34.2°F1.2°C 20% 8.0 mph NE12.9 kmh NE 18.0 mph29.0 kmh 29.04 in983.4 mb 0.25 in6.4 mm 0.00 in0.0 mm 1.21 in30.7 mm
02:17 AM 78.7°F25.9°C 34.2°F1.2°C 20% 7.0 mph NE11.3 kmh NE 18.0 mph29.0 kmh 29.03 in983.1 mb 0.24 in6.1 mm 0.00 in0.0 mm 1.21 in30.7 mm
02:18 AM 78.7°F25.9°C 34.2°F1.2°C 20% 6.0 mph NE9.7 kmh NE 18.0 mph29.0 kmh 29.03 in983.1 mb 0.23 in5.8 mm 0.00 in0.0 mm 1.21 in30.7 mm
02:19 AM 78.7°F25.9°C 34.2°F1.2°C 20% 7.0 mph NE11.3 kmh NE 15.0 mph24.1 kmh 29.04 in983.4 mb 0.22 in5.6 mm 0.00 in0.0 mm 1.21 in30.7 mm
02:20 AM 78.7°F25.9°C 34.2°F1.2°C 20% 7.0 mph NE11.3 kmh NE 15.0 mph24.1 kmh 29.04 in983.4 mb 0.21 in5.3 mm 0.00 in0.0 mm 1.21 in30.7 mm
02:21 AM 78.7°F25.9°C 33.0°F0.6°C 19% 6.0 mph NE9.7 kmh NE 13.0 mph20.9 kmh 29.03 in983.1 mb 0.21 in5.3 mm 0.00 in0.0 mm 1.21 in30.7 mm
02:22 AM 78.6°F25.9°C 32.9°F0.5°C 19% 7.0 mph NE11.3 kmh NE 13.0 mph20.9 kmh 29.04 in983.4 mb 0.20 in5.1 mm 0.00 in0.0 mm 1.21 in30.7 mm
02:23 AM 78.6°F25.9°C 32.9°F0.5°C 19% 8.0 mph NE12.9 kmh NE 13.0 mph20.9 kmh 29.03 in983.1 mb 0.19 in4.8 mm 0.00 in0.0 mm 1.21 in30.7 mm
02:24 AM 78.6°F25.9°C 32.9°F0.5°C 19% 9.0 mph NE14.5 kmh NE 16.0 mph25.7 kmh 29.03 in983.1 mb 0.18 in4.6 mm 0.00 in0.0 mm 1.21 in30.7 mm
02:25 AM 78.6°F25.9°C 32.9°F0.5°C 19% 5.0 mph NE8.0 kmh NE 16.0 mph25.7 kmh 29.03 in983.1 mb 0.18 in4.6 mm 0.00 in0.0 mm 1.21 in30.7 mm
02:26 AM 78.6°F25.9°C 32.9°F0.5°C 19% 8.0 mph NE12.9 kmh NE 16.0 mph25.7 kmh 29.03 in983.1 mb 0.16 in4.1 mm 0.00 in0.0 mm 1.21 in30.7 mm
02:27 AM 78.6°F25.9°C 32.9°F0.5°C 19% 8.0 mph NNE12.9 kmh NNE 16.0 mph25.7 kmh 29.03 in983.1 mb 0.16 in4.1 mm 0.00 in0.0 mm 1.22 in31.0 mm
02:28 AM 78.6°F25.9°C 32.9°F0.5°C 19% 7.0 mph NNE11.3 kmh NNE 16.0 mph25.7 kmh 29.03 in983.1 mb 0.15 in3.8 mm 0.00 in0.0 mm 1.22 in31.0 mm
02:29 AM 78.6°F25.9°C 32.9°F0.5°C 19% 5.0 mph NNE8.0 kmh NNE 16.0 mph25.7 kmh 29.03 in983.1 mb 0.15 in3.8 mm 0.00 in0.0 mm 1.22 in31.0 mm
02:30 AM 78.5°F25.8°C 32.8°F0.4°C 19% 6.0 mph NNE9.7 kmh NNE 16.0 mph25.7 kmh 29.03 in983.1 mb 0.15 in3.8 mm 0.00 in0.0 mm 1.23 in31.2 mm
02:31 AM 78.5°F25.8°C 31.4°F-0.3°C 18% 7.0 mph NNE11.3 kmh NNE 16.0 mph25.7 kmh 29.03 in983.1 mb 0.14 in3.6 mm 0.00 in0.0 mm 1.23 in31.2 mm
02:32 AM 78.5°F25.8°C 31.4°F-0.3°C 18% 5.0 mph N8.0 kmh N 16.0 mph25.7 kmh 29.03 in983.1 mb 0.14 in3.6 mm 0.00 in0.0 mm 1.23 in31.2 mm
02:33 AM 78.5°F25.8°C 31.4°F-0.3°C 18% 9.0 mph N14.5 kmh N 16.0 mph25.7 kmh 29.03 in983.1 mb 0.14 in3.6 mm 0.00 in0.0 mm 1.23 in31.2 mm
02:34 AM 78.5°F25.8°C 31.4°F-0.3°C 18% 9.0 mph N14.5 kmh N 16.0 mph25.7 kmh 29.03 in983.1 mb 0.13 in3.3 mm 0.00 in0.0 mm 1.23 in31.2 mm
02:35 AM 78.5°F25.8°C 31.4°F-0.3°C 18% 8.0 mph N12.9 kmh N 16.0 mph25.7 kmh 29.03 in983.1 mb 0.12 in3.0 mm 0.00 in0.0 mm 1.23 in31.2 mm
02:36 AM 78.5°F25.8°C 31.4°F-0.3°C 18% 8.0 mph N12.9 kmh N 16.0 mph25.7 kmh 29.03 in983.1 mb 0.12 in3.0 mm 0.00 in0.0 mm 1.23 in31.2 mm
02:37 AM 78.5°F25.8°C 31.4°F-0.3°C 18% 7.0 mph N11.3 kmh N 16.0 mph25.7 kmh 29.03 in983.1 mb 0.11 in2.8 mm 0.00 in0.0 mm 1.23 in31.2 mm
02:38 AM 78.4°F25.8°C 31.4°F-0.3°C 18% 6.0 mph NNE9.7 kmh NNE 16.0 mph25.7 kmh 29.03 in983.1 mb 0.11 in2.8 mm 0.00 in0.0 mm 1.23 in31.2 mm
02:39 AM 78.4°F25.8°C 31.4°F-0.3°C 18% 5.0 mph NNE8.0 kmh NNE 16.0 mph25.7 kmh 29.03 in983.1 mb 0.11 in2.8 mm 0.00 in0.0 mm 1.24 in31.5 mm
02:40 AM 78.4°F25.8°C 31.4°F-0.3°C 18% 9.0 mph NNE14.5 kmh NNE 16.0 mph25.7 kmh 29.02 in982.7 mb 0.11 in2.8 mm 0.00 in0.0 mm 1.24 in31.5 mm
02:41 AM 78.4°F25.8°C 31.4°F-0.3°C 18% 8.0 mph NNE12.9 kmh NNE 16.0 mph25.7 kmh 29.02 in982.7 mb 0.11 in2.8 mm 0.00 in0.0 mm 1.24 in31.5 mm
02:42 AM 78.4°F25.8°C 31.4°F-0.3°C 18% 9.0 mph NNE14.5 kmh NNE 16.0 mph25.7 kmh 29.03 in983.1 mb 0.11 in2.8 mm 0.00 in0.0 mm 1.24 in31.5 mm
02:43 AM 78.4°F25.8°C 31.4°F-0.3°C 18% 8.0 mph NNE12.9 kmh NNE 16.0 mph25.7 kmh 29.03 in983.1 mb 0.10 in2.5 mm 0.00 in0.0 mm 1.24 in31.5 mm
02:44 AM 78.4°F25.8°C 31.4°F-0.3°C 18% 8.0 mph NNE12.9 kmh NNE 16.0 mph25.7 kmh 29.03 in983.1 mb 0.10 in2.5 mm 0.00 in0.0 mm 1.24 in31.5 mm
02:45 AM 78.4°F25.8°C 30.0°F-1.1°C 17% 8.0 mph N12.9 kmh N 16.0 mph25.7 kmh 29.02 in982.7 mb 0.09 in2.3 mm 0.00 in0.0 mm 1.24 in31.5 mm
02:46 AM 78.4°F25.8°C 30.0°F-1.1°C 17% 8.0 mph N12.9 kmh N 16.0 mph25.7 kmh 29.03 in983.1 mb 0.09 in2.3 mm 0.00 in0.0 mm 1.24 in31.5 mm
02:47 AM 78.4°F25.8°C 30.0°F-1.1°C 17% 6.0 mph N9.7 kmh N 16.0 mph25.7 kmh 29.03 in983.1 mb 0.09 in2.3 mm 0.00 in0.0 mm 1.24 in31.5 mm
02:48 AM 78.4°F25.8°C 30.0°F-1.1°C 17% 7.0 mph N11.3 kmh N 16.0 mph25.7 kmh 29.03 in983.1 mb 0.09 in2.3 mm 0.00 in0.0 mm 1.25 in31.8 mm
02:49 AM 78.3°F25.7°C 29.9°F-1.2°C 17% 7.0 mph N11.3 kmh N 16.0 mph25.7 kmh 29.03 in983.1 mb 0.09 in2.3 mm 0.00 in0.0 mm 1.25 in31.8 mm
02:50 AM 78.4°F25.8°C 30.0°F-1.1°C 17% 6.0 mph N9.7 kmh N 14.0 mph22.5 kmh 29.03 in983.1 mb 0.09 in2.3 mm 0.00 in0.0 mm 1.25 in31.8 mm
02:51 AM 78.4°F25.8°C 30.0°F-1.1°C 17% 7.0 mph N11.3 kmh N 14.0 mph22.5 kmh 29.04 in983.4 mb 0.08 in2.0 mm 0.00 in0.0 mm 1.25 in31.8 mm
02:52 AM 78.4°F25.8°C 30.0°F-1.1°C 17% 6.0 mph N9.7 kmh N 14.0 mph22.5 kmh 29.04 in983.4 mb 0.08 in2.0 mm 0.00 in0.0 mm 1.25 in31.8 mm
02:53 AM 78.4°F25.8°C 30.0°F-1.1°C 17% 7.0 mph NNW11.3 kmh NNW 12.0 mph19.3 kmh 29.04 in983.4 mb 0.08 in2.0 mm 0.00 in0.0 mm 1.25 in31.8 mm
02:54 AM 78.4°F25.8°C 30.0°F-1.1°C 17% 6.0 mph NNW9.7 kmh NNW 11.0 mph17.7 kmh 29.04 in983.4 mb 0.08 in2.0 mm 0.00 in0.0 mm 1.25 in31.8 mm
02:55 AM 78.4°F25.8°C 30.0°F-1.1°C 17% 7.0 mph NNW11.3 kmh NNW 11.0 mph17.7 kmh 29.05 in983.7 mb 0.07 in1.8 mm 0.00 in0.0 mm 1.25 in31.8 mm
02:56 AM 78.4°F25.8°C 30.0°F-1.1°C 17% 9.0 mph NNW14.5 kmh NNW 14.0 mph22.5 kmh 29.05 in983.7 mb 0.07 in1.8 mm 0.00 in0.0 mm 1.25 in31.8 mm
02:57 AM 78.4°F25.8°C 30.0°F-1.1°C 17% 7.0 mph NNW11.3 kmh NNW 14.0 mph22.5 kmh 29.05 in983.7 mb 0.07 in1.8 mm 0.00 in0.0 mm 1.25 in31.8 mm
02:58 AM 78.4°F25.8°C 30.0°F-1.1°C 17% 5.0 mph NW8.0 kmh NW 14.0 mph22.5 kmh 29.05 in983.7 mb 0.07 in1.8 mm 0.00 in0.0 mm 1.25 in31.8 mm
02:59 AM 78.4°F25.8°C 30.0°F-1.1°C 17% 5.0 mph NW8.0 kmh NW 14.0 mph22.5 kmh 29.05 in983.7 mb 0.06 in1.5 mm 0.00 in0.0 mm 1.25 in31.8 mm
03:00 AM 78.4°F25.8°C 28.5°F-1.9°C 16% 7.0 mph NW11.3 kmh NW 14.0 mph22.5 kmh 29.05 in983.7 mb 0.06 in1.5 mm 0.00 in0.0 mm 1.25 in31.8 mm
03:01 AM 78.4°F25.8°C 28.5°F-1.9°C 16% 6.0 mph NW9.7 kmh NW 14.0 mph22.5 kmh 29.05 in983.7 mb 0.06 in1.5 mm 0.00 in0.0 mm 1.25 in31.8 mm
03:02 AM 78.4°F25.8°C 28.5°F-1.9°C 16% 4.0 mph NW6.4 kmh NW 14.0 mph22.5 kmh 29.06 in984.1 mb 0.06 in1.5 mm 0.00 in0.0 mm 1.25 in31.8 mm
03:03 AM 78.5°F25.8°C 28.5°F-1.9°C 16% 4.0 mph NW6.4 kmh NW 14.0 mph22.5 kmh 29.06 in984.1 mb 0.06 in1.5 mm 0.00 in0.0 mm 1.25 in31.8 mm
03:04 AM 78.5°F25.8°C 28.5°F-1.9°C 16% 5.0 mph NW8.0 kmh NW 14.0 mph22.5 kmh 29.06 in984.1 mb 0.05 in1.3 mm 0.00 in0.0 mm 1.25 in31.8 mm
03:05 AM 78.5°F25.8°C 28.5°F-1.9°C 16% 7.0 mph NW11.3 kmh NW 14.0 mph22.5 kmh 29.06 in984.1 mb 0.05 in1.3 mm 0.00 in0.0 mm 1.25 in31.8 mm
03:06 AM 78.5°F25.8°C 28.5°F-1.9°C 16% 7.0 mph NW11.3 kmh NW 12.0 mph19.3 kmh 29.06 in984.1 mb 0.05 in1.3 mm 0.00 in0.0 mm 1.25 in31.8 mm
03:07 AM 78.5°F25.8°C 28.5°F-1.9°C 16% 7.0 mph NW11.3 kmh NW 12.0 mph19.3 kmh 29.06 in984.1 mb 0.05 in1.3 mm 0.00 in0.0 mm 1.25 in31.8 mm
03:08 AM 78.5°F25.8°C 28.5°F-1.9°C 16% 6.0 mph NW9.7 kmh NW 12.0 mph19.3 kmh 29.06 in984.1 mb 0.05 in1.3 mm 0.00 in0.0 mm 1.25 in31.8 mm
03:09 AM 78.5°F25.8°C 28.5°F-1.9°C 16% 5.0 mph NW8.0 kmh NW 12.0 mph19.3 kmh 29.06 in984.1 mb 0.05 in1.3 mm 0.00 in0.0 mm 1.25 in31.8 mm
03:10 AM 78.5°F25.8°C 28.5°F-1.9°C 16% 6.0 mph NW9.7 kmh NW 12.0 mph19.3 kmh 29.07 in984.4 mb 0.05 in1.3 mm 0.00 in0.0 mm 1.25 in31.8 mm
03:11 AM 78.5°F25.8°C 28.5°F-1.9°C 16% 7.0 mph NW11.3 kmh NW 12.0 mph19.3 kmh 29.07 in984.4 mb 0.05 in1.3 mm 0.00 in0.0 mm 1.25 in31.8 mm
03:12 AM 78.5°F25.8°C 28.5°F-1.9°C 16% 4.0 mph NW6.4 kmh NW 12.0 mph19.3 kmh 29.07 in984.4 mb 0.04 in1.0 mm 0.00 in0.0 mm 1.25 in31.8 mm
03:13 AM 78.6°F25.9°C 28.6°F-1.9°C 16% 4.0 mph NW6.4 kmh NW 12.0 mph19.3 kmh 29.07 in984.4 mb 0.04 in1.0 mm 0.00 in0.0 mm 1.25 in31.8 mm
03:14 AM 78.6°F25.9°C 28.6°F-1.9°C 16% 5.0 mph NW8.0 kmh NW 12.0 mph19.3 kmh 29.07 in984.4 mb 0.04 in1.0 mm 0.00 in0.0 mm 1.25 in31.8 mm
03:15 AM 78.6°F25.9°C 27.1°F-2.7°C 15% 5.0 mph NW8.0 kmh NW 12.0 mph19.3 kmh 29.07 in984.4 mb 0.04 in1.0 mm 0.00 in0.0 mm 1.25 in31.8 mm
03:16 AM 78.6°F25.9°C 27.1°F-2.7°C 15% 7.0 mph NW11.3 kmh NW 12.0 mph19.3 kmh 29.07 in984.4 mb 0.04 in1.0 mm 0.00 in0.0 mm 1.25 in31.8 mm
03:17 AM 78.6°F25.9°C 27.1°F-2.7°C 15% 9.0 mph NW14.5 kmh NW 18.0 mph29.0 kmh 29.07 in984.4 mb 0.05 in1.3 mm 0.60 in15.2 mm 1.26 in32.0 mm
03:18 AM 78.6°F25.9°C 27.1°F-2.7°C 15% 5.0 mph NW8.0 kmh NW 18.0 mph29.0 kmh 29.08 in984.8 mb 0.05 in1.3 mm 0.00 in0.0 mm 1.26 in32.0 mm
03:19 AM 78.6°F25.9°C 27.1°F-2.7°C 15% 6.0 mph NW9.7 kmh NW 18.0 mph29.0 kmh 29.08 in984.8 mb 0.05 in1.3 mm 0.00 in0.0 mm 1.26 in32.0 mm
03:20 AM 78.7°F25.9°C 27.1°F-2.7°C 15% 5.0 mph NW8.0 kmh NW 18.0 mph29.0 kmh 29.08 in984.8 mb 0.05 in1.3 mm 0.00 in0.0 mm 1.26 in32.0 mm
03:21 AM 78.7°F25.9°C 27.1°F-2.7°C 15% 5.0 mph NW8.0 kmh NW 18.0 mph29.0 kmh 29.08 in984.8 mb 0.05 in1.3 mm 0.00 in0.0 mm 1.26 in32.0 mm
03:22 AM 78.7°F25.9°C 27.1°F-2.7°C 15% 6.0 mph NW9.7 kmh NW 18.0 mph29.0 kmh 29.09 in985.1 mb 0.05 in1.3 mm 0.00 in0.0 mm 1.26 in32.0 mm
03:23 AM 78.7°F25.9°C 27.1°F-2.7°C 15% 6.0 mph NW9.7 kmh NW 18.0 mph29.0 kmh 29.09 in985.1 mb 0.05 in1.3 mm 0.00 in0.0 mm 1.26 in32.0 mm
03:24 AM 78.7°F25.9°C 27.1°F-2.7°C 15% 5.0 mph NW8.0 kmh NW 18.0 mph29.0 kmh 29.09 in985.1 mb 0.05 in1.3 mm 0.00 in0.0 mm 1.26 in32.0 mm
03:25 AM 78.7°F25.9°C 27.1°F-2.7°C 15% 5.0 mph NW8.0 kmh NW 18.0 mph29.0 kmh 29.09 in985.1 mb 0.05 in1.3 mm 0.00 in0.0 mm 1.26 in32.0 mm
03:26 AM 78.8°F26.0°C 27.2°F-2.7°C 15% 6.0 mph NW9.7 kmh NW 18.0 mph29.0 kmh 29.09 in985.1 mb 0.05 in1.3 mm 0.00 in0.0 mm 1.26 in32.0 mm
03:27 AM 78.8°F26.0°C 27.2°F-2.7°C 15% 4.0 mph NW6.4 kmh NW 11.0 mph17.7 kmh 29.09 in985.1 mb 0.04 in1.0 mm 0.00 in0.0 mm 1.26 in32.0 mm
03:28 AM 78.8°F26.0°C 27.2°F-2.7°C 15% 6.0 mph NW9.7 kmh NW 11.0 mph17.7 kmh 29.10 in985.4 mb 0.04 in1.0 mm 0.00 in0.0 mm 1.26 in32.0 mm
03:29 AM 78.8°F26.0°C 27.2°F-2.7°C 15% 4.0 mph NW6.4 kmh NW 10.0 mph16.1 kmh 29.10 in985.4 mb 0.04 in1.0 mm 0.00 in0.0 mm 1.26 in32.0 mm
03:30 AM 78.8°F26.0°C 27.2°F-2.7°C 15% 5.0 mph NW8.0 kmh NW 10.0 mph16.1 kmh 29.10 in985.4 mb 0.03 in0.8 mm 0.00 in0.0 mm 1.26 in32.0 mm
03:31 AM 78.8°F26.0°C 27.2°F-2.7°C 15% 6.0 mph NW9.7 kmh NW 10.0 mph16.1 kmh 29.11 in985.8 mb 0.03 in0.8 mm 0.00 in0.0 mm 1.26 in32.0 mm
03:32 AM 78.8°F26.0°C 27.2°F-2.7°C 15% 8.0 mph NW12.9 kmh NW 12.0 mph19.3 kmh 29.10 in985.4 mb 0.03 in0.8 mm 0.00 in0.0 mm 1.26 in32.0 mm
03:33 AM 78.8°F26.0°C 27.2°F-2.7°C 15% 8.0 mph NW12.9 kmh NW 13.0 mph20.9 kmh 29.10 in985.4 mb 0.03 in0.8 mm 0.00 in0.0 mm 1.26 in32.0 mm
03:34 AM 78.8°F26.0°C 27.2°F-2.7°C 15% 7.0 mph NW11.3 kmh NW 13.0 mph20.9 kmh 29.11 in985.8 mb 0.03 in0.8 mm 0.00 in0.0 mm 1.26 in32.0 mm
03:35 AM 78.8°F26.0°C 27.2°F-2.7°C 15% 6.0 mph NW9.7 kmh NW 13.0 mph20.9 kmh 29.11 in985.8 mb 0.03 in0.8 mm 0.00 in0.0 mm 1.26 in32.0 mm
03:36 AM 78.8°F26.0°C 27.2°F-2.7°C 15% 8.0 mph NW12.9 kmh NW 13.0 mph20.9 kmh 29.11 in985.8 mb 0.03 in0.8 mm 0.00 in0.0 mm 1.26 in32.0 mm
03:37 AM 78.8°F26.0°C 27.2°F-2.7°C 15% 7.0 mph NW11.3 kmh NW 13.0 mph20.9 kmh 29.11 in985.8 mb 0.03 in0.8 mm 0.00 in0.0 mm 1.26 in32.0 mm
03:38 AM 78.8°F26.0°C 27.2°F-2.7°C 15% 5.0 mph NW8.0 kmh NW 13.0 mph20.9 kmh 29.11 in985.8 mb 0.03 in0.8 mm 0.00 in0.0 mm 1.26 in32.0 mm
03:39 AM 78.8°F26.0°C 27.2°F-2.7°C 15% 5.0 mph NW8.0 kmh NW 13.0 mph20.9 kmh 29.11 in985.8 mb 0.02 in0.5 mm 0.00 in0.0 mm 1.26 in32.0 mm
03:40 AM 78.8°F26.0°C 27.2°F-2.7°C 15% 7.0 mph NW11.3 kmh NW 13.0 mph20.9 kmh 29.12 in986.1 mb 0.02 in0.5 mm 0.00 in0.0 mm 1.26 in32.0 mm
03:41 AM 78.9°F26.1°C 25.6°F-3.6°C 14% 5.0 mph NW8.0 kmh NW 13.0 mph20.9 kmh 29.12 in986.1 mb 0.03 in0.8 mm 0.60 in15.2 mm 1.27 in32.3 mm
03:42 AM 78.9°F26.1°C 25.6°F-3.6°C 14% 2.0 mph NW3.2 kmh NW 13.0 mph20.9 kmh 29.12 in986.1 mb 0.03 in0.8 mm 0.00 in0.0 mm 1.27 in32.3 mm
03:43 AM 78.9°F26.1°C 25.6°F-3.6°C 14% 4.0 mph NW6.4 kmh NW 13.0 mph20.9 kmh 29.12 in986.1 mb 0.03 in0.8 mm 0.00 in0.0 mm 1.27 in32.3 mm
03:44 AM 78.9°F26.1°C 25.6°F-3.6°C 14% 6.0 mph NW9.7 kmh NW 15.0 mph24.1 kmh 29.12 in986.1 mb 0.03 in0.8 mm 0.00 in0.0 mm 1.27 in32.3 mm
03:45 AM 78.9°F26.1°C 25.6°F-3.6°C 14% 3.0 mph NW4.8 kmh NW 15.0 mph24.1 kmh 29.13 in986.5 mb 0.03 in0.8 mm 0.00 in0.0 mm 1.27 in32.3 mm
03:46 AM 78.9°F26.1°C 25.6°F-3.6°C 14% 3.0 mph NW4.8 kmh NW 15.0 mph24.1 kmh 29.13 in986.5 mb 0.03 in0.8 mm 0.00 in0.0 mm 1.27 in32.3 mm
03:47 AM 78.9°F26.1°C 25.6°F-3.6°C 14% 3.0 mph NW4.8 kmh NW 15.0 mph24.1 kmh 29.13 in986.5 mb 0.03 in0.8 mm 0.00 in0.0 mm 1.27 in32.3 mm
03:48 AM 78.9°F26.1°C 25.6°F-3.6°C 14% 5.0 mph NW8.0 kmh NW 15.0 mph24.1 kmh 29.13 in986.5 mb 0.02 in0.5 mm 0.00 in0.0 mm 1.27 in32.3 mm
03:49 AM 78.9°F26.1°C 25.6°F-3.6°C 14% 4.0 mph NW6.4 kmh NW 15.0 mph24.1 kmh 29.14 in986.8 mb 0.02 in0.5 mm 0.00 in0.0 mm 1.27 in32.3 mm
03:50 AM 78.9°F26.1°C 25.6°F-3.6°C 14% 3.0 mph NW4.8 kmh NW 15.0 mph24.1 kmh 29.14 in986.8 mb 0.02 in0.5 mm 0.00 in0.0 mm 1.27 in32.3 mm
03:51 AM 78.9°F26.1°C 25.6°F-3.6°C 14% 5.0 mph NW8.0 kmh NW 15.0 mph24.1 kmh 29.14 in986.8 mb 0.02 in0.5 mm 0.00 in0.0 mm 1.27 in32.3 mm
03:52 AM 78.9°F26.1°C 25.6°F-3.6°C 14% 3.0 mph NW4.8 kmh NW 15.0 mph24.1 kmh 29.14 in986.8 mb 0.02 in0.5 mm 0.00 in0.0 mm 1.27 in32.3 mm
03:53 AM 78.9°F26.1°C 25.6°F-3.6°C 14% 4.0 mph NW6.4 kmh NW 15.0 mph24.1 kmh 29.14 in986.8 mb 0.02 in0.5 mm 0.00 in0.0 mm 1.27 in32.3 mm
03:54 AM 78.9°F26.1°C 25.6°F-3.6°C 14% 5.0 mph NW8.0 kmh NW 11.0 mph17.7 kmh 29.14 in986.8 mb 0.02 in0.5 mm 0.00 in0.0 mm 1.27 in32.3 mm
03:55 AM 78.9°F26.1°C 25.6°F-3.6°C 14% 4.0 mph NW6.4 kmh NW 11.0 mph17.7 kmh 29.15 in987.1 mb 0.02 in0.5 mm 0.00 in0.0 mm 1.27 in32.3 mm
03:56 AM 78.9°F26.1°C 25.6°F-3.6°C 14% 6.0 mph NW9.7 kmh NW 11.0 mph17.7 kmh 29.15 in987.1 mb 0.02 in0.5 mm 0.00 in0.0 mm 1.27 in32.3 mm
03:57 AM 79.0°F26.1°C 20.0°F-6.7°C 11% 6.0 mph NW9.7 kmh NW 11.0 mph17.7 kmh 29.15 in987.1 mb 0.02 in0.5 mm 0.00 in0.0 mm 1.27 in32.3 mm
03:58 AM 78.9°F26.1°C 19.9°F-6.7°C 11% 5.0 mph NW8.0 kmh NW 11.0 mph17.7 kmh 29.15 in987.1 mb 0.02 in0.5 mm 0.00 in0.0 mm 1.27 in32.3 mm
03:59 AM 79.0°F26.1°C 20.0°F-6.7°C 11% 6.0 mph NW9.7 kmh NW 11.0 mph17.7 kmh 29.15 in987.1 mb 0.02 in0.5 mm 0.00 in0.0 mm 1.27 in32.3 mm
04:00 AM 79.0°F26.1°C 20.0°F-6.7°C 11% 3.0 mph NW4.8 kmh NW 11.0 mph17.7 kmh 29.15 in987.1 mb 0.02 in0.5 mm 0.00 in0.0 mm 1.27 in32.3 mm
04:01 AM 79.0°F26.1°C 20.0°F-6.7°C 11% 3.0 mph NW4.8 kmh NW 11.0 mph17.7 kmh 29.15 in987.1 mb 0.02 in0.5 mm 0.00 in0.0 mm 1.27 in32.3 mm
04:02 AM 79.0°F26.1°C 20.0°F-6.7°C 11% 3.0 mph NW4.8 kmh NW 11.0 mph17.7 kmh 29.15 in987.1 mb 0.02 in0.5 mm 0.00 in0.0 mm 1.27 in32.3 mm
04:03 AM 79.0°F26.1°C 20.0°F-6.7°C 11% 6.0 mph NW9.7 kmh NW 11.0 mph17.7 kmh 29.15 in987.1 mb 0.02 in0.5 mm 0.00 in0.0 mm 1.27 in32.3 mm
04:04 AM 79.0°F26.1°C 20.0°F-6.7°C 11% 5.0 mph NW8.0 kmh NW 11.0 mph17.7 kmh 29.15 in987.1 mb 0.02 in0.5 mm 0.00 in0.0 mm 1.27 in32.3 mm
04:05 AM 79.0°F26.1°C 20.0°F-6.7°C 11% 6.0 mph NW9.7 kmh NW 11.0 mph17.7 kmh 29.15 in987.1 mb 0.02 in0.5 mm 0.00 in0.0 mm 1.27 in32.3 mm
04:06 AM 79.0°F26.1°C 20.0°F-6.7°C 11% 5.0 mph NW8.0 kmh NW 11.0 mph17.7 kmh 29.16 in987.5 mb 0.02 in0.5 mm 0.00 in0.0 mm 1.27 in32.3 mm
04:07 AM 79.0°F26.1°C 20.0°F-6.7°C 11% 7.0 mph NW11.3 kmh NW 11.0 mph17.7 kmh 29.16 in987.5 mb 0.02 in0.5 mm 0.00 in0.0 mm 1.27 in32.3 mm
04:08 AM 79.0°F26.1°C 20.0°F-6.7°C 11% 4.0 mph NW6.4 kmh NW 11.0 mph17.7 kmh 29.16 in987.5 mb 0.02 in0.5 mm 0.00 in0.0 mm 1.27 in32.3 mm
04:09 AM 79.0°F26.1°C 20.0°F-6.7°C 11% 5.0 mph NW8.0 kmh NW 11.0 mph17.7 kmh 29.16 in987.5 mb 0.02 in0.5 mm 0.00 in0.0 mm 1.27 in32.3 mm
04:10 AM 79.0°F26.1°C 20.0°F-6.7°C 11% 4.0 mph NW6.4 kmh NW 11.0 mph17.7 kmh 29.16 in987.5 mb 0.02 in0.5 mm 0.00 in0.0 mm 1.27 in32.3 mm
04:11 AM 79.0°F26.1°C 20.0°F-6.7°C 11% 4.0 mph NW6.4 kmh NW 11.0 mph17.7 kmh 29.17 in987.8 mb 0.02 in0.5 mm 0.00 in0.0 mm 1.27 in32.3 mm
04:12 AM 78.9°F26.1°C 19.9°F-6.7°C 11% 6.0 mph NW9.7 kmh NW 11.0 mph17.7 kmh 29.17 in987.8 mb 0.02 in0.5 mm 0.00 in0.0 mm 1.27 in32.3 mm
04:13 AM 79.0°F26.1°C 20.0°F-6.7°C 11% 4.0 mph NW6.4 kmh NW 11.0 mph17.7 kmh 29.17 in987.8 mb 0.02 in0.5 mm 0.00 in0.0 mm 1.27 in32.3 mm
04:14 AM 79.0°F26.1°C 20.0°F-6.7°C 11% 4.0 mph NW6.4 kmh NW 11.0 mph17.7 kmh 29.18 in988.1 mb 0.02 in0.5 mm 0.00 in0.0 mm 1.27 in32.3 mm
04:15 AM 79.0°F26.1°C 20.0°F-6.7°C 11% 6.0 mph NW9.7 kmh NW 11.0 mph17.7 kmh 29.18 in988.1 mb 0.02 in0.5 mm 0.00 in0.0 mm 1.27 in32.3 mm
04:16 AM 78.9°F26.1°C 19.9°F-6.7°C 11% 4.0 mph NW6.4 kmh NW 11.0 mph17.7 kmh 29.18 in988.1 mb 0.02 in0.5 mm 0.00 in0.0 mm 1.27 in32.3 mm
04:17 AM 79.0°F26.1°C 20.0°F-6.7°C 11% 3.0 mph WNW4.8 kmh WNW 11.0 mph17.7 kmh 29.18 in988.1 mb 0.01 in0.3 mm 0.00 in0.0 mm 1.27 in32.3 mm
04:18 AM 78.9°F26.1°C 19.9°F-6.7°C 11% 3.0 mph WNW4.8 kmh WNW 11.0 mph17.7 kmh 29.18 in988.1 mb 0.01 in0.3 mm 0.00 in0.0 mm 1.27 in32.3 mm
04:19 AM 78.9°F26.1°C 19.9°F-6.7°C 11% 4.0 mph WNW6.4 kmh WNW 11.0 mph17.7 kmh 29.19 in988.5 mb 0.01 in0.3 mm 0.00 in0.0 mm 1.27 in32.3 mm
04:20 AM 78.9°F26.1°C 19.9°F-6.7°C 11% 4.0 mph NW6.4 kmh NW 11.0 mph17.7 kmh 29.19 in988.5 mb 0.01 in0.3 mm 0.00 in0.0 mm 1.27 in32.3 mm
04:21 AM 78.9°F26.1°C 19.9°F-6.7°C 11% 3.0 mph WNW4.8 kmh WNW 11.0 mph17.7 kmh 29.19 in988.5 mb 0.01 in0.3 mm 0.00 in0.0 mm 1.27 in32.3 mm
04:22 AM 78.9°F26.1°C 19.9°F-6.7°C 11% 4.0 mph WNW6.4 kmh WNW 11.0 mph17.7 kmh 29.19 in988.5 mb 0.01 in0.3 mm 0.00 in0.0 mm 1.27 in32.3 mm
04:23 AM 78.9°F26.1°C 19.9°F-6.7°C 11% 4.0 mph WNW6.4 kmh WNW 11.0 mph17.7 kmh 29.19 in988.5 mb 0.01 in0.3 mm 0.00 in0.0 mm 1.27 in32.3 mm
04:24 AM 78.9°F26.1°C 19.9°F-6.7°C 11% 3.0 mph NW4.8 kmh NW 11.0 mph17.7 kmh 29.20 in988.8 mb 0.01 in0.3 mm 0.00 in0.0 mm 1.27 in32.3 mm
04:25 AM 78.9°F26.1°C 19.9°F-6.7°C 11% 3.0 mph NW4.8 kmh NW 11.0 mph17.7 kmh 29.20 in988.8 mb 0.01 in0.3 mm 0.00 in0.0 mm 1.27 in32.3 mm
04:26 AM 78.9°F26.1°C 19.9°F-6.7°C 11% 3.0 mph NW4.8 kmh NW 11.0 mph17.7 kmh 29.20 in988.8 mb 0.01 in0.3 mm 0.00 in0.0 mm 1.27 in32.3 mm
04:27 AM 78.9°F26.1°C 19.9°F-6.7°C 11% 5.0 mph NW8.0 kmh NW 11.0 mph17.7 kmh 29.20 in988.8 mb 0.01 in0.3 mm 0.00 in0.0 mm 1.27 in32.3 mm
04:28 AM 78.9°F26.1°C 19.9°F-6.7°C 11% 3.0 mph NW4.8 kmh NW 11.0 mph17.7 kmh 29.21 in989.2 mb 0.01 in0.3 mm 0.00 in0.0 mm 1.27 in32.3 mm
04:29 AM 78.9°F26.1°C 19.9°F-6.7°C 11% 4.0 mph NW6.4 kmh NW 11.0 mph17.7 kmh 29.21 in989.2 mb 0.01 in0.3 mm 0.00 in0.0 mm 1.27 in32.3 mm
04:30 AM 78.9°F26.1°C 19.9°F-6.7°C 11% 5.0 mph NW8.0 kmh NW 13.0 mph20.9 kmh 29.21 in989.2 mb 0.01 in0.3 mm 0.00 in0.0 mm 1.27 in32.3 mm
04:31 AM 78.9°F26.1°C 19.9°F-6.7°C 11% 2.0 mph NW3.2 kmh NW 13.0 mph20.9 kmh 29.22 in989.5 mb 0.01 in0.3 mm 0.00 in0.0 mm 1.27 in32.3 mm
04:32 AM 78.9°F26.1°C 19.9°F-6.7°C 11% 3.0 mph WNW4.8 kmh WNW 13.0 mph20.9 kmh 29.22 in989.5 mb 0.01 in0.3 mm 0.00 in0.0 mm 1.27 in32.3 mm
04:33 AM 78.9°F26.1°C 17.7°F-7.9°C 10% 4.0 mph WNW6.4 kmh WNW 13.0 mph20.9 kmh 29.23 in989.8 mb 0.01 in0.3 mm 0.00 in0.0 mm 1.27 in32.3 mm
04:34 AM 78.9°F26.1°C 19.9°F-6.7°C 11% 4.0 mph WNW6.4 kmh WNW 13.0 mph20.9 kmh 29.23 in989.8 mb 0.01 in0.3 mm 0.00 in0.0 mm 1.27 in32.3 mm
04:35 AM 78.9°F26.1°C 19.9°F-6.7°C 11% 3.0 mph WNW4.8 kmh WNW 13.0 mph20.9 kmh 29.23 in989.8 mb 0.02 in0.5 mm 0.60 in15.2 mm 1.28 in32.5 mm
04:36 AM 78.9°F26.1°C 19.9°F-6.7°C 11% 5.0 mph WNW8.0 kmh WNW 13.0 mph20.9 kmh 29.23 in989.8 mb 0.02 in0.5 mm 0.00 in0.0 mm 1.28 in32.5 mm
04:37 AM 78.9°F26.1°C 19.9°F-6.7°C 11% 5.0 mph WNW8.0 kmh WNW 13.0 mph20.9 kmh 29.24 in990.2 mb 0.03 in0.8 mm 0.60 in15.2 mm 1.29 in32.8 mm
04:38 AM 78.9°F26.1°C 19.9°F-6.7°C 11% 6.0 mph WNW9.7 kmh WNW 13.0 mph20.9 kmh 29.24 in990.2 mb 0.03 in0.8 mm 0.00 in0.0 mm 1.29 in32.8 mm
04:39 AM 78.9°F26.1°C 19.9°F-6.7°C 11% 8.0 mph WNW12.9 kmh WNW 19.0 mph30.6 kmh 29.24 in990.2 mb 0.04 in1.0 mm 0.60 in15.2 mm 1.30 in33.0 mm
04:40 AM 78.9°F26.1°C 17.7°F-7.9°C 10% 8.0 mph WNW12.9 kmh WNW 19.0 mph30.6 kmh 29.25 in990.5 mb 0.04 in1.0 mm 0.00 in0.0 mm 1.30 in33.0 mm
04:41 AM 78.9°F26.1°C 17.7°F-7.9°C 10% 10.0 mph WNW16.1 kmh WNW 21.0 mph33.8 kmh 29.25 in990.5 mb 0.04 in1.0 mm 0.00 in0.0 mm 1.31 in33.3 mm
04:42 AM 78.9°F26.1°C 17.7°F-7.9°C 10% 6.0 mph NW9.7 kmh NW 21.0 mph33.8 kmh 29.25 in990.5 mb 0.04 in1.0 mm 0.00 in0.0 mm 1.31 in33.3 mm
04:43 AM 78.8°F26.0°C 17.6°F-8.0°C 10% 7.0 mph NW11.3 kmh NW 21.0 mph33.8 kmh 29.25 in990.5 mb 0.04 in1.0 mm 0.00 in0.0 mm 1.31 in33.3 mm
04:44 AM 78.8°F26.0°C 17.6°F-8.0°C 10% 9.0 mph NW14.5 kmh NW 21.0 mph33.8 kmh 29.26 in990.9 mb 0.04 in1.0 mm 0.00 in0.0 mm 1.31 in33.3 mm
04:45 AM 78.7°F25.9°C 17.5°F-8.1°C 10% 6.0 mph NW9.7 kmh NW 21.0 mph33.8 kmh 29.26 in990.9 mb 0.04 in1.0 mm 0.00 in0.0 mm 1.31 in33.3 mm
04:46 AM 78.7°F25.9°C 17.5°F-8.1°C 10% 5.0 mph NW8.0 kmh NW 21.0 mph33.8 kmh 29.27 in991.2 mb 0.04 in1.0 mm 0.00 in0.0 mm 1.31 in33.3 mm
04:47 AM 78.6°F25.9°C 17.4°F-8.1°C 10% 6.0 mph NW9.7 kmh NW 21.0 mph33.8 kmh 29.26 in990.9 mb 0.05 in1.3 mm 0.60 in15.2 mm 1.32 in33.5 mm
04:48 AM 78.5°F25.8°C 17.4°F-8.1°C 10% 4.0 mph NW6.4 kmh NW 21.0 mph33.8 kmh 29.27 in991.2 mb 0.05 in1.3 mm 0.00 in0.0 mm 1.32 in33.5 mm
04:49 AM 78.5°F25.8°C 17.4°F-8.1°C 10% 5.0 mph WNW8.0 kmh WNW 21.0 mph33.8 kmh 29.27 in991.2 mb 0.06 in1.5 mm 0.60 in15.2 mm 1.33 in33.8 mm
04:50 AM 78.4°F25.8°C 17.3°F-8.2°C 10% 6.0 mph WNW9.7 kmh WNW 21.0 mph33.8 kmh 29.27 in991.2 mb 0.07 in1.8 mm 0.60 in15.2 mm 1.34 in34.0 mm
04:51 AM 78.3°F25.7°C 17.2°F-8.2°C 10% 4.0 mph NW6.4 kmh NW 21.0 mph33.8 kmh 29.27 in991.2 mb 0.08 in2.0 mm 0.60 in15.2 mm 1.35 in34.3 mm
04:52 AM 78.2°F25.7°C 17.1°F-8.3°C 10% 5.0 mph NW8.0 kmh NW 18.0 mph29.0 kmh 29.27 in991.2 mb 0.08 in2.0 mm 0.00 in0.0 mm 1.35 in34.3 mm
04:53 AM 78.1°F25.6°C 17.0°F-8.3°C 10% 4.0 mph WNW6.4 kmh WNW 18.0 mph29.0 kmh 29.28 in991.5 mb 0.08 in2.0 mm 0.00 in0.0 mm 1.35 in34.3 mm
04:54 AM 78.1°F25.6°C 19.3°F-7.1°C 11% 4.0 mph WNW6.4 kmh WNW 11.0 mph17.7 kmh 29.28 in991.5 mb 0.08 in2.0 mm 0.00 in0.0 mm 1.35 in34.3 mm
04:55 AM 78.0°F25.6°C 19.2°F-7.1°C 11% 6.0 mph W9.7 kmh W 11.0 mph17.7 kmh 29.28 in991.5 mb 0.09 in2.3 mm 0.60 in15.2 mm 1.36 in34.5 mm
04:56 AM 77.9°F25.5°C 19.1°F-7.2°C 11% 5.0 mph W8.0 kmh W 11.0 mph17.7 kmh 29.28 in991.5 mb 0.10 in2.5 mm 0.60 in15.2 mm 1.37 in34.8 mm
04:57 AM 77.9°F25.5°C 19.1°F-7.2°C 11% 4.0 mph W6.4 kmh W 11.0 mph17.7 kmh 29.29 in991.9 mb 0.10 in2.5 mm 0.00 in0.0 mm 1.37 in34.8 mm
04:58 AM 77.9°F25.5°C 19.1°F-7.2°C 11% 4.0 mph W6.4 kmh W 11.0 mph17.7 kmh 29.29 in991.9 mb 0.10 in2.5 mm 0.00 in0.0 mm 1.37 in34.8 mm
04:59 AM 77.8°F25.4°C 19.0°F-7.2°C 11% 7.0 mph W11.3 kmh W 15.0 mph24.1 kmh 29.29 in991.9 mb 0.11 in2.8 mm 0.60 in15.2 mm 1.38 in35.1 mm
05:00 AM 77.8°F25.4°C 19.0°F-7.2°C 11% 5.0 mph W8.0 kmh W 15.0 mph24.1 kmh 29.29 in991.9 mb 0.12 in3.0 mm 0.01 in0.3 mm 1.39 in35.3 mm
05:01 AM 77.8°F25.4°C 19.0°F-7.2°C 11% 5.0 mph WSW8.0 kmh WSW 15.0 mph24.1 kmh 29.29 in991.9 mb 0.12 in3.0 mm 0.00 in0.0 mm 1.39 in35.3 mm
05:02 AM 77.8°F25.4°C 19.0°F-7.2°C 11% 5.0 mph WSW8.0 kmh WSW 15.0 mph24.1 kmh 29.29 in991.9 mb 0.13 in3.3 mm 0.60 in15.2 mm 1.40 in35.6 mm
05:03 AM 77.8°F25.4°C 19.0°F-7.2°C 11% 3.0 mph WSW4.8 kmh WSW 15.0 mph24.1 kmh 29.30 in992.2 mb 0.13 in3.3 mm 0.00 in0.0 mm 1.40 in35.6 mm
05:04 AM 77.8°F25.4°C 19.0°F-7.2°C 11% 6.0 mph WSW9.7 kmh WSW 15.0 mph24.1 kmh 29.30 in992.2 mb 0.14 in3.6 mm 0.60 in15.2 mm 1.41 in35.8 mm
05:05 AM 77.8°F25.4°C 19.0°F-7.2°C 11% 6.0 mph W9.7 kmh W 22.0 mph35.4 kmh 29.30 in992.2 mb 0.14 in3.6 mm 0.00 in0.0 mm 1.41 in35.8 mm
05:06 AM 77.8°F25.4°C 19.0°F-7.2°C 11% 4.0 mph W6.4 kmh W 22.0 mph35.4 kmh 29.30 in992.2 mb 0.15 in3.8 mm 0.60 in15.2 mm 1.42 in36.1 mm
05:07 AM 77.8°F25.4°C 19.0°F-7.2°C 11% 4.0 mph W6.4 kmh W 22.0 mph35.4 kmh 29.30 in992.2 mb 0.16 in4.1 mm 0.60 in15.2 mm 1.43 in36.3 mm
05:08 AM 77.8°F25.4°C 19.0°F-7.2°C 11% 8.0 mph WNW12.9 kmh WNW 22.0 mph35.4 kmh 29.30 in992.2 mb 0.16 in4.1 mm 0.00 in0.0 mm 1.43 in36.3 mm
05:09 AM 77.8°F25.4°C 16.8°F-8.4°C 10% 4.0 mph WNW6.4 kmh WNW 22.0 mph35.4 kmh 29.30 in992.2 mb 0.16 in4.1 mm 0.00 in0.0 mm 1.43 in36.3 mm
05:10 AM 77.8°F25.4°C 16.8°F-8.4°C 10% 3.0 mph WNW4.8 kmh WNW 22.0 mph35.4 kmh 29.31 in992.6 mb 0.17 in4.3 mm 0.60 in15.2 mm 1.44 in36.6 mm
05:11 AM 77.9°F25.5°C 14.5°F-9.7°C 9% 3.0 mph NW4.8 kmh NW 22.0 mph35.4 kmh 29.31 in992.6 mb 0.17 in4.3 mm 0.00 in0.0 mm 1.44 in36.6 mm
05:12 AM 77.9°F25.5°C 16.9°F-8.4°C 10% 3.0 mph NW4.8 kmh NW 22.0 mph35.4 kmh 29.31 in992.6 mb 0.17 in4.3 mm 0.00 in0.0 mm 1.44 in36.6 mm
05:13 AM 77.9°F25.5°C 16.9°F-8.4°C 10% 4.0 mph NW6.4 kmh NW 22.0 mph35.4 kmh 29.31 in992.6 mb 0.18 in4.6 mm 0.60 in15.2 mm 1.45 in36.8 mm
05:14 AM 78.0°F25.6°C 17.0°F-8.3°C 10% 2.0 mph NW3.2 kmh NW 22.0 mph35.4 kmh 29.31 in992.6 mb 0.18 in4.6 mm 0.00 in0.0 mm 1.45 in36.8 mm
05:15 AM 78.0°F25.6°C 17.0°F-8.3°C 10% 3.0 mph NW4.8 kmh NW 18.0 mph29.0 kmh 29.31 in992.6 mb 0.18 in4.6 mm 0.00 in0.0 mm 1.45 in36.8 mm
05:16 AM 78.0°F25.6°C 17.0°F-8.3°C 10% 4.0 mph NW6.4 kmh NW 18.0 mph29.0 kmh 29.31 in992.6 mb 0.18 in4.6 mm 0.00 in0.0 mm 1.45 in36.8 mm
05:17 AM 78.1°F25.6°C 17.0°F-8.3°C 10% 5.0 mph NW8.0 kmh NW 18.0 mph29.0 kmh 29.32 in992.9 mb 0.19 in4.8 mm 0.60 in15.2 mm 1.46 in37.1 mm
05:18 AM 78.1°F25.6°C 17.0°F-8.3°C 10% 5.0 mph WNW8.0 kmh WNW 11.0 mph17.7 kmh 29.32 in992.9 mb 0.20 in5.1 mm 0.60 in15.2 mm 1.47 in37.3 mm
05:19 AM 78.1°F25.6°C 17.0°F-8.3°C 10% 3.0 mph W4.8 kmh W 11.0 mph17.7 kmh 29.32 in992.9 mb 0.20 in5.1 mm 0.00 in0.0 mm 1.47 in37.3 mm
05:20 AM 78.1°F25.6°C 17.0°F-8.3°C 10% 3.0 mph W4.8 kmh W 11.0 mph17.7 kmh 29.32 in992.9 mb 0.20 in5.1 mm 0.00 in0.0 mm 1.47 in37.3 mm
05:21 AM 78.2°F25.7°C 17.1°F-8.3°C 10% 4.0 mph W6.4 kmh W 11.0 mph17.7 kmh 29.33 in993.2 mb 0.21 in5.3 mm 0.60 in15.2 mm 1.48 in37.6 mm
05:22 AM 78.2°F25.7°C 14.7°F-9.6°C 9% 3.0 mph W4.8 kmh W 11.0 mph17.7 kmh 29.32 in992.9 mb 0.21 in5.3 mm 0.00 in0.0 mm 1.48 in37.6 mm
05:23 AM 78.2°F25.7°C 14.7°F-9.6°C 9% 4.0 mph W6.4 kmh W 11.0 mph17.7 kmh 29.33 in993.2 mb 0.22 in5.6 mm 0.60 in15.2 mm 1.49 in37.8 mm
05:24 AM 78.3°F25.7°C 14.8°F-9.6°C 9% 6.0 mph W9.7 kmh W 13.0 mph20.9 kmh 29.33 in993.2 mb 0.22 in5.6 mm 0.00 in0.0 mm 1.49 in37.8 mm
05:25 AM 78.3°F25.7°C 14.8°F-9.6°C 9% 4.0 mph W6.4 kmh W 13.0 mph20.9 kmh 29.33 in993.2 mb 0.22 in5.6 mm 0.00 in0.0 mm 1.49 in37.8 mm
05:26 AM 78.3°F25.7°C 14.8°F-9.6°C 9% 4.0 mph W6.4 kmh W 13.0 mph20.9 kmh 29.33 in993.2 mb 0.23 in5.8 mm 0.60 in15.2 mm 1.50 in38.1 mm
05:27 AM 78.3°F25.7°C 14.8°F-9.6°C 9% 3.0 mph WNW4.8 kmh WNW 13.0 mph20.9 kmh 29.33 in993.2 mb 0.23 in5.8 mm 0.00 in0.0 mm 1.50 in38.1 mm
05:28 AM 78.3°F25.7°C 14.8°F-9.6°C 9% 4.0 mph WNW6.4 kmh WNW 13.0 mph20.9 kmh 29.33 in993.2 mb 0.23 in5.8 mm 0.00 in0.0 mm 1.50 in38.1 mm
05:29 AM 78.3°F25.7°C 14.8°F-9.6°C 9% 3.0 mph WNW4.8 kmh WNW 13.0 mph20.9 kmh 29.33 in993.2 mb 0.24 in6.1 mm 0.60 in15.2 mm 1.51 in38.4 mm
05:30 AM 78.3°F25.7°C 14.8°F-9.6°C 9% 3.0 mph WNW4.8 kmh WNW 13.0 mph20.9 kmh 29.34 in993.6 mb 0.24 in6.1 mm 0.00 in0.0 mm 1.51 in38.4 mm
05:31 AM 78.4°F25.8°C 14.8°F-9.6°C 9% 3.0 mph WNW4.8 kmh WNW 13.0 mph20.9 kmh 29.34 in993.6 mb 0.24 in6.1 mm 0.00 in0.0 mm 1.51 in38.4 mm
05:32 AM 78.4°F25.8°C 14.8°F-9.6°C 9% 5.0 mph WNW8.0 kmh WNW 13.0 mph20.9 kmh 29.34 in993.6 mb 0.24 in6.1 mm 0.00 in0.0 mm 1.51 in38.4 mm
05:33 AM 78.3°F25.7°C 14.8°F-9.6°C 9% 4.0 mph WNW6.4 kmh WNW 13.0 mph20.9 kmh 29.34 in993.6 mb 0.24 in6.1 mm 0.00 in0.0 mm 1.51 in38.4 mm
05:34 AM 78.4°F25.8°C 14.8°F-9.6°C 9% 4.0 mph WNW6.4 kmh WNW 15.0 mph24.1 kmh 29.35 in993.9 mb 0.24 in6.1 mm 0.00 in0.0 mm 1.51 in38.4 mm
05:35 AM 78.3°F25.7°C 14.8°F-9.6°C 9% 2.0 mph WNW3.2 kmh WNW 15.0 mph24.1 kmh 29.35 in993.9 mb 0.24 in6.1 mm 0.00 in0.0 mm 1.52 in38.6 mm
05:36 AM 78.3°F25.7°C 14.8°F-9.6°C 9% 5.0 mph WNW8.0 kmh WNW 15.0 mph24.1 kmh 29.35 in993.9 mb 0.24 in6.1 mm 0.00 in0.0 mm 1.52 in38.6 mm
05:37 AM 78.3°F25.7°C 14.8°F-9.6°C 9% 3.0 mph W4.8 kmh W 15.0 mph24.1 kmh 29.36 in994.2 mb 0.23 in5.8 mm 0.00 in0.0 mm 1.52 in38.6 mm
05:38 AM 78.3°F25.7°C 14.8°F-9.6°C 9% 3.0 mph W4.8 kmh W 15.0 mph24.1 kmh 29.36 in994.2 mb 0.23 in5.8 mm 0.00 in0.0 mm 1.52 in38.6 mm
05:39 AM 78.3°F25.7°C 14.8°F-9.6°C 9% 6.0 mph WNW9.7 kmh WNW 15.0 mph24.1 kmh 29.36 in994.2 mb 0.22 in5.6 mm 0.00 in0.0 mm 1.52 in38.6 mm
05:40 AM 78.2°F25.7°C 14.7°F-9.6°C 9% 5.0 mph WNW8.0 kmh WNW 16.0 mph25.7 kmh 29.36 in994.2 mb 0.22 in5.6 mm 0.00 in0.0 mm 1.52 in38.6 mm
05:41 AM 78.2°F25.7°C 14.7°F-9.6°C 9% 6.0 mph WNW9.7 kmh WNW 16.0 mph25.7 kmh 29.36 in994.2 mb 0.22 in5.6 mm 0.00 in0.0 mm 1.53 in38.9 mm
05:42 AM 78.1°F25.6°C 14.6°F-9.7°C 9% 6.0 mph W9.7 kmh W 18.0 mph29.0 kmh 29.36 in994.2 mb 0.22 in5.6 mm 0.00 in0.0 mm 1.53 in38.9 mm
05:43 AM 78.1°F25.6°C 14.6°F-9.7°C 9% 9.0 mph W14.5 kmh W 22.0 mph35.4 kmh 29.36 in994.2 mb 0.22 in5.6 mm 0.00 in0.0 mm 1.53 in38.9 mm
05:44 AM 78.0°F25.6°C 14.5°F-9.7°C 9% 10.0 mph W16.1 kmh W 22.0 mph35.4 kmh 29.38 in994.9 mb 0.22 in5.6 mm 0.00 in0.0 mm 1.53 in38.9 mm
05:45 AM 78.0°F25.6°C 14.5°F-9.7°C 9% 4.0 mph W6.4 kmh W 22.0 mph35.4 kmh 29.37 in994.6 mb 0.22 in5.6 mm 0.00 in0.0 mm 1.53 in38.9 mm
05:46 AM 77.9°F25.5°C 14.5°F-9.7°C 9% 7.0 mph W11.3 kmh W 22.0 mph35.4 kmh 29.37 in994.6 mb 0.22 in5.6 mm 0.00 in0.0 mm 1.53 in38.9 mm
05:47 AM 77.9°F25.5°C 14.5°F-9.7°C 9% 4.0 mph W6.4 kmh W 22.0 mph35.4 kmh 29.38 in994.9 mb 0.21 in5.3 mm 0.00 in0.0 mm 1.53 in38.9 mm
05:48 AM 77.8°F25.4°C 14.4°F-9.8°C 9% 6.0 mph W9.7 kmh W 22.0 mph35.4 kmh 29.38 in994.9 mb 0.21 in5.3 mm 0.00 in0.0 mm 1.53 in38.9 mm
05:49 AM 77.8°F25.4°C 14.4°F-9.8°C 9% 5.0 mph W8.0 kmh W 22.0 mph35.4 kmh 29.38 in994.9 mb 0.20 in5.1 mm 0.00 in0.0 mm 1.53 in38.9 mm
05:50 AM 77.8°F25.4°C 14.4°F-9.8°C 9% 4.0 mph WSW6.4 kmh WSW 22.0 mph35.4 kmh 29.38 in994.9 mb 0.19 in4.8 mm 0.00 in0.0 mm 1.53 in38.9 mm
05:51 AM 77.7°F25.4°C 14.3°F-9.8°C 9% 5.0 mph W8.0 kmh W 22.0 mph35.4 kmh 29.38 in994.9 mb 0.18 in4.6 mm 0.00 in0.0 mm 1.53 in38.9 mm
05:52 AM 77.7°F25.4°C 14.3°F-9.8°C 9% 5.0 mph W8.0 kmh W 22.0 mph35.4 kmh 29.39 in995.3 mb 0.18 in4.6 mm 0.00 in0.0 mm 1.53 in38.9 mm
05:53 AM 77.7°F25.4°C 14.3°F-9.8°C 9% 7.0 mph WNW11.3 kmh WNW 16.0 mph25.7 kmh 29.39 in995.3 mb 0.18 in4.6 mm 0.00 in0.0 mm 1.53 in38.9 mm
05:54 AM 77.6°F25.3°C 14.2°F-9.9°C 9% 4.0 mph WNW6.4 kmh WNW 14.0 mph22.5 kmh 29.39 in995.3 mb 0.18 in4.6 mm 0.00 in0.0 mm 1.53 in38.9 mm
05:55 AM 77.6°F25.3°C 14.2°F-9.9°C 9% 6.0 mph WNW9.7 kmh WNW 14.0 mph22.5 kmh 29.39 in995.3 mb 0.17 in4.3 mm 0.00 in0.0 mm 1.53 in38.9 mm
05:56 AM 77.6°F25.3°C 14.2°F-9.9°C 9% 7.0 mph WNW11.3 kmh WNW 15.0 mph24.1 kmh 29.39 in995.3 mb 0.16 in4.1 mm 0.00 in0.0 mm 1.53 in38.9 mm
05:57 AM 77.6°F25.3°C 14.2°F-9.9°C 9% 9.0 mph WNW14.5 kmh WNW 17.0 mph27.4 kmh 29.39 in995.3 mb 0.16 in4.1 mm 0.00 in0.0 mm 1.53 in38.9 mm
05:58 AM 77.6°F25.3°C 14.2°F-9.9°C 9% 5.0 mph NW8.0 kmh NW 17.0 mph27.4 kmh 29.39 in995.3 mb 0.16 in4.1 mm 0.00 in0.0 mm 1.53 in38.9 mm
05:59 AM 77.5°F25.3°C 14.2°F-9.9°C 9% 9.0 mph WNW14.5 kmh WNW 17.0 mph27.4 kmh 29.39 in995.3 mb 0.15 in3.8 mm 0.00 in0.0 mm 1.53 in38.9 mm
06:00 AM 77.5°F25.3°C 14.2°F-9.9°C 9% 8.0 mph WNW12.9 kmh WNW 17.0 mph27.4 kmh 29.39 in995.3 mb 0.14 in3.6 mm 0.00 in0.0 mm 1.53 in38.9 mm
06:01 AM 77.5°F25.3°C 14.2°F-9.9°C 9% 5.0 mph WNW8.0 kmh WNW 17.0 mph27.4 kmh 29.39 in995.3 mb 0.14 in3.6 mm 0.00 in0.0 mm 1.53 in38.9 mm
06:02 AM 77.4°F25.2°C 14.1°F-9.9°C 9% 7.0 mph WNW11.3 kmh WNW 17.0 mph27.4 kmh 29.40 in995.6 mb 0.13 in3.3 mm 0.00 in0.0 mm 1.53 in38.9 mm
06:03 AM 77.4°F25.2°C 14.1°F-9.9°C 9% 6.0 mph WNW9.7 kmh WNW 17.0 mph27.4 kmh 29.40 in995.6 mb 0.13 in3.3 mm 0.00 in0.0 mm 1.53 in38.9 mm
06:04 AM 77.4°F25.2°C 14.1°F-9.9°C 9% 8.0 mph WNW12.9 kmh WNW 17.0 mph27.4 kmh 29.40 in995.6 mb 0.12 in3.0 mm 0.00 in0.0 mm 1.53 in38.9 mm
06:05 AM 77.4°F25.2°C 14.1°F-9.9°C 9% 7.0 mph WNW11.3 kmh WNW 17.0 mph27.4 kmh 29.41 in995.9 mb 0.12 in3.0 mm 0.00 in0.0 mm 1.53 in38.9 mm
06:06 AM 77.4°F25.2°C 14.1°F-9.9°C 9% 5.0 mph WNW8.0 kmh WNW 17.0 mph27.4 kmh 29.41 in995.9 mb 0.11 in2.8 mm 0.00 in0.0 mm 1.53 in38.9 mm
06:07 AM 77.3°F25.2°C 14.0°F-10.0°C 9% 5.0 mph WNW8.0 kmh WNW 17.0 mph27.4 kmh 29.41 in995.9 mb 0.10 in2.5 mm 0.00 in0.0 mm 1.53 in38.9 mm
06:08 AM 77.3°F25.2°C 14.0°F-10.0°C 9% 4.0 mph WNW6.4 kmh WNW 17.0 mph27.4 kmh 29.41 in995.9 mb 0.10 in2.5 mm 0.00 in0.0 mm 1.53 in38.9 mm
06:09 AM 77.3°F25.2°C 14.0°F-10.0°C 9% 5.0 mph W8.0 kmh W 16.0 mph25.7 kmh 29.41 in995.9 mb 0.10 in2.5 mm 0.00 in0.0 mm 1.53 in38.9 mm
06:10 AM 77.3°F25.2°C 14.0°F-10.0°C 9% 5.0 mph W8.0 kmh W 16.0 mph25.7 kmh 29.42 in996.3 mb 0.09 in2.3 mm 0.00 in0.0 mm 1.53 in38.9 mm
06:11 AM 77.3°F25.2°C 14.0°F-10.0°C 9% 3.0 mph W4.8 kmh W 16.0 mph25.7 kmh 29.41 in995.9 mb 0.09 in2.3 mm 0.00 in0.0 mm 1.53 in38.9 mm
06:12 AM 77.3°F25.2°C 14.0°F-10.0°C 9% 4.0 mph W6.4 kmh W 16.0 mph25.7 kmh 29.42 in996.3 mb 0.09 in2.3 mm 0.00 in0.0 mm 1.53 in38.9 mm
06:13 AM 77.2°F25.1°C 13.9°F-10.1°C 9% 2.0 mph W3.2 kmh W 16.0 mph25.7 kmh 29.42 in996.3 mb 0.08 in2.0 mm 0.00 in0.0 mm 1.53 in38.9 mm
06:14 AM 77.2°F25.1°C 13.9°F-10.1°C 9% 3.0 mph W4.8 kmh W 15.0 mph24.1 kmh 29.42 in996.3 mb 0.08 in2.0 mm 0.00 in0.0 mm 1.53 in38.9 mm
06:15 AM 77.2°F25.1°C 13.9°F-10.1°C 9% 5.0 mph W8.0 kmh W 13.0 mph20.9 kmh 29.42 in996.3 mb 0.08 in2.0 mm 0.00 in0.0 mm 1.53 in38.9 mm
06:16 AM 77.2°F25.1°C 13.9°F-10.1°C 9% 4.0 mph W6.4 kmh W 13.0 mph20.9 kmh 29.42 in996.3 mb 0.08 in2.0 mm 0.00 in0.0 mm 1.53 in38.9 mm
06:17 AM 77.2°F25.1°C 13.9°F-10.1°C 9% 5.0 mph W8.0 kmh W 13.0 mph20.9 kmh 29.42 in996.3 mb 0.07 in1.8 mm 0.00 in0.0 mm 1.53 in38.9 mm
06:18 AM 77.2°F25.1°C 13.9°F-10.1°C 9% 4.0 mph WNW6.4 kmh WNW 13.0 mph20.9 kmh 29.42 in996.3 mb 0.06 in1.5 mm 0.00 in0.0 mm 1.53 in38.9 mm
06:19 AM 77.1°F25.1°C 13.9°F-10.1°C 9% 6.0 mph WNW9.7 kmh WNW 13.0 mph20.9 kmh 29.43 in996.6 mb 0.06 in1.5 mm 0.00 in0.0 mm 1.53 in38.9 mm
06:20 AM 77.1°F25.1°C 13.9°F-10.1°C 9% 4.0 mph WNW6.4 kmh WNW 13.0 mph20.9 kmh 29.43 in996.6 mb 0.06 in1.5 mm 0.00 in0.0 mm 1.53 in38.9 mm
06:21 AM 77.1°F25.1°C 13.9°F-10.1°C 9% 4.0 mph WNW6.4 kmh WNW 13.0 mph20.9 kmh 29.43 in996.6 mb 0.05 in1.3 mm 0.00 in0.0 mm 1.53 in38.9 mm
06:22 AM 77.1°F25.1°C 13.9°F-10.1°C 9% 4.0 mph WNW6.4 kmh WNW 14.0 mph22.5 kmh 29.43 in996.6 mb 0.05 in1.3 mm 0.00 in0.0 mm 1.53 in38.9 mm
06:23 AM 77.1°F25.1°C 13.9°F-10.1°C 9% 3.0 mph WNW4.8 kmh WNW 14.0 mph22.5 kmh 29.43 in996.6 mb 0.04 in1.0 mm 0.00 in0.0 mm 1.53 in38.9 mm
06:24 AM 77.1°F25.1°C 13.9°F-10.1°C 9% 5.0 mph WNW8.0 kmh WNW 14.0 mph22.5 kmh 29.43 in996.6 mb 0.04 in1.0 mm 0.00 in0.0 mm 1.53 in38.9 mm
06:25 AM 77.0°F25.0°C 13.8°F-10.1°C 9% 6.0 mph W9.7 kmh W 14.0 mph22.5 kmh 29.44 in997.0 mb 0.04 in1.0 mm 0.00 in0.0 mm 1.53 in38.9 mm
06:26 AM 77.0°F25.0°C 13.8°F-10.1°C 9% 5.0 mph WNW8.0 kmh WNW 14.0 mph22.5 kmh 29.44 in997.0 mb 0.03 in0.8 mm 0.00 in0.0 mm 1.53 in38.9 mm
06:27 AM 77.0°F25.0°C 13.8°F-10.1°C 9% 5.0 mph W8.0 kmh W 14.0 mph22.5 kmh 29.45 in997.3 mb 0.03 in0.8 mm 0.00 in0.0 mm 1.53 in38.9 mm
06:28 AM 77.0°F25.0°C 13.8°F-10.1°C 9% 5.0 mph W8.0 kmh W 14.0 mph22.5 kmh 29.45 in997.3 mb 0.03 in0.8 mm 0.00 in0.0 mm 1.53 in38.9 mm
06:29 AM 77.0°F25.0°C 13.8°F-10.1°C 9% 4.0 mph W6.4 kmh W 14.0 mph22.5 kmh 29.45 in997.3 mb 0.02 in0.5 mm 0.00 in0.0 mm 1.53 in38.9 mm
06:30 AM 77.0°F25.0°C 13.8°F-10.1°C 9% 5.0 mph W8.0 kmh W 14.0 mph22.5 kmh 29.45 in997.3 mb 0.02 in0.5 mm 0.00 in0.0 mm 1.53 in38.9 mm
06:31 AM 76.9°F24.9°C 13.7°F-10.2°C 9% 4.0 mph W6.4 kmh W 14.0 mph22.5 kmh 29.45 in997.3 mb 0.02 in0.5 mm 0.00 in0.0 mm 1.53 in38.9 mm
06:32 AM 76.9°F24.9°C 13.7°F-10.2°C 9% 4.0 mph W6.4 kmh W 11.0 mph17.7 kmh 29.45 in997.3 mb 0.02 in0.5 mm 0.00 in0.0 mm 1.53 in38.9 mm
06:33 AM 76.9°F24.9°C 13.7°F-10.2°C 9% 4.0 mph W6.4 kmh W 11.0 mph17.7 kmh 29.45 in997.3 mb 0.02 in0.5 mm 0.00 in0.0 mm 1.53 in38.9 mm
06:34 AM 76.9°F24.9°C 13.7°F-10.2°C 9% 4.0 mph W6.4 kmh W 11.0 mph17.7 kmh 29.45 in997.3 mb 0.02 in0.5 mm 0.00 in0.0 mm 1.53 in38.9 mm
06:35 AM 76.9°F24.9°C 13.7°F-10.2°C 9% 4.0 mph W6.4 kmh W 11.0 mph17.7 kmh 29.45 in997.3 mb 0.01 in0.3 mm 0.00 in0.0 mm 1.53 in38.9 mm
06:36 AM 76.8°F24.9°C 13.6°F-10.2°C 9% 7.0 mph W11.3 kmh W 23.0 mph37.0 kmh 29.45 in997.3 mb 0.01 in0.3 mm 0.00 in0.0 mm 1.53 in38.9 mm
06:37 AM 76.8°F24.9°C 13.6°F-10.2°C 9% 4.0 mph W6.4 kmh W 23.0 mph37.0 kmh 29.45 in997.3 mb 0.01 in0.3 mm 0.00 in0.0 mm 1.53 in38.9 mm
06:38 AM 76.8°F24.9°C 13.6°F-10.2°C 9% 4.0 mph W6.4 kmh W 23.0 mph37.0 kmh 29.46 in997.6 mb 0.01 in0.3 mm 0.00 in0.0 mm 1.53 in38.9 mm
06:39 AM 76.8°F24.9°C 13.6°F-10.2°C 9% 5.0 mph W8.0 kmh W 23.0 mph37.0 kmh 29.46 in997.6 mb 0.01 in0.3 mm 0.00 in0.0 mm 1.53 in38.9 mm
06:40 AM 76.8°F24.9°C 13.6°F-10.2°C 9% 5.0 mph W8.0 kmh W 23.0 mph37.0 kmh 29.46 in997.6 mb 0.01 in0.3 mm 0.00 in0.0 mm 1.53 in38.9 mm
06:41 AM 76.8°F24.9°C 13.6°F-10.2°C 9% 4.0 mph W6.4 kmh W 23.0 mph37.0 kmh 29.46 in997.6 mb 0.00 in0.0 mm 0.00 in0.0 mm 1.53 in38.9 mm
06:42 AM 76.8°F24.9°C 13.6°F-10.2°C 9% 5.0 mph W8.0 kmh W 23.0 mph37.0 kmh 29.46 in997.6 mb 0.00 in0.0 mm 0.00 in0.0 mm 1.53 in38.9 mm
06:43 AM 76.8°F24.9°C 13.6°F-10.2°C 9% 5.0 mph WNW8.0 kmh WNW 23.0 mph37.0 kmh 29.46 in997.6 mb 0.00 in0.0 mm 0.00 in0.0 mm 1.53 in38.9 mm
06:44 AM 76.7°F24.8°C 13.6°F-10.2°C 9% 4.0 mph WNW6.4 kmh WNW 23.0 mph37.0 kmh 29.46 in997.6 mb 0.00 in0.0 mm 0.00 in0.0 mm 1.53 in38.9 mm
06:45 AM 76.7°F24.8°C 13.6°F-10.2°C 9% 3.0 mph NW4.8 kmh NW 23.0 mph37.0 kmh 29.46 in997.6 mb 0.00 in0.0 mm 0.00 in0.0 mm 1.53 in38.9 mm
06:46 AM 76.7°F24.8°C 13.6°F-10.2°C 9% 4.0 mph NW6.4 kmh NW 9.0 mph14.5 kmh 29.46 in997.6 mb 0.00 in0.0 mm 0.00 in0.0 mm 1.53 in38.9 mm
06:47 AM 76.7°F24.8°C 13.6°F-10.2°C 9% 3.0 mph NW4.8 kmh NW 9.0 mph14.5 kmh 29.46 in997.6 mb 0.00 in0.0 mm 0.00 in0.0 mm 1.53 in38.9 mm
06:48 AM 76.7°F24.8°C 10.9°F-11.7°C 8% 4.0 mph NW6.4 kmh NW 9.0 mph14.5 kmh 29.47 in998.0 mb 0.00 in0.0 mm 0.00 in0.0 mm 1.53 in38.9 mm
06:49 AM 76.7°F24.8°C -4.1°F-20.1°C 4% 8.0 mph WNW12.9 kmh WNW 14.0 mph22.5 kmh 29.47 in998.0 mb 0.00 in0.0 mm 0.00 in0.0 mm 1.53 in38.9 mm
06:50 AM 76.7°F24.8°C -4.1°F-20.1°C 4% 3.0 mph WNW4.8 kmh WNW 14.0 mph22.5 kmh 29.47 in998.0 mb 0.00 in0.0 mm 0.00 in0.0 mm 1.53 in38.9 mm
06:51 AM 76.7°F24.8°C -10.1°F-23.4°C 3% 3.0 mph WNW4.8 kmh WNW 14.0 mph22.5 kmh 29.47 in998.0 mb 0.00 in0.0 mm 0.00 in0.0 mm 1.53 in38.9 mm
06:52 AM 76.7°F24.8°C -10.1°F-23.4°C 3% 4.0 mph WNW6.4 kmh WNW 14.0 mph22.5 kmh 29.47 in998.0 mb 0.00 in0.0 mm 0.00 in0.0 mm 1.53 in38.9 mm
06:53 AM 76.7°F24.8°C -10.1°F-23.4°C 3% 3.0 mph WNW4.8 kmh WNW 14.0 mph22.5 kmh 29.48 in998.3 mb 0.00 in0.0 mm 0.00 in0.0 mm 1.53 in38.9 mm
06:54 AM 76.7°F24.8°C -10.1°F-23.4°C 3% 3.0 mph W4.8 kmh W 14.0 mph22.5 kmh 29.48 in998.3 mb 0.00 in0.0 mm 0.00 in0.0 mm 1.53 in38.9 mm
06:55 AM 76.6°F24.8°C -10.1°F-23.4°C 3% 3.0 mph W4.8 kmh W 14.0 mph22.5 kmh 29.48 in998.3 mb 0.00 in0.0 mm 0.00 in0.0 mm 1.53 in38.9 mm
06:56 AM 76.6°F24.8°C -10.1°F-23.4°C 3% 3.0 mph W4.8 kmh W 14.0 mph22.5 kmh 29.48 in998.3 mb 0.00 in0.0 mm 0.00 in0.0 mm 1.53 in38.9 mm
06:57 AM 76.6°F24.8°C -10.1°F-23.4°C 3% 3.0 mph W4.8 kmh W 14.0 mph22.5 kmh 29.48 in998.3 mb 0.00 in0.0 mm 0.00 in0.0 mm 1.53 in38.9 mm
06:58 AM 76.6°F24.8°C -10.1°F-23.4°C 3% 3.0 mph W4.8 kmh W 14.0 mph22.5 kmh 29.48 in998.3 mb 0.00 in0.0 mm 0.00 in0.0 mm 1.53 in38.9 mm
06:59 AM 76.6°F24.8°C -10.1°F-23.4°C 3% 3.0 mph WNW4.8 kmh WNW 8.0 mph12.9 kmh 29.48 in998.3 mb 0.00 in0.0 mm 0.00 in0.0 mm 1.53 in38.9 mm
07:00 AM 76.6°F24.8°C -10.1°F-23.4°C 3% 3.0 mph WNW4.8 kmh WNW 8.0 mph12.9 kmh 29.48 in998.3 mb 0.00 in0.0 mm 0.00 in0.0 mm 1.53 in38.9 mm
07:01 AM 76.6°F24.8°C -10.1°F-23.4°C 3% 4.0 mph WNW6.4 kmh WNW 8.0 mph12.9 kmh 29.48 in998.3 mb 0.00 in0.0 mm 0.00 in0.0 mm 1.53 in38.9 mm
07:02 AM 76.6°F24.8°C -10.1°F-23.4°C 3% 5.0 mph WNW8.0 kmh WNW 10.0 mph16.1 kmh 29.48 in998.3 mb 0.00 in0.0 mm 0.00 in0.0 mm 1.53 in38.9 mm
07:03 AM 76.5°F24.7°C -10.2°F-23.4°C 3% 3.0 mph WNW4.8 kmh WNW 10.0 mph16.1 kmh 29.48 in998.3 mb 0.00 in0.0 mm 0.00 in0.0 mm 1.53 in38.9 mm
07:04 AM 76.5°F24.7°C -10.2°F-23.4°C 3% 4.0 mph WNW6.4 kmh WNW 10.0 mph16.1 kmh 29.49 in998.6 mb 0.00 in0.0 mm 0.00 in0.0 mm 1.53 in38.9 mm
07:05 AM 76.5°F24.7°C -10.2°F-23.4°C 3% 5.0 mph WNW8.0 kmh WNW 13.0 mph20.9 kmh 29.49 in998.6 mb 0.00 in0.0 mm 0.00 in0.0 mm 1.53 in38.9 mm
07:06 AM 76.5°F24.7°C -4.3°F-20.2°C 4% 3.0 mph WNW4.8 kmh WNW 13.0 mph20.9 kmh 29.49 in998.6 mb 0.00 in0.0 mm 0.00 in0.0 mm 1.53 in38.9 mm
07:07 AM 76.5°F24.7°C -4.3°F-20.2°C 4% 4.0 mph WNW6.4 kmh WNW 13.0 mph20.9 kmh 29.49 in998.6 mb 0.00 in0.0 mm 0.00 in0.0 mm 1.53 in38.9 mm
07:08 AM 76.5°F24.7°C -4.3°F-20.2°C 4% 5.0 mph WNW8.0 kmh WNW 13.0 mph20.9 kmh 29.49 in998.6 mb 0.00 in0.0 mm 0.00 in0.0 mm 1.53 in38.9 mm
07:09 AM 76.4°F24.7°C -4.3°F-20.2°C 4% 2.0 mph WNW3.2 kmh WNW 13.0 mph20.9 kmh 29.49 in998.6 mb 0.00 in0.0 mm 0.00 in0.0 mm 1.53 in38.9 mm
07:10 AM 76.4°F24.7°C -4.3°F-20.2°C 4% 5.0 mph WNW8.0 kmh WNW 13.0 mph20.9 kmh 29.49 in998.6 mb 0.00 in0.0 mm 0.00 in0.0 mm 1.53 in38.9 mm
07:11 AM 76.4°F24.7°C -4.3°F-20.2°C 4% 3.0 mph WNW4.8 kmh WNW 13.0 mph20.9 kmh 29.49 in998.6 mb 0.00 in0.0 mm 0.00 in0.0 mm 1.53 in38.9 mm
07:12 AM 76.4°F24.7°C -4.3°F-20.2°C 4% 5.0 mph WNW8.0 kmh WNW 13.0 mph20.9 kmh 29.50 in999.0 mb 0.00 in0.0 mm 0.00 in0.0 mm 1.53 in38.9 mm
07:13 AM 76.4°F24.7°C -4.3°F-20.2°C 4% 3.0 mph WNW4.8 kmh WNW 13.0 mph20.9 kmh 29.50 in999.0 mb 0.00 in0.0 mm 0.00 in0.0 mm 1.53 in38.9 mm
07:14 AM 76.4°F24.7°C -4.3°F-20.2°C 4% 2.0 mph WNW3.2 kmh WNW 13.0 mph20.9 kmh 29.50 in999.0 mb 0.00 in0.0 mm 0.00 in0.0 mm 1.53 in38.9 mm
07:15 AM 76.4°F24.7°C -4.3°F-20.2°C 4% 3.0 mph W4.8 kmh W 10.0 mph16.1 kmh 29.50 in999.0 mb 0.00 in0.0 mm 0.00 in0.0 mm 1.53 in38.9 mm
07:16 AM 76.4°F24.7°C -4.3°F-20.2°C 4% 2.0 mph W3.2 kmh W 10.0 mph16.1 kmh 29.50 in999.0 mb 0.00 in0.0 mm 0.00 in0.0 mm 1.53 in38.9 mm
07:17 AM 76.4°F24.7°C -4.3°F-20.2°C 4% 2.0 mph W3.2 kmh W 10.0 mph16.1 kmh 29.50 in999.0 mb 0.00 in0.0 mm 0.00 in0.0 mm 1.53 in38.9 mm
07:18 AM 76.3°F24.6°C -4.4°F-20.2°C 4% 4.0 mph W6.4 kmh W 10.0 mph16.1 kmh 29.50 in999.0 mb 0.00 in0.0 mm 0.00 in0.0 mm 1.53 in38.9 mm
07:19 AM 76.3°F24.6°C -4.4°F-20.2°C 4% 5.0 mph W8.0 kmh W 10.0 mph16.1 kmh 29.51 in999.3 mb 0.00 in0.0 mm 0.00 in0.0 mm 1.53 in38.9 mm
07:20 AM 76.3°F24.6°C -4.4°F-20.2°C 4% 2.0 mph W3.2 kmh W 8.0 mph12.9 kmh 29.51 in999.3 mb 0.00 in0.0 mm 0.00 in0.0 mm 1.53 in38.9 mm
07:21 AM 76.3°F24.6°C -4.4°F-20.2°C 4% 3.0 mph W4.8 kmh W 8.0 mph12.9 kmh 29.51 in999.3 mb 0.00 in0.0 mm 0.00 in0.0 mm 1.53 in38.9 mm
07:22 AM 76.3°F24.6°C -4.4°F-20.2°C 4% 2.0 mph W3.2 kmh W 8.0 mph12.9 kmh 29.51 in999.3 mb 0.00 in0.0 mm 0.00 in0.0 mm 1.53 in38.9 mm
07:23 AM 76.3°F24.6°C -4.4°F-20.2°C 4% 1.0 mph W1.6 kmh W 8.0 mph12.9 kmh 29.52 in999.7 mb 0.00 in0.0 mm 0.00 in0.0 mm 1.53 in38.9 mm
07:24 AM 76.3°F24.6°C -4.4°F-20.2°C 4% 2.0 mph W3.2 kmh W 8.0 mph12.9 kmh 29.52 in999.7 mb 0.00 in0.0 mm 0.00 in0.0 mm 1.53 in38.9 mm
07:25 AM 76.3°F24.6°C -4.4°F-20.2°C 4% 1.0 mph WNW1.6 kmh WNW 8.0 mph12.9 kmh 29.52 in999.7 mb 0.00 in0.0 mm 0.00 in0.0 mm 1.53 in38.9 mm
07:26 AM 76.3°F24.6°C -4.4°F-20.2°C 4% 3.0 mph W4.8 kmh W 8.0 mph12.9 kmh 29.52 in999.7 mb 0.00 in0.0 mm 0.00 in0.0 mm 1.53 in38.9 mm
07:27 AM 76.3°F24.6°C -4.4°F-20.2°C 4% 3.0 mph W4.8 kmh W 8.0 mph12.9 kmh 29.52 in999.7 mb 0.00 in0.0 mm 0.00 in0.0 mm 1.53 in38.9 mm
07:28 AM 76.3°F24.6°C -4.4°F-20.2°C 4% 3.0 mph W4.8 kmh W 8.0 mph12.9 kmh 29.52 in999.7 mb 0.00 in0.0 mm 0.00 in0.0 mm 1.53 in38.9 mm
07:29 AM 76.3°F24.6°C -4.4°F-20.2°C 4% 5.0 mph W8.0 kmh W 9.0 mph14.5 kmh 29.52 in999.7 mb 0.00 in0.0 mm 0.00 in0.0 mm 1.53 in38.9 mm
07:30 AM 76.3°F24.6°C -4.4°F-20.2°C 4% 3.0 mph W4.8 kmh W 9.0 mph14.5 kmh 29.52 in999.7 mb 0.00 in0.0 mm 0.00 in0.0 mm 1.53 in38.9 mm
07:31 AM 76.3°F24.6°C -4.4°F-20.2°C 4% 3.0 mph W4.8 kmh W 9.0 mph14.5 kmh 29.52 in999.7 mb 0.00 in0.0 mm 0.00 in0.0 mm 1.53 in38.9 mm
07:32 AM 76.2°F24.6°C -4.5°F-20.3°C 4% 3.0 mph WNW4.8 kmh WNW 11.0 mph17.7 kmh 29.52 in999.7 mb 0.00 in0.0 mm 0.00 in0.0 mm 1.53 in38.9 mm
07:33 AM 76.2°F24.6°C -4.5°F-20.3°C 4% 4.0 mph W6.4 kmh W 11.0 mph17.7 kmh 29.53 in1000.0 mb 0.00 in0.0 mm 0.00 in0.0 mm 1.53 in38.9 mm
07:34 AM 76.2°F24.6°C -4.5°F-20.3°C 4% 4.0 mph W6.4 kmh W 11.0 mph17.7 kmh 29.53 in1000.0 mb 0.00 in0.0 mm 0.00 in0.0 mm 1.53 in38.9 mm
07:35 AM 76.2°F24.6°C -4.5°F-20.3°C 4% 4.0 mph W6.4 kmh W 12.0 mph19.3 kmh 29.52 in999.7 mb 0.00 in0.0 mm 0.00 in0.0 mm 1.53 in38.9 mm
07:36 AM 76.2°F24.6°C -4.5°F-20.3°C 4% 8.0 mph W12.9 kmh W 17.0 mph27.4 kmh 29.53 in1000.0 mb 0.00 in0.0 mm 0.00 in0.0 mm 1.53 in38.9 mm
07:37 AM 76.2°F24.6°C -4.5°F-20.3°C 4% 3.0 mph W4.8 kmh W 17.0 mph27.4 kmh 29.53 in1000.0 mb 0.00 in0.0 mm 0.00 in0.0 mm 1.53 in38.9 mm
07:38 AM 76.2°F24.6°C -10.4°F-23.6°C 3% 2.0 mph W3.2 kmh W 17.0 mph27.4 kmh 29.53 in1000.0 mb 0.00 in0.0 mm 0.00 in0.0 mm 1.53 in38.9 mm
07:39 AM 76.2°F24.6°C -10.4°F-23.6°C 3% 4.0 mph W6.4 kmh W 17.0 mph27.4 kmh 29.53 in1000.0 mb 0.00 in0.0 mm 0.00 in0.0 mm 1.53 in38.9 mm
07:40 AM 76.2°F24.6°C -10.4°F-23.6°C 3% 2.0 mph W3.2 kmh W 17.0 mph27.4 kmh 29.54 in1000.3 mb 0.00 in0.0 mm 0.00 in0.0 mm 1.53 in38.9 mm
07:41 AM 76.2°F24.6°C -10.4°F-23.6°C 3% 2.0 mph W3.2 kmh W 17.0 mph27.4 kmh 29.54 in1000.3 mb 0.00 in0.0 mm 0.00 in0.0 mm 1.53 in38.9 mm
07:42 AM 76.2°F24.6°C -10.4°F-23.6°C 3% 2.0 mph WSW3.2 kmh WSW 17.0 mph27.4 kmh 29.54 in1000.3 mb 0.00 in0.0 mm 0.00 in0.0 mm 1.53 in38.9 mm
07:43 AM 76.2°F24.6°C -10.4°F-23.6°C 3% 4.0 mph WSW6.4 kmh WSW 17.0 mph27.4 kmh 29.54 in1000.3 mb 0.00 in0.0 mm 0.00 in0.0 mm 1.53 in38.9 mm
07:44 AM 76.2°F24.6°C -10.4°F-23.6°C 3% 2.0 mph WSW3.2 kmh WSW 17.0 mph27.4 kmh 29.54 in1000.3 mb 0.00 in0.0 mm 0.00 in0.0 mm 1.53 in38.9 mm
07:45 AM 76.2°F24.6°C -10.4°F-23.6°C 3% 3.0 mph WSW4.8 kmh WSW 17.0 mph27.4 kmh 29.54 in1000.3 mb 0.00 in0.0 mm 0.00 in0.0 mm 1.53 in38.9 mm
07:46 AM 76.2°F24.6°C -10.4°F-23.6°C 3% 4.0 mph WSW6.4 kmh WSW 12.0 mph19.3 kmh 29.55 in1000.7 mb 0.00 in0.0 mm 0.00 in0.0 mm 1.53 in38.9 mm
07:47 AM 76.2°F24.6°C -10.4°F-23.6°C 3% 3.0 mph WSW4.8 kmh WSW 12.0 mph19.3 kmh 29.55 in1000.7 mb 0.00 in0.0 mm 0.00 in0.0 mm 1.53 in38.9 mm
07:48 AM 76.2°F24.6°C -10.4°F-23.6°C 3% 3.0 mph WSW4.8 kmh WSW 12.0 mph19.3 kmh 29.54 in1000.3 mb 0.00 in0.0 mm 0.00 in0.0 mm 1.53 in38.9 mm
07:49 AM 76.1°F24.5°C -10.5°F-23.6°C 3% 2.0 mph WSW3.2 kmh WSW 12.0 mph19.3 kmh 29.55 in1000.7 mb 0.00 in0.0 mm 0.00 in0.0 mm 1.53 in38.9 mm
07:50 AM 76.1°F24.5°C -10.5°F-23.6°C 3% 3.0 mph WSW4.8 kmh WSW 12.0 mph19.3 kmh 29.55 in1000.7 mb 0.00 in0.0 mm 0.00 in0.0 mm 1.53 in38.9 mm
07:51 AM 76.1°F24.5°C -10.5°F-23.6°C 3% 2.0 mph WSW3.2 kmh WSW 12.0 mph19.3 kmh 29.55 in1000.7 mb 0.00 in0.0 mm 0.00 in0.0 mm 1.53 in38.9 mm
07:52 AM 76.1°F24.5°C -10.5°F-23.6°C 3% 4.0 mph WSW6.4 kmh WSW 12.0 mph19.3 kmh 29.55 in1000.7 mb 0.00 in0.0 mm 0.00 in0.0 mm 1.53 in38.9 mm
07:53 AM 76.1°F24.5°C -10.5°F-23.6°C 3% 3.0 mph WSW4.8 kmh WSW 12.0 mph19.3 kmh 29.55 in1000.7 mb 0.00 in0.0 mm 0.00 in0.0 mm 1.53 in38.9 mm
07:54 AM 76.1°F24.5°C -10.5°F-23.6°C 3% 3.0 mph WSW4.8 kmh WSW 12.0 mph19.3 kmh 29.55 in1000.7 mb 0.00 in0.0 mm 0.00 in0.0 mm 1.53 in38.9 mm
07:55 AM 76.1°F24.5°C -10.5°F-23.6°C 3% 3.0 mph WSW4.8 kmh WSW 9.0 mph14.5 kmh 29.55 in1000.7 mb 0.00 in0.0 mm 0.00 in0.0 mm 1.53 in38.9 mm
07:56 AM 76.1°F24.5°C -10.5°F-23.6°C 3% 3.0 mph WSW4.8 kmh WSW 9.0 mph14.5 kmh 29.55 in1000.7 mb 0.00 in0.0 mm 0.00 in0.0 mm 1.53 in38.9 mm
07:57 AM 76.1°F24.5°C -10.5°F-23.6°C 3% 5.0 mph WSW8.0 kmh WSW 8.0 mph12.9 kmh 29.55 in1000.7 mb 0.00 in0.0 mm 0.00 in0.0 mm 1.53 in38.9 mm
07:58 AM 76.1°F24.5°C -10.5°F-23.6°C 3% 3.0 mph WSW4.8 kmh WSW 8.0 mph12.9 kmh 29.55 in1000.7 mb 0.00 in0.0 mm 0.00 in0.0 mm 1.53 in38.9 mm
07:59 AM 76.1°F24.5°C -10.5°F-23.6°C 3% 4.0 mph WSW6.4 kmh WSW 8.0 mph12.9 kmh 29.55 in1000.7 mb 0.00 in0.0 mm 0.00 in0.0 mm 1.53 in38.9 mm
08:00 AM 76.1°F24.5°C -10.5°F-23.6°C 3% 2.0 mph WSW3.2 kmh WSW 8.0 mph12.9 kmh 29.55 in1000.7 mb 0.00 in0.0 mm 0.00 in0.0 mm 1.53 in38.9 mm
08:01 AM 76.1°F24.5°C -10.5°F-23.6°C 3% 3.0 mph WSW4.8 kmh WSW 8.0 mph12.9 kmh 29.55 in1000.7 mb 0.00 in0.0 mm 0.00 in0.0 mm 1.53 in38.9 mm
08:02 AM 76.1°F24.5°C -10.5°F-23.6°C 3% 5.0 mph WSW8.0 kmh WSW 12.0 mph19.3 kmh 29.55 in1000.7 mb 0.00 in0.0 mm 0.00 in0.0 mm 1.53 in38.9 mm
08:03 AM 76.1°F24.5°C -10.5°F-23.6°C 3% 3.0 mph W4.8 kmh W 12.0 mph19.3 kmh 29.55 in1000.7 mb 0.00 in0.0 mm 0.00 in0.0 mm 1.53 in38.9 mm
08:04 AM 76.1°F24.5°C -10.5°F-23.6°C 3% 3.0 mph WSW4.8 kmh WSW 12.0 mph19.3 kmh 29.55 in1000.7 mb 0.00 in0.0 mm 0.00 in0.0 mm 1.53 in38.9 mm
08:05 AM 76.1°F24.5°C -10.5°F-23.6°C 3% 5.0 mph WSW8.0 kmh WSW 12.0 mph19.3 kmh 29.56 in1001.0 mb 0.00 in0.0 mm 0.00 in0.0 mm 1.53 in38.9 mm
08:06 AM 76.0°F24.4°C -10.5°F-23.6°C 3% 6.0 mph WSW9.7 kmh WSW 12.0 mph19.3 kmh 29.56 in1001.0 mb 0.00 in0.0 mm 0.00 in0.0 mm 1.53 in38.9 mm
08:07 AM 76.0°F24.4°C -10.5°F-23.6°C 3% 2.0 mph WSW3.2 kmh WSW 12.0 mph19.3 kmh 29.56 in1001.0 mb 0.00 in0.0 mm 0.00 in0.0 mm 1.53 in38.9 mm
08:08 AM 76.0°F24.4°C -10.5°F-23.6°C 3% 3.0 mph WSW4.8 kmh WSW 12.0 mph19.3 kmh 29.56 in1001.0 mb 0.00 in0.0 mm 0.00 in0.0 mm 1.53 in38.9 mm
08:09 AM 76.0°F24.4°C -10.5°F-23.6°C 3% 3.0 mph WSW4.8 kmh WSW 12.0 mph19.3 kmh 29.56 in1001.0 mb 0.00 in0.0 mm 0.00 in0.0 mm 1.53 in38.9 mm
08:10 AM 76.0°F24.4°C -10.5°F-23.6°C 3% 2.0 mph WSW3.2 kmh WSW 12.0 mph19.3 kmh 29.56 in1001.0 mb 0.00 in0.0 mm 0.00 in0.0 mm 1.53 in38.9 mm
08:11 AM 76.0°F24.4°C -10.5°F-23.6°C 3% 4.0 mph WSW6.4 kmh WSW 12.0 mph19.3 kmh 29.56 in1001.0 mb 0.00 in0.0 mm 0.00 in0.0 mm 1.53 in38.9 mm
08:12 AM 76.0°F24.4°C -10.5°F-23.6°C 3% 3.0 mph WSW4.8 kmh WSW 12.0 mph19.3 kmh 29.56 in1001.0 mb 0.00 in0.0 mm 0.00 in0.0 mm 1.53 in38.9 mm
08:13 AM 76.0°F24.4°C -10.5°F-23.6°C 3% 4.0 mph WSW6.4 kmh WSW 12.0 mph19.3 kmh 29.56 in1001.0 mb 0.00 in0.0 mm 0.00 in0.0 mm 1.53 in38.9 mm
08:14 AM 76.0°F24.4°C -10.5°F-23.6°C 3% 3.0 mph WSW4.8 kmh WSW 12.0 mph19.3 kmh 29.56 in1001.0 mb 0.00 in0.0 mm 0.00 in0.0 mm 1.53 in38.9 mm
08:15 AM 76.0°F24.4°C -10.5°F-23.6°C 3% 6.0 mph WSW9.7 kmh WSW 12.0 mph19.3 kmh 29.56 in1001.0 mb 0.00 in0.0 mm 0.00 in0.0 mm 1.53 in38.9 mm
08:16 AM 76.0°F24.4°C -10.5°F-23.6°C 3% 4.0 mph W6.4 kmh W 12.0 mph19.3 kmh 29.56 in1001.0 mb 0.00 in0.0 mm 0.00 in0.0 mm 1.53 in38.9 mm
08:17 AM 75.9°F24.4°C -10.6°F-23.7°C 3% 5.0 mph W8.0 kmh W 12.0 mph19.3 kmh 29.57 in1001.4 mb 0.00 in0.0 mm 0.00 in0.0 mm 1.53 in38.9 mm
08:18 AM 75.9°F24.4°C -10.6°F-23.7°C 3% 5.0 mph W8.0 kmh W 12.0 mph19.3 kmh 29.57 in1001.4 mb 0.00 in0.0 mm 0.00 in0.0 mm 1.53 in38.9 mm
08:19 AM 75.9°F24.4°C -10.6°F-23.7°C 3% 3.0 mph W4.8 kmh W 12.0 mph19.3 kmh 29.56 in1001.0 mb 0.00 in0.0 mm 0.00 in0.0 mm 1.53 in38.9 mm
08:20 AM 75.9°F24.4°C -10.6°F-23.7°C 3% 3.0 mph W4.8 kmh W 12.0 mph19.3 kmh 29.57 in1001.4 mb 0.00 in0.0 mm 0.00 in0.0 mm 1.53 in38.9 mm
08:21 AM 75.9°F24.4°C -10.6°F-23.7°C 3% 3.0 mph W4.8 kmh W 12.0 mph19.3 kmh 29.57 in1001.4 mb 0.00 in0.0 mm 0.00 in0.0 mm 1.53 in38.9 mm
08:22 AM 75.9°F24.4°C -10.6°F-23.7°C 3% 2.0 mph W3.2 kmh W 12.0 mph19.3 kmh 29.57 in1001.4 mb 0.00 in0.0 mm 0.00 in0.0 mm 1.53 in38.9 mm
08:23 AM 75.8°F24.3°C -10.7°F-23.7°C 3% 3.0 mph W4.8 kmh W 12.0 mph19.3 kmh 29.57 in1001.4 mb 0.00 in0.0 mm 0.00 in0.0 mm 1.53 in38.9 mm
08:24 AM 75.8°F24.3°C -10.7°F-23.7°C 3% 6.0 mph W9.7 kmh W 13.0 mph20.9 kmh 29.57 in1001.4 mb 0.00 in0.0 mm 0.00 in0.0 mm 1.53 in38.9 mm
08:25 AM 75.8°F24.3°C -10.7°F-23.7°C 3% 4.0 mph W6.4 kmh W 13.0 mph20.9 kmh 29.57 in1001.4 mb 0.00 in0.0 mm 0.00 in0.0 mm 1.53 in38.9 mm
08:26 AM 75.8°F24.3°C -10.7°F-23.7°C 3% 3.0 mph W4.8 kmh W 13.0 mph20.9 kmh 29.57 in1001.4 mb 0.00 in0.0 mm 0.00 in0.0 mm 1.53 in38.9 mm
08:27 AM 75.8°F24.3°C -10.7°F-23.7°C 3% 6.0 mph WSW9.7 kmh WSW 13.0 mph20.9 kmh 29.57 in1001.4 mb 0.00 in0.0 mm 0.00 in0.0 mm 1.53 in38.9 mm
08:28 AM 75.8°F24.3°C -10.7°F-23.7°C 3% 4.0 mph WSW6.4 kmh WSW 13.0 mph20.9 kmh 29.57 in1001.4 mb 0.00 in0.0 mm 0.00 in0.0 mm 1.53 in38.9 mm
08:29 AM 75.7°F24.3°C -10.7°F-23.7°C 3% 5.0 mph WSW8.0 kmh WSW 13.0 mph20.9 kmh 29.57 in1001.4 mb 0.00 in0.0 mm 0.00 in0.0 mm 1.53 in38.9 mm
08:30 AM 75.7°F24.3°C -10.7°F-23.7°C 3% 5.0 mph WSW8.0 kmh WSW 13.0 mph20.9 kmh 29.57 in1001.4 mb 0.00 in0.0 mm 0.00 in0.0 mm 1.53 in38.9 mm
08:31 AM 75.7°F24.3°C -10.7°F-23.7°C 3% 4.0 mph WSW6.4 kmh WSW 13.0 mph20.9 kmh 29.58 in1001.7 mb 0.00 in0.0 mm 0.00 in0.0 mm 1.53 in38.9 mm
08:32 AM 75.7°F24.3°C -10.7°F-23.7°C 3% 4.0 mph W6.4 kmh W 13.0 mph20.9 kmh 29.58 in1001.7 mb 0.00 in0.0 mm 0.00 in0.0 mm 1.53 in38.9 mm
08:33 AM 75.7°F24.3°C -10.7°F-23.7°C 3% 5.0 mph W8.0 kmh W 13.0 mph20.9 kmh 29.58 in1001.7 mb 0.00 in0.0 mm 0.00 in0.0 mm 1.53 in38.9 mm
08:34 AM 75.7°F24.3°C -10.7°F-23.7°C 3% 5.0 mph W8.0 kmh W 14.0 mph22.5 kmh 29.58 in1001.7 mb 0.00 in0.0 mm 0.00 in0.0 mm 1.53 in38.9 mm
08:35 AM 75.7°F24.3°C -10.7°F-23.7°C 3% 3.0 mph W4.8 kmh W 14.0 mph22.5 kmh 29.58 in1001.7 mb 0.00 in0.0 mm 0.00 in0.0 mm 1.53 in38.9 mm
08:36 AM 75.7°F24.3°C -10.7°F-23.7°C 3% 5.0 mph W8.0 kmh W 14.0 mph22.5 kmh 29.58 in1001.7 mb 0.00 in0.0 mm 0.00 in0.0 mm 1.53 in38.9 mm
08:37 AM 75.7°F24.3°C -10.7°F-23.7°C 3% 4.0 mph W6.4 kmh W 14.0 mph22.5 kmh 29.58 in1001.7 mb 0.00 in0.0 mm 0.00 in0.0 mm 1.53 in38.9 mm
08:38 AM 75.7°F24.3°C -10.7°F-23.7°C 3% 4.0 mph W6.4 kmh W 14.0 mph22.5 kmh 29.58 in1001.7 mb 0.00 in0.0 mm 0.00 in0.0 mm 1.53 in38.9 mm
08:39 AM 75.7°F24.3°C -10.7°F-23.7°C 3% 4.0 mph W6.4 kmh W 14.0 mph22.5 kmh 29.59 in1002.0 mb 0.00 in0.0 mm 0.00 in0.0 mm 1.53 in38.9 mm
08:40 AM 75.8°F24.3°C -10.7°F-23.7°C 3% 4.0 mph W6.4 kmh W 14.0 mph22.5 kmh 29.59 in1002.0 mb 0.00 in0.0 mm 0.00 in0.0 mm 1.53 in38.9 mm
08:41 AM 75.8°F24.3°C -10.7°F-23.7°C 3% 4.0 mph W6.4 kmh W 14.0 mph22.5 kmh 29.59 in1002.0 mb 0.00 in0.0 mm 0.00 in0.0 mm 1.53 in38.9 mm
08:42 AM 75.8°F24.3°C -10.7°F-23.7°C 3% 3.0 mph W4.8 kmh W 14.0 mph22.5 kmh 29.59 in1002.0 mb 0.00 in0.0 mm 0.00 in0.0 mm 1.53 in38.9 mm
08:43 AM 75.8°F24.3°C -10.7°F-23.7°C 3% 5.0 mph W8.0 kmh W 14.0 mph22.5 kmh 29.59 in1002.0 mb 0.00 in0.0 mm 0.00 in0.0 mm 1.53 in38.9 mm
08:44 AM 75.8°F24.3°C -10.7°F-23.7°C 3% 4.0 mph W6.4 kmh W 11.0 mph17.7 kmh 29.59 in1002.0 mb 0.00 in0.0 mm 0.00 in0.0 mm 1.53 in38.9 mm
08:45 AM 75.8°F24.3°C -10.7°F-23.7°C 3% 3.0 mph W4.8 kmh W 11.0 mph17.7 kmh 29.59 in1002.0 mb 0.00 in0.0 mm 0.00 in0.0 mm 1.53 in38.9 mm
08:46 AM 75.8°F24.3°C -10.7°F-23.7°C 3% 4.0 mph W6.4 kmh W 11.0 mph17.7 kmh 29.59 in1002.0 mb 0.00 in0.0 mm 0.00 in0.0 mm 1.53 in38.9 mm
08:47 AM 75.9°F24.4°C -10.6°F-23.7°C 3% 6.0 mph W9.7 kmh W 12.0 mph19.3 kmh 29.60 in1002.4 mb 0.00 in0.0 mm 0.00 in0.0 mm 1.53 in38.9 mm
08:48 AM 75.9°F24.4°C -10.6°F-23.7°C 3% 5.0 mph W8.0 kmh W 12.0 mph19.3 kmh 29.60 in1002.4 mb 0.00 in0.0 mm 0.00 in0.0 mm 1.53 in38.9 mm
08:49 AM 75.9°F24.4°C -10.6°F-23.7°C 3% 6.0 mph W9.7 kmh W 12.0 mph19.3 kmh 29.60 in1002.4 mb 0.00 in0.0 mm 0.00 in0.0 mm 1.53 in38.9 mm
08:50 AM 75.9°F24.4°C -10.6°F-23.7°C 3% 4.0 mph W6.4 kmh W 12.0 mph19.3 kmh 29.59 in1002.0 mb 0.00 in0.0 mm 0.00 in0.0 mm 1.53 in38.9 mm
08:51 AM 75.9°F24.4°C -10.6°F-23.7°C 3% 4.0 mph W6.4 kmh W 12.0 mph19.3 kmh 29.60 in1002.4 mb 0.00 in0.0 mm 0.00 in0.0 mm 1.53 in38.9 mm
08:52 AM 75.9°F24.4°C -10.6°F-23.7°C 3% 4.0 mph W6.4 kmh W 12.0 mph19.3 kmh 29.59 in1002.0 mb 0.00 in0.0 mm 0.00 in0.0 mm 1.53 in38.9 mm
08:53 AM 76.0°F24.4°C -10.5°F-23.6°C 3% 4.0 mph WNW6.4 kmh WNW 12.0 mph19.3 kmh 29.60 in1002.4 mb 0.00 in0.0 mm 0.00 in0.0 mm 1.53 in38.9 mm
08:54 AM 76.0°F24.4°C -10.5°F-23.6°C 3% 3.0 mph WNW4.8 kmh WNW 12.0 mph19.3 kmh 29.60 in1002.4 mb 0.00 in0.0 mm 0.00 in0.0 mm 1.53 in38.9 mm
08:55 AM 76.0°F24.4°C -10.5°F-23.6°C 3% 3.0 mph WNW4.8 kmh WNW 12.0 mph19.3 kmh 29.60 in1002.4 mb 0.00 in0.0 mm 0.00 in0.0 mm 1.53 in38.9 mm
08:56 AM 76.0°F24.4°C -10.5°F-23.6°C 3% 4.0 mph WNW6.4 kmh WNW 12.0 mph19.3 kmh 29.60 in1002.4 mb 0.00 in0.0 mm 0.00 in0.0 mm 1.53 in38.9 mm
08:57 AM 76.1°F24.5°C -10.5°F-23.6°C 3% 2.0 mph WNW3.2 kmh WNW 9.0 mph14.5 kmh 29.60 in1002.4 mb 0.00 in0.0 mm 0.00 in0.0 mm 1.53 in38.9 mm
08:58 AM 76.1°F24.5°C -10.5°F-23.6°C 3% 5.0 mph WNW8.0 kmh WNW 10.0 mph16.1 kmh 29.60 in1002.4 mb 0.00 in0.0 mm 0.00 in0.0 mm 1.53 in38.9 mm
08:59 AM 76.1°F24.5°C -10.5°F-23.6°C 3% 4.0 mph WNW6.4 kmh WNW 10.0 mph16.1 kmh 29.60 in1002.4 mb 0.00 in0.0 mm 0.00 in0.0 mm 1.53 in38.9 mm
09:00 AM 76.1°F24.5°C -18.5°F-28.1°C 2% 5.0 mph WNW8.0 kmh WNW 10.0 mph16.1 kmh 29.60 in1002.4 mb 0.00 in0.0 mm 0.00 in0.0 mm 1.53 in38.9 mm
09:01 AM 76.2°F24.6°C -18.4°F-28.0°C 2% 5.0 mph WNW8.0 kmh WNW 10.0 mph16.1 kmh 29.60 in1002.4 mb 0.00 in0.0 mm 0.00 in0.0 mm 1.53 in38.9 mm
09:02 AM 76.2°F24.6°C -18.4°F-28.0°C 2% 3.0 mph WNW4.8 kmh WNW 10.0 mph16.1 kmh 29.60 in1002.4 mb 0.00 in0.0 mm 0.00 in0.0 mm 1.53 in38.9 mm
09:03 AM 76.2°F24.6°C -18.4°F-28.0°C 2% 5.0 mph W8.0 kmh W 11.0 mph17.7 kmh 29.60 in1002.4 mb 0.00 in0.0 mm 0.00 in0.0 mm 1.53 in38.9 mm
09:04 AM 76.3°F24.6°C -18.4°F-28.0°C 2% 5.0 mph W8.0 kmh W 11.0 mph17.7 kmh 29.60 in1002.4 mb 0.00 in0.0 mm 0.00 in0.0 mm 1.53 in38.9 mm
09:05 AM 76.3°F24.6°C -18.4°F-28.0°C 2% 4.0 mph W6.4 kmh W 11.0 mph17.7 kmh 29.60 in1002.4 mb 0.00 in0.0 mm 0.00 in0.0 mm 1.53 in38.9 mm
09:06 AM 76.4°F24.7°C -18.3°F-27.9°C 2% 5.0 mph W8.0 kmh W 11.0 mph17.7 kmh 29.60 in1002.4 mb 0.00 in0.0 mm 0.00 in0.0 mm 1.53 in38.9 mm
09:07 AM 76.4°F24.7°C -18.3°F-27.9°C 2% 4.0 mph W6.4 kmh W 11.0 mph17.7 kmh 29.60 in1002.4 mb 0.00 in0.0 mm 0.00 in0.0 mm 1.53 in38.9 mm
09:08 AM 76.5°F24.7°C -18.2°F-27.9°C 2% 4.0 mph W6.4 kmh W 11.0 mph17.7 kmh 29.60 in1002.4 mb 0.00 in0.0 mm 0.00 in0.0 mm 1.53 in38.9 mm
09:09 AM 76.6°F24.8°C -18.2°F-27.9°C 2% 3.0 mph W4.8 kmh W 11.0 mph17.7 kmh 29.60 in1002.4 mb 0.00 in0.0 mm 0.00 in0.0 mm 1.53 in38.9 mm
09:10 AM 76.6°F24.8°C -18.2°F-27.9°C 2% 6.0 mph W9.7 kmh W 11.0 mph17.7 kmh 29.60 in1002.4 mb 0.00 in0.0 mm 0.00 in0.0 mm 1.53 in38.9 mm
09:11 AM 76.7°F24.8°C -18.1°F-27.8°C 2% 3.0 mph W4.8 kmh W 11.0 mph17.7 kmh 29.60 in1002.4 mb 0.00 in0.0 mm 0.00 in0.0 mm 1.53 in38.9 mm
09:12 AM 76.8°F24.9°C -18.1°F-27.8°C 2% 5.0 mph W8.0 kmh W 11.0 mph17.7 kmh 29.60 in1002.4 mb 0.00 in0.0 mm 0.00 in0.0 mm 1.53 in38.9 mm
09:13 AM 76.8°F24.9°C -18.1°F-27.8°C 2% 4.0 mph W6.4 kmh W 11.0 mph17.7 kmh 29.61 in1002.7 mb 0.00 in0.0 mm 0.00 in0.0 mm 1.53 in38.9 mm
09:14 AM 76.9°F24.9°C -18.0°F-27.8°C 2% 2.0 mph W3.2 kmh W 10.0 mph16.1 kmh 29.61 in1002.7 mb 0.00 in0.0 mm 0.00 in0.0 mm 1.53 in38.9 mm
09:15 AM 77.0°F25.0°C -17.9°F-27.7°C 2% 3.0 mph W4.8 kmh W 10.0 mph16.1 kmh 29.60 in1002.4 mb 0.00 in0.0 mm 0.00 in0.0 mm 1.53 in38.9 mm
09:16 AM 77.0°F25.0°C -17.9°F-27.7°C 2% 4.0 mph W6.4 kmh W 9.0 mph14.5 kmh 29.61 in1002.7 mb 0.00 in0.0 mm 0.00 in0.0 mm 1.53 in38.9 mm
09:17 AM 77.1°F25.1°C -30.9°F-34.9°C 1% 4.0 mph W6.4 kmh W 9.0 mph14.5 kmh 29.61 in1002.7 mb 0.00 in0.0 mm 0.00 in0.0 mm 1.53 in38.9 mm
09:18 AM 77.1°F25.1°C -30.9°F-34.9°C 1% 5.0 mph W8.0 kmh W 9.0 mph14.5 kmh 29.61 in1002.7 mb 0.00 in0.0 mm 0.00 in0.0 mm 1.53 in38.9 mm
09:19 AM 77.1°F25.1°C -30.9°F-34.9°C 1% 5.0 mph W8.0 kmh W 11.0 mph17.7 kmh 29.61 in1002.7 mb 0.00 in0.0 mm 0.00 in0.0 mm 1.53 in38.9 mm
09:20 AM 77.2°F25.1°C -30.9°F-34.9°C 1% 3.0 mph W4.8 kmh W 11.0 mph17.7 kmh 29.61 in1002.7 mb 0.00 in0.0 mm 0.00 in0.0 mm 1.53 in38.9 mm
09:21 AM 77.2°F25.1°C -30.9°F-34.9°C 1% 2.0 mph W3.2 kmh W 11.0 mph17.7 kmh 29.61 in1002.7 mb 0.00 in0.0 mm 0.00 in0.0 mm 1.53 in38.9 mm
09:22 AM 77.2°F25.1°C -30.9°F-34.9°C 1% 4.0 mph W6.4 kmh W 11.0 mph17.7 kmh 29.61 in1002.7 mb 0.00 in0.0 mm 0.00 in0.0 mm 1.53 in38.9 mm
09:23 AM 77.2°F25.1°C -30.9°F-34.9°C 1% 2.0 mph W3.2 kmh W 11.0 mph17.7 kmh 29.61 in1002.7 mb 0.00 in0.0 mm 0.00 in0.0 mm 1.53 in38.9 mm
09:24 AM 77.2°F25.1°C -17.8°F-27.7°C 2% 4.0 mph W6.4 kmh W 11.0 mph17.7 kmh 29.62 in1003.0 mb 0.00 in0.0 mm 0.00 in0.0 mm 1.53 in38.9 mm
09:25 AM 77.2°F25.1°C -30.9°F-34.9°C 1% 2.0 mph W3.2 kmh W 11.0 mph17.7 kmh 29.62 in1003.0 mb 0.00 in0.0 mm 0.00 in0.0 mm 1.53 in38.9 mm
09:26 AM 77.2°F25.1°C -17.8°F-27.7°C 2% 7.0 mph W11.3 kmh W 18.0 mph29.0 kmh 29.62 in1003.0 mb 0.00 in0.0 mm 0.00 in0.0 mm 1.53 in38.9 mm
09:27 AM 77.3°F25.2°C -17.7°F-27.6°C 2% 7.0 mph W11.3 kmh W 18.0 mph29.0 kmh 29.62 in1003.0 mb 0.00 in0.0 mm 0.00 in0.0 mm 1.53 in38.9 mm
09:28 AM 77.3°F25.2°C -17.7°F-27.6°C 2% 4.0 mph W6.4 kmh W 18.0 mph29.0 kmh 29.62 in1003.0 mb 0.00 in0.0 mm 0.00 in0.0 mm 1.53 in38.9 mm
09:29 AM 77.3°F25.2°C -17.7°F-27.6°C 2% 3.0 mph W4.8 kmh W 18.0 mph29.0 kmh 29.62 in1003.0 mb 0.00 in0.0 mm 0.00 in0.0 mm 1.53 in38.9 mm
09:30 AM 77.4°F25.2°C -17.7°F-27.6°C 2% 1.0 mph WSW1.6 kmh WSW 18.0 mph29.0 kmh 29.63 in1003.4 mb 0.00 in0.0 mm 0.00 in0.0 mm 1.53 in38.9 mm
09:31 AM 77.4°F25.2°C -17.7°F-27.6°C 2% 3.0 mph WSW4.8 kmh WSW 18.0 mph29.0 kmh 29.63 in1003.4 mb 0.00 in0.0 mm 0.00 in0.0 mm 1.53 in38.9 mm
09:32 AM 77.4°F25.2°C -17.7°F-27.6°C 2% 3.0 mph WSW4.8 kmh WSW 18.0 mph29.0 kmh 29.62 in1003.0 mb 0.00 in0.0 mm 0.00 in0.0 mm 1.53 in38.9 mm
09:33 AM 77.4°F25.2°C -17.7°F-27.6°C 2% 3.0 mph WSW4.8 kmh WSW 18.0 mph29.0 kmh 29.63 in1003.4 mb 0.00 in0.0 mm 0.00 in0.0 mm 1.53 in38.9 mm
09:34 AM 77.5°F25.3°C -17.6°F-27.6°C 2% 3.0 mph W4.8 kmh W 18.0 mph29.0 kmh 29.63 in1003.4 mb 0.00 in0.0 mm 0.00 in0.0 mm 1.53 in38.9 mm
09:35 AM 77.5°F25.3°C -17.6°F-27.6°C 2% 4.0 mph W6.4 kmh W 18.0 mph29.0 kmh 29.63 in1003.4 mb 0.00 in0.0 mm 0.00 in0.0 mm 1.53 in38.9 mm
09:36 AM 77.5°F25.3°C -17.6°F-27.6°C 2% 5.0 mph W8.0 kmh W 13.0 mph20.9 kmh 29.63 in1003.4 mb 0.00 in0.0 mm 0.00 in0.0 mm 1.53 in38.9 mm
09:37 AM 77.5°F25.3°C -17.6°F-27.6°C 2% 3.0 mph W4.8 kmh W 13.0 mph20.9 kmh 29.63 in1003.4 mb 0.00 in0.0 mm 0.00 in0.0 mm 1.53 in38.9 mm
09:38 AM 77.5°F25.3°C -17.6°F-27.6°C 2% 2.0 mph WNW3.2 kmh WNW 8.0 mph12.9 kmh 29.63 in1003.4 mb 0.00 in0.0 mm 0.00 in0.0 mm 1.53 in38.9 mm
09:39 AM 77.5°F25.3°C -17.6°F-27.6°C 2% 2.0 mph WNW3.2 kmh WNW 8.0 mph12.9 kmh 29.63 in1003.4 mb 0.00 in0.0 mm 0.00 in0.0 mm 1.53 in38.9 mm
09:40 AM 77.5°F25.3°C -17.6°F-27.6°C 2% 3.0 mph WNW4.8 kmh WNW 8.0 mph12.9 kmh 29.63 in1003.4 mb 0.00 in0.0 mm 0.00 in0.0 mm 1.53 in38.9 mm
09:41 AM 77.5°F25.3°C -17.6°F-27.6°C 2% 5.0 mph WNW8.0 kmh WNW 8.0 mph12.9 kmh 29.63 in1003.4 mb 0.00 in0.0 mm 0.00 in0.0 mm 1.53 in38.9 mm
09:42 AM 77.5°F25.3°C -17.6°F-27.6°C 2% 4.0 mph WNW6.4 kmh WNW 8.0 mph12.9 kmh 29.63 in1003.4 mb 0.00 in0.0 mm 0.00 in0.0 mm 1.53 in38.9 mm
09:43 AM 77.6°F25.3°C -17.5°F-27.5°C 2% 3.0 mph WNW4.8 kmh WNW 8.0 mph12.9 kmh 29.63 in1003.4 mb 0.00 in0.0 mm 0.00 in0.0 mm 1.53 in38.9 mm
09:44 AM 77.6°F25.3°C -17.5°F-27.5°C 2% 3.0 mph W4.8 kmh W 10.0 mph16.1 kmh 29.63 in1003.4 mb 0.00 in0.0 mm 0.00 in0.0 mm 1.53 in38.9 mm
09:45 AM 77.6°F25.3°C -17.5°F-27.5°C 2% 5.0 mph W8.0 kmh W 10.0 mph16.1 kmh 29.63 in1003.4 mb 0.00 in0.0 mm 0.00 in0.0 mm 1.53 in38.9 mm
09:46 AM 77.6°F25.3°C -17.5°F-27.5°C 2% 5.0 mph W8.0 kmh W 10.0 mph16.1 kmh 29.63 in1003.4 mb 0.00 in0.0 mm 0.00 in0.0 mm 1.53 in38.9 mm
09:47 AM 77.6°F25.3°C -17.5°F-27.5°C 2% 4.0 mph W6.4 kmh W 10.0 mph16.1 kmh 29.63 in1003.4 mb 0.00 in0.0 mm 0.00 in0.0 mm 1.53 in38.9 mm
09:48 AM 77.6°F25.3°C -17.5°F-27.5°C 2% 3.0 mph W4.8 kmh W 10.0 mph16.1 kmh 29.63 in1003.4 mb 0.00 in0.0 mm 0.00 in0.0 mm 1.53 in38.9 mm
09:49 AM 77.6°F25.3°C -17.5°F-27.5°C 2% 2.0 mph W3.2 kmh W 10.0 mph16.1 kmh 29.63 in1003.4 mb 0.00 in0.0 mm 0.00 in0.0 mm 1.53 in38.9 mm
09:50 AM 77.7°F25.4°C -17.5°F-27.5°C 2% 2.0 mph W3.2 kmh W 10.0 mph16.1 kmh 29.63 in1003.4 mb 0.00 in0.0 mm 0.00 in0.0 mm 1.53 in38.9 mm
09:51 AM 77.7°F25.4°C -17.5°F-27.5°C 2% 2.0 mph W3.2 kmh W 10.0 mph16.1 kmh 29.63 in1003.4 mb 0.00 in0.0 mm 0.00 in0.0 mm 1.53 in38.9 mm
09:52 AM 77.7°F25.4°C -17.5°F-27.5°C 2% 4.0 mph W6.4 kmh W 10.0 mph16.1 kmh 29.63 in1003.4 mb 0.00 in0.0 mm 0.00 in0.0 mm 1.53 in38.9 mm
09:53 AM 77.7°F25.4°C -17.5°F-27.5°C 2% 5.0 mph WSW8.0 kmh WSW 10.0 mph16.1 kmh 29.63 in1003.4 mb 0.00 in0.0 mm 0.00 in0.0 mm 1.53 in38.9 mm
09:54 AM 77.7°F25.4°C -17.5°F-27.5°C 2% 3.0 mph W4.8 kmh W 9.0 mph14.5 kmh 29.63 in1003.4 mb 0.00 in0.0 mm 0.00 in0.0 mm 1.53 in38.9 mm
09:55 AM 77.7°F25.4°C -17.5°F-27.5°C 2% 3.0 mph W4.8 kmh W 9.0 mph14.5 kmh 29.63 in1003.4 mb 0.00 in0.0 mm 0.00 in0.0 mm 1.53 in38.9 mm
09:56 AM 77.7°F25.4°C -17.5°F-27.5°C 2% 3.0 mph WSW4.8 kmh WSW 9.0 mph14.5 kmh 29.64 in1003.7 mb 0.00 in0.0 mm 0.00 in0.0 mm 1.53 in38.9 mm
09:57 AM 77.8°F25.4°C -17.4°F-27.4°C 2% 3.0 mph WSW4.8 kmh WSW 9.0 mph14.5 kmh 29.64 in1003.7 mb 0.00 in0.0 mm 0.00 in0.0 mm 1.53 in38.9 mm
09:58 AM 77.8°F25.4°C -17.4°F-27.4°C 2% 3.0 mph WSW4.8 kmh WSW 9.0 mph14.5 kmh 29.64 in1003.7 mb 0.00 in0.0 mm 0.00 in0.0 mm 1.53 in38.9 mm
09:59 AM 77.8°F25.4°C -17.4°F-27.4°C 2% 3.0 mph WSW4.8 kmh WSW 9.0 mph14.5 kmh 29.64 in1003.7 mb 0.00 in0.0 mm 0.00 in0.0 mm 1.53 in38.9 mm
10:00 AM 77.8°F25.4°C -17.4°F-27.4°C 2% 3.0 mph WSW4.8 kmh WSW 9.0 mph14.5 kmh 29.64 in1003.7 mb 0.00 in0.0 mm 0.00 in0.0 mm 1.53 in38.9 mm
10:01 AM 77.8°F25.4°C -17.4°F-27.4°C 2% 2.0 mph WSW3.2 kmh WSW 9.0 mph14.5 kmh 29.64 in1003.7 mb 0.00 in0.0 mm 0.00 in0.0 mm 1.53 in38.9 mm
10:02 AM 77.9°F25.5°C -17.3°F-27.4°C 2% 3.0 mph WSW4.8 kmh WSW 9.0 mph14.5 kmh 29.64 in1003.7 mb 0.00 in0.0 mm 0.00 in0.0 mm 1.53 in38.9 mm
10:03 AM 77.9°F25.5°C -17.3°F-27.4°C 2% 4.0 mph WSW6.4 kmh WSW 10.0 mph16.1 kmh 29.64 in1003.7 mb 0.00 in0.0 mm 0.00 in0.0 mm 1.53 in38.9 mm
10:04 AM 77.9°F25.5°C -17.3°F-27.4°C 2% 6.0 mph WSW9.7 kmh WSW 13.0 mph20.9 kmh 29.64 in1003.7 mb 0.00 in0.0 mm 0.00 in0.0 mm 1.53 in38.9 mm
10:05 AM 77.9°F25.5°C -17.3°F-27.4°C 2% 3.0 mph WSW4.8 kmh WSW 13.0 mph20.9 kmh 29.64 in1003.7 mb 0.00 in0.0 mm 0.00 in0.0 mm 1.53 in38.9 mm
10:06 AM 77.9°F25.5°C -9.3°F-22.9°C 3% 3.0 mph WSW4.8 kmh WSW 13.0 mph20.9 kmh 29.64 in1003.7 mb 0.00 in0.0 mm 0.00 in0.0 mm 1.53 in38.9 mm
10:07 AM 77.9°F25.5°C -9.3°F-22.9°C 3% 3.0 mph W4.8 kmh W 13.0 mph20.9 kmh 29.64 in1003.7 mb 0.00 in0.0 mm 0.00 in0.0 mm 1.53 in38.9 mm
10:08 AM 77.9°F25.5°C -9.3°F-22.9°C 3% 4.0 mph WSW6.4 kmh WSW 13.0 mph20.9 kmh 29.64 in1003.7 mb 0.00 in0.0 mm 0.00 in0.0 mm 1.53 in38.9 mm
10:09 AM 77.9°F25.5°C -9.3°F-22.9°C 3% 5.0 mph WSW8.0 kmh WSW 16.0 mph25.7 kmh 29.64 in1003.7 mb 0.00 in0.0 mm 0.00 in0.0 mm 1.53 in38.9 mm
10:10 AM 77.9°F25.5°C -9.3°F-22.9°C 3% 3.0 mph WSW4.8 kmh WSW 16.0 mph25.7 kmh 29.64 in1003.7 mb 0.00 in0.0 mm 0.00 in0.0 mm 1.53 in38.9 mm
10:11 AM 77.9°F25.5°C -9.3°F-22.9°C 3% 3.0 mph WSW4.8 kmh WSW 16.0 mph25.7 kmh 29.64 in1003.7 mb 0.00 in0.0 mm 0.00 in0.0 mm 1.53 in38.9 mm
10:12 AM 77.9°F25.5°C -9.3°F-22.9°C 3% 3.0 mph W4.8 kmh W 16.0 mph25.7 kmh 29.64 in1003.7 mb 0.00 in0.0 mm 0.00 in0.0 mm 1.53 in38.9 mm
10:13 AM 77.9°F25.5°C -9.3°F-22.9°C 3% 3.0 mph W4.8 kmh W 16.0 mph25.7 kmh 29.64 in1003.7 mb 0.00 in0.0 mm 0.00 in0.0 mm 1.53 in38.9 mm
10:14 AM 77.9°F25.5°C -9.3°F-22.9°C 3% 4.0 mph W6.4 kmh W 16.0 mph25.7 kmh 29.65 in1004.1 mb 0.00 in0.0 mm 0.00 in0.0 mm 1.53 in38.9 mm
10:15 AM 78.0°F25.6°C -9.2°F-22.9°C 3% 3.0 mph W4.8 kmh W 16.0 mph25.7 kmh 29.64 in1003.7 mb 0.00 in0.0 mm 0.00 in0.0 mm 1.53 in38.9 mm
10:16 AM 78.0°F25.6°C -9.2°F-22.9°C 3% 2.0 mph W3.2 kmh W 16.0 mph25.7 kmh 29.64 in1003.7 mb 0.00 in0.0 mm 0.00 in0.0 mm 1.53 in38.9 mm
10:17 AM 78.0°F25.6°C -9.2°F-22.9°C 3% 5.0 mph W8.0 kmh W 16.0 mph25.7 kmh 29.64 in1003.7 mb 0.00 in0.0 mm 0.00 in0.0 mm 1.53 in38.9 mm
10:18 AM 78.0°F25.6°C -3.2°F-19.6°C 4% 2.0 mph W3.2 kmh W 16.0 mph25.7 kmh 29.64 in1003.7 mb 0.00 in0.0 mm 0.00 in0.0 mm 1.53 in38.9 mm
10:19 AM 78.1°F25.6°C -3.2°F-19.6°C 4% 3.0 mph W4.8 kmh W 16.0 mph25.7 kmh 29.64 in1003.7 mb 0.00 in0.0 mm 0.00 in0.0 mm 1.53 in38.9 mm
10:20 AM 78.1°F25.6°C -9.1°F-22.8°C 3% 4.0 mph WNW6.4 kmh WNW 9.0 mph14.5 kmh 29.64 in1003.7 mb 0.00 in0.0 mm 0.00 in0.0 mm 1.53 in38.9 mm
10:21 AM 78.1°F25.6°C -3.2°F-19.6°C 4% 4.0 mph WNW6.4 kmh WNW 9.0 mph14.5 kmh 29.65 in1004.1 mb 0.00 in0.0 mm 0.00 in0.0 mm 1.53 in38.9 mm
10:22 AM 78.2°F25.7°C -9.1°F-22.8°C 3% 6.0 mph WNW9.7 kmh WNW 10.0 mph16.1 kmh 29.65 in1004.1 mb 0.00 in0.0 mm 0.00 in0.0 mm 1.53 in38.9 mm
10:23 AM 78.2°F25.7°C -9.1°F-22.8°C 3% 3.0 mph W4.8 kmh W 10.0 mph16.1 kmh 29.65 in1004.1 mb 0.00 in0.0 mm 0.00 in0.0 mm 1.53 in38.9 mm
10:24 AM 78.3°F25.7°C -9.0°F-22.8°C 3% 3.0 mph W4.8 kmh W 10.0 mph16.1 kmh 29.65 in1004.1 mb 0.00 in0.0 mm 0.00 in0.0 mm 1.53 in38.9 mm
10:25 AM 78.3°F25.7°C -9.0°F-22.8°C 3% 2.0 mph W3.2 kmh W 10.0 mph16.1 kmh 29.64 in1003.7 mb 0.00 in0.0 mm 0.00 in0.0 mm 1.53 in38.9 mm
10:26 AM 78.3°F25.7°C -9.0°F-22.8°C 3% 1.0 mph WNW1.6 kmh WNW 10.0 mph16.1 kmh 29.64 in1003.7 mb 0.00 in0.0 mm 0.00 in0.0 mm 1.53 in38.9 mm
10:27 AM 78.3°F25.7°C -9.0°F-22.8°C 3% 4.0 mph W6.4 kmh W 10.0 mph16.1 kmh 29.65 in1004.1 mb 0.00 in0.0 mm 0.00 in0.0 mm 1.53 in38.9 mm
10:28 AM 78.4°F25.8°C -8.9°F-22.7°C 3% 3.0 mph W4.8 kmh W 10.0 mph16.1 kmh 29.64 in1003.7 mb 0.00 in0.0 mm 0.00 in0.0 mm 1.53 in38.9 mm
10:29 AM 78.4°F25.8°C -8.9°F-22.7°C 3% 4.0 mph W6.4 kmh W 10.0 mph16.1 kmh 29.64 in1003.7 mb 0.00 in0.0 mm 0.00 in0.0 mm 1.53 in38.9 mm
10:30 AM 78.4°F25.8°C -8.9°F-22.7°C 3% 4.0 mph W6.4 kmh W 10.0 mph16.1 kmh 29.65 in1004.1 mb 0.00 in0.0 mm 0.00 in0.0 mm 1.53 in38.9 mm
10:31 AM 78.5°F25.8°C -8.9°F-22.7°C 3% 5.0 mph W8.0 kmh W 10.0 mph16.1 kmh 29.65 in1004.1 mb 0.00 in0.0 mm 0.00 in0.0 mm 1.53 in38.9 mm
10:32 AM 78.5°F25.8°C -2.9°F-19.4°C 4% 4.0 mph WNW6.4 kmh WNW 10.0 mph16.1 kmh 29.64 in1003.7 mb 0.00 in0.0 mm 0.00 in0.0 mm 1.53 in38.9 mm
10:33 AM 78.5°F25.8°C -2.9°F-19.4°C 4% 3.0 mph WNW4.8 kmh WNW 10.0 mph16.1 kmh 29.65 in1004.1 mb 0.00 in0.0 mm 0.00 in0.0 mm 1.53 in38.9 mm
10:34 AM 78.5°F25.8°C -2.9°F-19.4°C 4% 3.0 mph WNW4.8 kmh WNW 10.0 mph16.1 kmh 29.65 in1004.1 mb 0.00 in0.0 mm 0.00 in0.0 mm 1.53 in38.9 mm
10:35 AM 78.5°F25.8°C -2.9°F-19.4°C 4% 3.0 mph WNW4.8 kmh WNW 10.0 mph16.1 kmh 29.65 in1004.1 mb 0.00 in0.0 mm 0.00 in0.0 mm 1.53 in38.9 mm
10:36 AM 78.5°F25.8°C -2.9°F-19.4°C 4% 2.0 mph WNW3.2 kmh WNW 10.0 mph16.1 kmh 29.65 in1004.1 mb 0.00 in0.0 mm 0.00 in0.0 mm 1.53 in38.9 mm
10:37 AM 78.5°F25.8°C -2.9°F-19.4°C 4% 2.0 mph WNW3.2 kmh WNW 10.0 mph16.1 kmh 29.65 in1004.1 mb 0.00 in0.0 mm 0.00 in0.0 mm 1.53 in38.9 mm
10:38 AM 78.6°F25.9°C -2.8°F-19.3°C 4% 3.0 mph WNW4.8 kmh WNW 10.0 mph16.1 kmh 29.65 in1004.1 mb 0.00 in0.0 mm 0.00 in0.0 mm 1.53 in38.9 mm
10:39 AM 78.6°F25.9°C -2.8°F-19.3°C 4% 1.0 mph WNW1.6 kmh WNW 10.0 mph16.1 kmh 29.65 in1004.1 mb 0.00 in0.0 mm 0.00 in0.0 mm 1.53 in38.9 mm
10:40 AM 78.6°F25.9°C -2.8°F-19.3°C 4% 2.0 mph WNW3.2 kmh WNW 10.0 mph16.1 kmh 29.66 in1004.4 mb 0.00 in0.0 mm 0.00 in0.0 mm 1.53 in38.9 mm
10:41 AM 78.6°F25.9°C -2.8°F-19.3°C 4% 4.0 mph WNW6.4 kmh WNW 8.0 mph12.9 kmh 29.65 in1004.1 mb 0.00 in0.0 mm 0.00 in0.0 mm 1.53 in38.9 mm
10:42 AM 78.6°F25.9°C -2.8°F-19.3°C 4% 3.0 mph W4.8 kmh W 6.0 mph9.7 kmh 29.65 in1004.1 mb 0.00 in0.0 mm 0.00 in0.0 mm 1.53 in38.9 mm
10:43 AM 78.7°F25.9°C -2.8°F-19.3°C 4% 2.0 mph W3.2 kmh W 6.0 mph9.7 kmh 29.66 in1004.4 mb 0.00 in0.0 mm 0.00 in0.0 mm 1.53 in38.9 mm
10:44 AM 78.7°F25.9°C -2.8°F-19.3°C 4% 2.0 mph W3.2 kmh W 6.0 mph9.7 kmh 29.65 in1004.1 mb 0.00 in0.0 mm 0.00 in0.0 mm 1.53 in38.9 mm
10:45 AM 78.7°F25.9°C -2.8°F-19.3°C 4% 2.0 mph W3.2 kmh W 6.0 mph9.7 kmh 29.65 in1004.1 mb 0.00 in0.0 mm 0.00 in0.0 mm 1.53 in38.9 mm
10:46 AM 78.8°F26.0°C 2.1°F-16.6°C 5% 5.0 mph W8.0 kmh W 8.0 mph12.9 kmh 29.66 in1004.4 mb 0.00 in0.0 mm 0.00 in0.0 mm 1.53 in38.9 mm
10:47 AM 78.8°F26.0°C 2.1°F-16.6°C 5% 5.0 mph W8.0 kmh W 9.0 mph14.5 kmh 29.66 in1004.4 mb 0.00 in0.0 mm 0.00 in0.0 mm 1.53 in38.9 mm
10:48 AM 78.8°F26.0°C 2.1°F-16.6°C 5% 2.0 mph W3.2 kmh W 9.0 mph14.5 kmh 29.66 in1004.4 mb 0.00 in0.0 mm 0.00 in0.0 mm 1.53 in38.9 mm
10:49 AM 78.8°F26.0°C 2.1°F-16.6°C 5% 1.0 mph WNW1.6 kmh WNW 9.0 mph14.5 kmh 29.66 in1004.4 mb 0.00 in0.0 mm 0.00 in0.0 mm 1.53 in38.9 mm
10:50 AM 78.9°F26.1°C 2.1°F-16.6°C 5% 3.0 mph WNW4.8 kmh WNW 9.0 mph14.5 kmh 29.66 in1004.4 mb 0.00 in0.0 mm 0.00 in0.0 mm 1.53 in38.9 mm
10:51 AM 78.9°F26.1°C 2.1°F-16.6°C 5% 4.0 mph NW6.4 kmh NW 9.0 mph14.5 kmh 29.66 in1004.4 mb 0.00 in0.0 mm 0.00 in0.0 mm 1.53 in38.9 mm
10:52 AM 79.0°F26.1°C 2.2°F-16.6°C 5% 4.0 mph NW6.4 kmh NW 9.0 mph14.5 kmh 29.66 in1004.4 mb 0.00 in0.0 mm 0.00 in0.0 mm 1.53 in38.9 mm
10:53 AM 79.0°F26.1°C 2.2°F-16.6°C 5% 4.0 mph NW6.4 kmh NW 9.0 mph14.5 kmh 29.67 in1004.7 mb 0.00 in0.0 mm 0.00 in0.0 mm 1.53 in38.9 mm
10:54 AM 79.1°F26.2°C 2.3°F-16.5°C 5% 4.0 mph NW6.4 kmh NW 9.0 mph14.5 kmh 29.66 in1004.4 mb 0.00 in0.0 mm 0.00 in0.0 mm 1.53 in38.9 mm
10:55 AM 79.1°F26.2°C 2.3°F-16.5°C 5% 6.0 mph NW9.7 kmh NW 9.0 mph14.5 kmh 29.67 in1004.7 mb 0.00 in0.0 mm 0.00 in0.0 mm 1.53 in38.9 mm
10:56 AM 79.2°F26.2°C 2.4°F-16.4°C 5% 5.0 mph WNW8.0 kmh WNW 10.0 mph16.1 kmh 29.67 in1004.7 mb 0.00 in0.0 mm 0.00 in0.0 mm 1.53 in38.9 mm
10:57 AM 79.2°F26.2°C 2.4°F-16.4°C 5% 5.0 mph WNW8.0 kmh WNW 10.0 mph16.1 kmh 29.67 in1004.7 mb 0.00 in0.0 mm 0.00 in0.0 mm 1.53 in38.9 mm
10:58 AM 79.3°F26.3°C 6.4°F-14.2°C 6% 4.0 mph WNW6.4 kmh WNW 11.0 mph17.7 kmh 29.67 in1004.7 mb 0.00 in0.0 mm 0.00 in0.0 mm 1.53 in38.9 mm
10:59 AM 79.4°F26.3°C 6.5°F-14.2°C 6% 6.0 mph WNW9.7 kmh WNW 11.0 mph17.7 kmh 29.67 in1004.7 mb 0.00 in0.0 mm 0.00 in0.0 mm 1.53 in38.9 mm
11:00 AM 79.4°F26.3°C 6.5°F-14.2°C 6% 6.0 mph WNW9.7 kmh WNW 11.0 mph17.7 kmh 29.67 in1004.7 mb 0.00 in0.0 mm 0.00 in0.0 mm 1.53 in38.9 mm
11:01 AM 79.5°F26.4°C 6.5°F-14.2°C 6% 5.0 mph W8.0 kmh W 11.0 mph17.7 kmh 29.67 in1004.7 mb 0.00 in0.0 mm 0.00 in0.0 mm 1.53 in38.9 mm
11:02 AM 79.5°F26.4°C 6.5°F-14.2°C 6% 4.0 mph W6.4 kmh W 11.0 mph17.7 kmh 29.67 in1004.7 mb 0.00 in0.0 mm 0.00 in0.0 mm 1.53 in38.9 mm
11:03 AM 79.6°F26.4°C 6.6°F-14.1°C 6% 8.0 mph W12.9 kmh W 14.0 mph22.5 kmh 29.67 in1004.7 mb 0.00 in0.0 mm 0.00 in0.0 mm 1.53 in38.9 mm
11:04 AM 79.7°F26.5°C 10.1°F-12.2°C 7% 6.0 mph W9.7 kmh W 14.0 mph22.5 kmh 29.68 in1005.1 mb 0.00 in0.0 mm 0.00 in0.0 mm 1.53 in38.9 mm
11:05 AM 79.7°F26.5°C 10.1°F-12.2°C 7% 7.0 mph W11.3 kmh W 14.0 mph22.5 kmh 29.67 in1004.7 mb 0.00 in0.0 mm 0.00 in0.0 mm 1.53 in38.9 mm
11:06 AM 79.8°F26.6°C 13.2°F-10.4°C 8% 8.0 mph WNW12.9 kmh WNW 15.0 mph24.1 kmh 29.68 in1005.1 mb 0.00 in0.0 mm 0.00 in0.0 mm 1.53 in38.9 mm
11:07 AM 79.8°F26.6°C 13.2°F-10.4°C 8% 6.0 mph WNW9.7 kmh WNW 15.0 mph24.1 kmh 29.67 in1004.7 mb 0.00 in0.0 mm 0.00 in0.0 mm 1.53 in38.9 mm
11:08 AM 79.9°F26.6°C 16.0°F-8.9°C 9% 6.0 mph WNW9.7 kmh WNW 15.0 mph24.1 kmh 29.67 in1004.7 mb 0.00 in0.0 mm 0.00 in0.0 mm 1.53 in38.9 mm
11:09 AM 79.9°F26.6°C 18.4°F-7.6°C 10% 6.0 mph WNW9.7 kmh WNW 15.0 mph24.1 kmh 29.68 in1005.1 mb 0.00 in0.0 mm 0.00 in0.0 mm 1.53 in38.9 mm
11:10 AM 80.0°F26.7°C 18.5°F-7.5°C 10% 5.0 mph WNW8.0 kmh WNW 15.0 mph24.1 kmh 29.67 in1004.7 mb 0.00 in0.0 mm 0.00 in0.0 mm 1.53 in38.9 mm
11:11 AM 80.0°F26.7°C 18.5°F-7.5°C 10% 3.0 mph WNW4.8 kmh WNW 15.0 mph24.1 kmh 29.67 in1004.7 mb 0.00 in0.0 mm 0.00 in0.0 mm 1.53 in38.9 mm
11:12 AM 80.0°F26.7°C 18.5°F-7.5°C 10% 8.0 mph WNW12.9 kmh WNW 15.0 mph24.1 kmh 29.68 in1005.1 mb 0.00 in0.0 mm 0.00 in0.0 mm 1.53 in38.9 mm
11:13 AM 80.1°F26.7°C 18.6°F-7.4°C 10% 8.0 mph NW12.9 kmh NW 15.0 mph24.1 kmh 29.68 in1005.1 mb 0.00 in0.0 mm 0.00 in0.0 mm 1.53 in38.9 mm
11:14 AM 80.1°F26.7°C 20.8°F-6.2°C 11% 4.0 mph NW6.4 kmh NW 15.0 mph24.1 kmh 29.68 in1005.1 mb 0.00 in0.0 mm 0.00 in0.0 mm 1.53 in38.9 mm
11:15 AM 80.1°F26.7°C 20.8°F-6.2°C 11% 2.0 mph NW3.2 kmh NW 15.0 mph24.1 kmh 29.68 in1005.1 mb 0.00 in0.0 mm 0.00 in0.0 mm 1.53 in38.9 mm
11:16 AM 80.2°F26.8°C 20.9°F-6.2°C 11% 4.0 mph NW6.4 kmh NW 13.0 mph20.9 kmh 29.68 in1005.1 mb 0.00 in0.0 mm 0.00 in0.0 mm 1.53 in38.9 mm
11:17 AM 80.2°F26.8°C 18.7°F-7.4°C 10% 4.0 mph NW6.4 kmh NW 13.0 mph20.9 kmh 29.68 in1005.1 mb 0.00 in0.0 mm 0.00 in0.0 mm 1.53 in38.9 mm
11:18 AM 80.2°F26.8°C 18.7°F-7.4°C 10% 6.0 mph NW9.7 kmh NW 13.0 mph20.9 kmh 29.68 in1005.1 mb 0.00 in0.0 mm 0.00 in0.0 mm 1.53 in38.9 mm
11:19 AM 80.2°F26.8°C 20.9°F-6.2°C 11% 5.0 mph NW8.0 kmh NW 13.0 mph20.9 kmh 29.68 in1005.1 mb 0.00 in0.0 mm 0.00 in0.0 mm 1.53 in38.9 mm
11:20 AM 80.3°F26.8°C 23.0°F-5.0°C 12% 4.0 mph NW6.4 kmh NW 13.0 mph20.9 kmh 29.68 in1005.1 mb 0.00 in0.0 mm 0.00 in0.0 mm 1.53 in38.9 mm
11:21 AM 80.3°F26.8°C 21.0°F-6.1°C 11% 2.0 mph NW3.2 kmh NW 13.0 mph20.9 kmh 29.68 in1005.1 mb 0.00 in0.0 mm 0.00 in0.0 mm 1.53 in38.9 mm
11:22 AM 80.3°F26.8°C 21.0°F-6.1°C 11% 5.0 mph NW8.0 kmh NW 11.0 mph17.7 kmh 29.68 in1005.1 mb 0.00 in0.0 mm 0.00 in0.0 mm 1.53 in38.9 mm
11:23 AM 80.3°F26.8°C 21.0°F-6.1°C 11% 7.0 mph WNW11.3 kmh WNW 16.0 mph25.7 kmh 29.69 in1005.4 mb 0.00 in0.0 mm 0.00 in0.0 mm 1.53 in38.9 mm
11:24 AM 80.3°F26.8°C 21.0°F-6.1°C 11% 5.0 mph WNW8.0 kmh WNW 16.0 mph25.7 kmh 29.69 in1005.4 mb 0.00 in0.0 mm 0.00 in0.0 mm 1.53 in38.9 mm
11:25 AM 80.3°F26.8°C 23.0°F-5.0°C 12% 4.0 mph WNW6.4 kmh WNW 16.0 mph25.7 kmh 29.68 in1005.1 mb 0.00 in0.0 mm 0.00 in0.0 mm 1.53 in38.9 mm
11:26 AM 80.4°F26.9°C 23.1°F-4.9°C 12% 7.0 mph W11.3 kmh W 17.0 mph27.4 kmh 29.68 in1005.1 mb 0.00 in0.0 mm 0.00 in0.0 mm 1.53 in38.9 mm
11:27 AM 80.4°F26.9°C 21.0°F-6.1°C 11% 4.0 mph W6.4 kmh W 17.0 mph27.4 kmh 29.69 in1005.4 mb 0.00 in0.0 mm 0.00 in0.0 mm 1.53 in38.9 mm
11:28 AM 80.4°F26.9°C 23.1°F-4.9°C 12% 4.0 mph W6.4 kmh W 17.0 mph27.4 kmh 29.69 in1005.4 mb 0.00 in0.0 mm 0.00 in0.0 mm 1.53 in38.9 mm
11:29 AM 80.4°F26.9°C 21.0°F-6.1°C 11% 7.0 mph W11.3 kmh W 17.0 mph27.4 kmh 29.69 in1005.4 mb 0.00 in0.0 mm 0.00 in0.0 mm 1.53 in38.9 mm
11:30 AM 80.4°F26.9°C 23.1°F-4.9°C 12% 3.0 mph W4.8 kmh W 17.0 mph27.4 kmh 29.69 in1005.4 mb 0.00 in0.0 mm 0.00 in0.0 mm 1.53 in38.9 mm
11:31 AM 80.4°F26.9°C 21.0°F-6.1°C 11% 3.0 mph W4.8 kmh W 17.0 mph27.4 kmh 29.69 in1005.4 mb 0.00 in0.0 mm 0.00 in0.0 mm 1.53 in38.9 mm
11:32 AM 80.5°F26.9°C 23.2°F-4.9°C 12% 4.0 mph WNW6.4 kmh WNW 17.0 mph27.4 kmh 29.69 in1005.4 mb 0.00 in0.0 mm 0.00 in0.0 mm 1.53 in38.9 mm
11:33 AM 80.5°F26.9°C 25.1°F-3.8°C 13% 5.0 mph WNW8.0 kmh WNW 17.0 mph27.4 kmh 29.69 in1005.4 mb 0.00 in0.0 mm 0.00 in0.0 mm 1.53 in38.9 mm
11:34 AM 80.4°F26.9°C 26.8°F-2.9°C 14% 4.0 mph WNW6.4 kmh WNW 17.0 mph27.4 kmh 29.69 in1005.4 mb 0.00 in0.0 mm 0.00 in0.0 mm 1.53 in38.9 mm
11:35 AM 80.4°F26.9°C 26.8°F-2.9°C 14% 4.0 mph WNW6.4 kmh WNW 17.0 mph27.4 kmh 29.69 in1005.4 mb 0.00 in0.0 mm 0.00 in0.0 mm 1.53 in38.9 mm
11:36 AM 80.4°F26.9°C 26.8°F-2.9°C 14% 6.0 mph WNW9.7 kmh WNW 17.0 mph27.4 kmh 29.69 in1005.4 mb 0.00 in0.0 mm 0.00 in0.0 mm 1.53 in38.9 mm
11:37 AM 80.4°F26.9°C 28.5°F-1.9°C 15% 5.0 mph NW8.0 kmh NW 14.0 mph22.5 kmh 29.69 in1005.4 mb 0.00 in0.0 mm 0.00 in0.0 mm 1.53 in38.9 mm
11:38 AM 80.4°F26.9°C 28.5°F-1.9°C 15% 4.0 mph NW6.4 kmh NW 14.0 mph22.5 kmh 29.68 in1005.1 mb 0.00 in0.0 mm 0.00 in0.0 mm 1.53 in38.9 mm
11:39 AM 80.4°F26.9°C 26.8°F-2.9°C 14% 3.0 mph NW4.8 kmh NW 12.0 mph19.3 kmh 29.69 in1005.4 mb 0.00 in0.0 mm 0.00 in0.0 mm 1.53 in38.9 mm
11:40 AM 80.4°F26.9°C 26.8°F-2.9°C 14% 7.0 mph NW11.3 kmh NW 14.0 mph22.5 kmh 29.68 in1005.1 mb 0.00 in0.0 mm 0.00 in0.0 mm 1.53 in38.9 mm
11:41 AM 80.5°F26.9°C 26.9°F-2.8°C 14% 4.0 mph WNW6.4 kmh WNW 14.0 mph22.5 kmh 29.69 in1005.4 mb 0.00 in0.0 mm 0.00 in0.0 mm 1.53 in38.9 mm
11:42 AM 80.5°F26.9°C 25.1°F-3.8°C 13% 5.0 mph WNW8.0 kmh WNW 14.0 mph22.5 kmh 29.69 in1005.4 mb 0.00 in0.0 mm 0.00 in0.0 mm 1.53 in38.9 mm
11:43 AM 80.6°F27.0°C 23.3°F-4.8°C 12% 3.0 mph WNW4.8 kmh WNW 14.0 mph22.5 kmh 29.69 in1005.4 mb 0.00 in0.0 mm 0.00 in0.0 mm 1.53 in38.9 mm
11:44 AM 80.6°F27.0°C 23.3°F-4.8°C 12% 4.0 mph WNW6.4 kmh WNW 14.0 mph22.5 kmh 29.69 in1005.4 mb 0.00 in0.0 mm 0.00 in0.0 mm 1.53 in38.9 mm
11:45 AM 80.7°F27.1°C 23.3°F-4.8°C 12% 3.0 mph NW4.8 kmh NW 14.0 mph22.5 kmh 29.69 in1005.4 mb 0.00 in0.0 mm 0.00 in0.0 mm 1.53 in38.9 mm
11:46 AM 80.7°F27.1°C 23.3°F-4.8°C 12% 5.0 mph WNW8.0 kmh WNW 14.0 mph22.5 kmh 29.69 in1005.4 mb 0.00 in0.0 mm 0.00 in0.0 mm 1.53 in38.9 mm
11:51 AM 80.8°F27.1°C 28.8°F-1.8°C 15% 5.0 mph NW8.0 kmh NW 14.0 mph22.5 kmh 29.69 in1005.4 mb 0.01 in0.3 mm 0.12 in3.0 mm 1.54 in39.1 mm
11:53 AM 80.8°F27.1°C 31.9°F-0.1°C 17% 5.0 mph NW8.0 kmh NW 16.0 mph25.7 kmh 29.69 in1005.4 mb 0.01 in0.3 mm 0.00 in0.0 mm 1.54 in39.1 mm
11:56 AM 80.8°F27.1°C 31.9°F-0.1°C 17% 5.0 mph NW8.0 kmh NW 16.0 mph25.7 kmh 29.69 in1005.4 mb 0.01 in0.3 mm 0.00 in0.0 mm 1.54 in39.1 mm
11:58 AM 80.9°F27.2°C 30.5°F-0.8°C 16% 5.0 mph NW8.0 kmh NW 16.0 mph25.7 kmh 29.70 in1005.8 mb 0.01 in0.3 mm 0.00 in0.0 mm 1.54 in39.1 mm
11:59 AM 81.0°F27.2°C 29.0°F-1.7°C 15% 5.0 mph NW8.0 kmh NW 16.0 mph25.7 kmh 29.70 in1005.8 mb 0.01 in0.3 mm 0.00 in0.0 mm 1.54 in39.1 mm
12:01 PM 81.0°F27.2°C 27.3°F-2.6°C 14% 5.0 mph NW8.0 kmh NW 16.0 mph25.7 kmh 29.69 in1005.4 mb 0.01 in0.3 mm 0.00 in0.0 mm 1.54 in39.1 mm
12:04 PM 81.1°F27.3°C 38.6°F3.7°C 22% 5.0 mph NW8.0 kmh NW 13.0 mph20.9 kmh 29.70 in1005.8 mb 0.01 in0.3 mm 0.00 in0.0 mm 1.54 in39.1 mm
12:06 PM 81.1°F27.3°C 36.2°F2.3°C 20% 5.0 mph NW8.0 kmh NW 13.0 mph20.9 kmh 29.70 in1005.8 mb 0.01 in0.3 mm 0.00 in0.0 mm 1.54 in39.1 mm
12:07 PM 81.2°F27.3°C 35.0°F1.7°C 19% 5.0 mph NW8.0 kmh NW 13.0 mph20.9 kmh 29.70 in1005.8 mb 0.01 in0.3 mm 0.00 in0.0 mm 1.54 in39.1 mm
12:08 PM 81.2°F27.3°C 33.6°F0.9°C 18% 5.0 mph NW8.0 kmh NW 14.0 mph22.5 kmh 29.70 in1005.8 mb 0.01 in0.3 mm 0.00 in0.0 mm 1.54 in39.1 mm
12:09 PM 81.2°F27.3°C 35.0°F1.7°C 19% 5.0 mph NW8.0 kmh NW 14.0 mph22.5 kmh 29.70 in1005.8 mb 0.01 in0.3 mm 0.00 in0.0 mm 1.54 in39.1 mm
12:10 PM 81.2°F27.3°C 35.0°F1.7°C 19% 5.0 mph NW8.0 kmh NW 14.0 mph22.5 kmh 29.70 in1005.8 mb 0.01 in0.3 mm 0.00 in0.0 mm 1.54 in39.1 mm
12:11 PM 81.2°F27.3°C 36.3°F2.4°C 20% 5.0 mph NW8.0 kmh NW 14.0 mph22.5 kmh 29.70 in1005.8 mb 0.01 in0.3 mm 0.00 in0.0 mm 1.54 in39.1 mm
12:12 PM 81.2°F27.3°C 36.3°F2.4°C 20% 5.0 mph NW8.0 kmh NW 14.0 mph22.5 kmh 29.70 in1005.8 mb 0.01 in0.3 mm 0.00 in0.0 mm 1.54 in39.1 mm
12:13 PM 81.2°F27.3°C 36.3°F2.4°C 20% 5.0 mph NW8.0 kmh NW 14.0 mph22.5 kmh 29.70 in1005.8 mb 0.01 in0.3 mm 0.00 in0.0 mm 1.54 in39.1 mm
12:14 PM 81.2°F27.3°C 35.0°F1.7°C 19% 5.0 mph NW8.0 kmh NW 14.0 mph22.5 kmh 29.70 in1005.8 mb 0.01 in0.3 mm 0.00 in0.0 mm 1.54 in39.1 mm
12:15 PM 81.2°F27.3°C 35.0°F1.7°C 19% 5.0 mph NW8.0 kmh NW 14.0 mph22.5 kmh 29.70 in1005.8 mb 0.01 in0.3 mm 0.00 in0.0 mm 1.54 in39.1 mm
12:16 PM 81.2°F27.3°C 36.3°F2.4°C 20% 5.0 mph NW8.0 kmh NW 14.0 mph22.5 kmh 29.70 in1005.8 mb 0.01 in0.3 mm 0.00 in0.0 mm 1.54 in39.1 mm
12:17 PM 81.2°F27.3°C 36.3°F2.4°C 20% 5.0 mph NW8.0 kmh NW 14.0 mph22.5 kmh 29.70 in1005.8 mb 0.01 in0.3 mm 0.00 in0.0 mm 1.54 in39.1 mm
12:18 PM 81.2°F27.3°C 36.3°F2.4°C 20% 5.0 mph NW8.0 kmh NW 11.0 mph17.7 kmh 29.70 in1005.8 mb 0.01 in0.3 mm 0.00 in0.0 mm 1.54 in39.1 mm
12:19 PM 81.2°F27.3°C 37.5°F3.1°C 21% 5.0 mph NW8.0 kmh NW 11.0 mph17.7 kmh 29.70 in1005.8 mb 0.01 in0.3 mm 0.00 in0.0 mm 1.54 in39.1 mm
12:20 PM 81.1°F27.3°C 36.2°F2.3°C 20% 5.0 mph NW8.0 kmh NW 11.0 mph17.7 kmh 29.70 in1005.8 mb 0.01 in0.3 mm 0.00 in0.0 mm 1.54 in39.1 mm
12:21 PM 81.1°F27.3°C 36.2°F2.3°C 20% 4.0 mph NW6.4 kmh NW 11.0 mph17.7 kmh 29.70 in1005.8 mb 0.01 in0.3 mm 0.00 in0.0 mm 1.54 in39.1 mm
12:22 PM 81.2°F27.3°C 36.3°F2.4°C 20% 5.0 mph NW8.0 kmh NW 11.0 mph17.7 kmh 29.70 in1005.8 mb 0.01 in0.3 mm 0.00 in0.0 mm 1.54 in39.1 mm
12:23 PM 81.2°F27.3°C 36.3°F2.4°C 20% 5.0 mph NW8.0 kmh NW 11.0 mph17.7 kmh 29.70 in1005.8 mb 0.01 in0.3 mm 0.00 in0.0 mm 1.54 in39.1 mm
12:24 PM 81.2°F27.3°C 37.5°F3.1°C 21% 5.0 mph NW8.0 kmh NW 11.0 mph17.7 kmh 29.70 in1005.8 mb 0.01 in0.3 mm 0.00 in0.0 mm 1.54 in39.1 mm
12:25 PM 81.2°F27.3°C 37.5°F3.1°C 21% 5.0 mph NW8.0 kmh NW 11.0 mph17.7 kmh 29.70 in1005.8 mb 0.01 in0.3 mm 0.00 in0.0 mm 1.54 in39.1 mm
12:26 PM 81.2°F27.3°C 37.5°F3.1°C 21% 5.0 mph WNW8.0 kmh WNW 11.0 mph17.7 kmh 29.70 in1005.8 mb 0.01 in0.3 mm 0.00 in0.0 mm 1.54 in39.1 mm
12:27 PM 81.2°F27.3°C 38.7°F3.7°C 22% 5.0 mph WNW8.0 kmh WNW 11.0 mph17.7 kmh 29.70 in1005.8 mb 0.01 in0.3 mm 0.00 in0.0 mm 1.54 in39.1 mm
12:28 PM 81.2°F27.3°C 38.7°F3.7°C 22% 5.0 mph NW8.0 kmh NW 11.0 mph17.7 kmh 29.71 in1006.1 mb 0.01 in0.3 mm 0.00 in0.0 mm 1.54 in39.1 mm
12:29 PM 81.2°F27.3°C 38.7°F3.7°C 22% 5.0 mph WNW8.0 kmh WNW 11.0 mph17.7 kmh 29.70 in1005.8 mb 0.01 in0.3 mm 0.00 in0.0 mm 1.54 in39.1 mm
12:30 PM 81.2°F27.3°C 38.7°F3.7°C 22% 5.0 mph WNW8.0 kmh WNW 11.0 mph17.7 kmh 29.70 in1005.8 mb 0.01 in0.3 mm 0.00 in0.0 mm 1.54 in39.1 mm
12:31 PM 81.2°F27.3°C 39.9°F4.4°C 23% 5.0 mph NW8.0 kmh NW 11.0 mph17.7 kmh 29.71 in1006.1 mb 0.01 in0.3 mm 0.00 in0.0 mm 1.54 in39.1 mm
12:32 PM 81.3°F27.4°C 39.9°F4.4°C 23% 4.0 mph WNW6.4 kmh WNW 11.0 mph17.7 kmh 29.70 in1005.8 mb 0.01 in0.3 mm 0.00 in0.0 mm 1.54 in39.1 mm
12:33 PM 81.3°F27.4°C 38.8°F3.8°C 22% 4.0 mph WNW6.4 kmh WNW 11.0 mph17.7 kmh 29.71 in1006.1 mb 0.01 in0.3 mm 0.00 in0.0 mm 1.54 in39.1 mm
12:34 PM 81.3°F27.4°C 38.8°F3.8°C 22% 4.0 mph WNW6.4 kmh WNW 11.0 mph17.7 kmh 29.71 in1006.1 mb 0.01 in0.3 mm 0.00 in0.0 mm 1.54 in39.1 mm
12:35 PM 81.3°F27.4°C 38.8°F3.8°C 22% 4.0 mph WNW6.4 kmh WNW 11.0 mph17.7 kmh 29.70 in1005.8 mb 0.01 in0.3 mm 0.00 in0.0 mm 1.54 in39.1 mm
12:36 PM 81.3°F27.4°C 39.9°F4.4°C 23% 5.0 mph WNW8.0 kmh WNW 13.0 mph20.9 kmh 29.70 in1005.8 mb 0.01 in0.3 mm 0.00 in0.0 mm 1.54 in39.1 mm
12:37 PM 81.3°F27.4°C 39.9°F4.4°C 23% 5.0 mph WNW8.0 kmh WNW 13.0 mph20.9 kmh 29.71 in1006.1 mb 0.01 in0.3 mm 0.00 in0.0 mm 1.54 in39.1 mm
12:38 PM 81.3°F27.4°C 39.9°F4.4°C 23% 5.0 mph WNW8.0 kmh WNW 13.0 mph20.9 kmh 29.70 in1005.8 mb 0.01 in0.3 mm 0.00 in0.0 mm 1.54 in39.1 mm
12:39 PM 81.4°F27.4°C 38.9°F3.8°C 22% 4.0 mph WNW6.4 kmh WNW 13.0 mph20.9 kmh 29.70 in1005.8 mb 0.01 in0.3 mm 0.00 in0.0 mm 1.54 in39.1 mm
12:40 PM 81.4°F27.4°C 38.9°F3.8°C 22% 4.0 mph WNW6.4 kmh WNW 13.0 mph20.9 kmh 29.71 in1006.1 mb 0.01 in0.3 mm 0.00 in0.0 mm 1.54 in39.1 mm
12:41 PM 81.4°F27.4°C 38.9°F3.8°C 22% 4.0 mph WNW6.4 kmh WNW 13.0 mph20.9 kmh 29.71 in1006.1 mb 0.01 in0.3 mm 0.00 in0.0 mm 1.54 in39.1 mm
12:42 PM 81.4°F27.4°C 40.0°F4.4°C 23% 5.0 mph WNW8.0 kmh WNW 13.0 mph20.9 kmh 29.71 in1006.1 mb 0.01 in0.3 mm 0.00 in0.0 mm 1.54 in39.1 mm
12:43 PM 81.5°F27.5°C 42.3°F5.7°C 25% 5.0 mph WNW8.0 kmh WNW 13.0 mph20.9 kmh 29.71 in1006.1 mb 0.01 in0.3 mm 0.00 in0.0 mm 1.54 in39.1 mm
12:44 PM 81.4°F27.4°C 43.2°F6.2°C 26% 5.0 mph WNW8.0 kmh WNW 13.0 mph20.9 kmh 29.71 in1006.1 mb 0.01 in0.3 mm 0.00 in0.0 mm 1.54 in39.1 mm
12:45 PM 81.5°F27.5°C 45.2°F7.3°C 28% 5.0 mph NW8.0 kmh NW 13.0 mph20.9 kmh 29.71 in1006.1 mb 0.01 in0.3 mm 0.00 in0.0 mm 1.54 in39.1 mm
12:46 PM 81.5°F27.5°C 45.2°F7.3°C 28% 5.0 mph NW8.0 kmh NW 10.0 mph16.1 kmh 29.71 in1006.1 mb 0.00 in0.0 mm 0.00 in0.0 mm 1.54 in39.1 mm
12:47 PM 81.4°F27.4°C 45.2°F7.3°C 28% 6.0 mph NW9.7 kmh NW 12.0 mph19.3 kmh 29.71 in1006.1 mb 0.00 in0.0 mm 0.00 in0.0 mm 1.54 in39.1 mm
12:48 PM 81.5°F27.5°C 46.2°F7.9°C 29% 6.0 mph NW9.7 kmh NW 12.0 mph19.3 kmh 29.71 in1006.1 mb 0.00 in0.0 mm 0.00 in0.0 mm 1.54 in39.1 mm
12:49 PM 81.5°F27.5°C 45.2°F7.3°C 28% 6.0 mph NW9.7 kmh NW 19.0 mph30.6 kmh 29.71 in1006.1 mb 0.00 in0.0 mm 0.00 in0.0 mm 1.54 in39.1 mm
12:50 PM 81.5°F27.5°C 44.3°F6.8°C 27% 6.0 mph NW9.7 kmh NW 19.0 mph30.6 kmh 29.71 in1006.1 mb 0.00 in0.0 mm 0.00 in0.0 mm 1.54 in39.1 mm
12:51 PM 81.5°F27.5°C 44.3°F6.8°C 27% 6.0 mph NW9.7 kmh NW 19.0 mph30.6 kmh 29.71 in1006.1 mb 0.00 in0.0 mm 0.00 in0.0 mm 1.54 in39.1 mm
12:52 PM 81.6°F27.6°C 43.4°F6.3°C 26% 6.0 mph NW9.7 kmh NW 19.0 mph30.6 kmh 29.71 in1006.1 mb 0.00 in0.0 mm 0.00 in0.0 mm 1.54 in39.1 mm
12:53 PM 81.6°F27.6°C 44.4°F6.9°C 27% 6.0 mph NW9.7 kmh NW 19.0 mph30.6 kmh 29.71 in1006.1 mb 0.00 in0.0 mm 0.00 in0.0 mm 1.54 in39.1 mm
12:54 PM 81.7°F27.6°C 44.5°F6.9°C 27% 6.0 mph WNW9.7 kmh WNW 19.0 mph30.6 kmh 29.71 in1006.1 mb 0.00 in0.0 mm 0.00 in0.0 mm 1.54 in39.1 mm
12:55 PM 81.7°F27.6°C 45.4°F7.4°C 28% 6.0 mph WNW9.7 kmh WNW 19.0 mph30.6 kmh 29.71 in1006.1 mb 0.00 in0.0 mm 0.00 in0.0 mm 1.54 in39.1 mm
12:56 PM 81.7°F27.6°C 44.5°F6.9°C 27% 5.0 mph WNW8.0 kmh WNW 19.0 mph30.6 kmh 29.71 in1006.1 mb 0.00 in0.0 mm 0.00 in0.0 mm 1.54 in39.1 mm
12:57 PM 81.8°F27.7°C 44.5°F6.9°C 27% 5.0 mph WNW8.0 kmh WNW 19.0 mph30.6 kmh 29.71 in1006.1 mb 0.00 in0.0 mm 0.00 in0.0 mm 1.54 in39.1 mm
12:58 PM 81.8°F27.7°C 43.6°F6.4°C 26% 5.0 mph WNW8.0 kmh WNW 19.0 mph30.6 kmh 29.71 in1006.1 mb 0.00 in0.0 mm 0.00 in0.0 mm 1.54 in39.1 mm
12:59 PM 81.9°F27.7°C 43.6°F6.4°C 26% 5.0 mph WNW8.0 kmh WNW 14.0 mph22.5 kmh 29.71 in1006.1 mb 0.00 in0.0 mm 0.00 in0.0 mm 1.54 in39.1 mm
01:00 PM 82.0°F27.8°C 42.7°F5.9°C 25% 5.0 mph WNW8.0 kmh WNW 14.0 mph22.5 kmh 29.71 in1006.1 mb 0.00 in0.0 mm 0.00 in0.0 mm 1.54 in39.1 mm
01:01 PM 82.1°F27.8°C 41.7°F5.4°C 24% 5.0 mph WNW8.0 kmh WNW 14.0 mph22.5 kmh 29.71 in1006.1 mb 0.00 in0.0 mm 0.00 in0.0 mm 1.54 in39.1 mm
01:02 PM 82.1°F27.8°C 41.7°F5.4°C 24% 5.0 mph WNW8.0 kmh WNW 10.0 mph16.1 kmh 29.71 in1006.1 mb 0.00 in0.0 mm 0.00 in0.0 mm 1.54 in39.1 mm
01:03 PM 82.2°F27.9°C 41.8°F5.4°C 24% 4.0 mph WNW6.4 kmh WNW 10.0 mph16.1 kmh 29.71 in1006.1 mb 0.00 in0.0 mm 0.00 in0.0 mm 1.54 in39.1 mm
01:04 PM 82.3°F27.9°C 41.9°F5.5°C 24% 4.0 mph WNW6.4 kmh WNW 10.0 mph16.1 kmh 29.71 in1006.1 mb 0.00 in0.0 mm 0.00 in0.0 mm 1.54 in39.1 mm
01:05 PM 82.3°F27.9°C 41.9°F5.5°C 24% 4.0 mph WNW6.4 kmh WNW 10.0 mph16.1 kmh 29.71 in1006.1 mb 0.00 in0.0 mm 0.00 in0.0 mm 1.54 in39.1 mm
01:06 PM 82.4°F28.0°C 42.0°F5.6°C 24% 4.0 mph NW6.4 kmh NW 9.0 mph14.5 kmh 29.71 in1006.1 mb 0.00 in0.0 mm 0.00 in0.0 mm 1.54 in39.1 mm
01:07 PM 82.5°F28.1°C 43.1°F6.2°C 25% 4.0 mph NW6.4 kmh NW 9.0 mph14.5 kmh 29.71 in1006.1 mb 0.00 in0.0 mm 0.00 in0.0 mm 1.54 in39.1 mm
01:08 PM 82.5°F28.1°C 44.1°F6.7°C 26% 4.0 mph NW6.4 kmh NW 9.0 mph14.5 kmh 29.71 in1006.1 mb 0.00 in0.0 mm 0.00 in0.0 mm 1.54 in39.1 mm
01:09 PM 82.6°F28.1°C 45.2°F7.3°C 27% 4.0 mph NW6.4 kmh NW 9.0 mph14.5 kmh 29.71 in1006.1 mb 0.00 in0.0 mm 0.00 in0.0 mm 1.54 in39.1 mm
01:10 PM 82.6°F28.1°C 44.2°F6.8°C 26% 4.0 mph NW6.4 kmh NW 9.0 mph14.5 kmh 29.71 in1006.1 mb 0.00 in0.0 mm 0.00 in0.0 mm 1.54 in39.1 mm
01:11 PM 82.7°F28.2°C 45.3°F7.4°C 27% 4.0 mph NW6.4 kmh NW 12.0 mph19.3 kmh 29.72 in1006.4 mb 0.00 in0.0 mm 0.00 in0.0 mm 1.54 in39.1 mm
01:12 PM 82.7°F28.2°C 46.3°F7.9°C 28% 4.0 mph NW6.4 kmh NW 12.0 mph19.3 kmh 29.72 in1006.4 mb 0.00 in0.0 mm 0.00 in0.0 mm 1.54 in39.1 mm
01:13 PM 82.8°F28.2°C 46.4°F8.0°C 28% 4.0 mph NW6.4 kmh NW 12.0 mph19.3 kmh 29.72 in1006.4 mb 0.00 in0.0 mm 0.00 in0.0 mm 1.54 in39.1 mm
01:14 PM 82.8°F28.2°C 46.4°F8.0°C 28% 4.0 mph NW6.4 kmh NW 12.0 mph19.3 kmh 29.72 in1006.4 mb 0.00 in0.0 mm 0.00 in0.0 mm 1.54 in39.1 mm
01:15 PM 82.9°F28.3°C 45.5°F7.5°C 27% 4.0 mph NW6.4 kmh NW 12.0 mph19.3 kmh 29.72 in1006.4 mb 0.00 in0.0 mm 0.00 in0.0 mm 1.54 in39.1 mm
01:16 PM 83.0°F28.3°C 46.5°F8.1°C 28% 4.0 mph NW6.4 kmh NW 12.0 mph19.3 kmh 29.71 in1006.1 mb 0.00 in0.0 mm 0.00 in0.0 mm 1.54 in39.1 mm
01:17 PM 83.0°F28.3°C 46.5°F8.1°C 28% 4.0 mph NW6.4 kmh NW 12.0 mph19.3 kmh 29.72 in1006.4 mb 0.00 in0.0 mm 0.00 in0.0 mm 1.54 in39.1 mm
01:18 PM 83.0°F28.3°C 47.5°F8.6°C 29% 4.0 mph WNW6.4 kmh WNW 15.0 mph24.1 kmh 29.72 in1006.4 mb 0.00 in0.0 mm 0.00 in0.0 mm 1.54 in39.1 mm
01:19 PM 83.1°F28.4°C 48.5°F9.2°C 30% 5.0 mph WNW8.0 kmh WNW 20.0 mph32.2 kmh 29.72 in1006.4 mb 0.00 in0.0 mm 0.00 in0.0 mm 1.54 in39.1 mm
01:20 PM 83.1°F28.4°C 49.3°F9.6°C 31% 5.0 mph W8.0 kmh W 20.0 mph32.2 kmh 29.72 in1006.4 mb 0.00 in0.0 mm 0.00 in0.0 mm 1.54 in39.1 mm
01:21 PM 83.1°F28.4°C 49.3°F9.6°C 31% 5.0 mph W8.0 kmh W 20.0 mph32.2 kmh 29.72 in1006.4 mb 0.00 in0.0 mm 0.00 in0.0 mm 1.54 in39.1 mm
01:22 PM 83.2°F28.4°C 49.4°F9.7°C 31% 5.0 mph WSW8.0 kmh WSW 20.0 mph32.2 kmh 29.72 in1006.4 mb 0.00 in0.0 mm 0.00 in0.0 mm 1.54 in39.1 mm
01:23 PM 83.2°F28.4°C 50.3°F10.2°C 32% 5.0 mph WSW8.0 kmh WSW 20.0 mph32.2 kmh 29.72 in1006.4 mb 0.00 in0.0 mm 0.00 in0.0 mm 1.54 in39.1 mm
01:24 PM 83.2°F28.4°C 51.1°F10.6°C 33% 6.0 mph WSW9.7 kmh WSW 20.0 mph32.2 kmh 29.72 in1006.4 mb 0.00 in0.0 mm 0.00 in0.0 mm 1.54 in39.1 mm
01:25 PM 83.2°F28.4°C 51.9°F11.1°C 34% 5.0 mph WSW8.0 kmh WSW 20.0 mph32.2 kmh 29.72 in1006.4 mb 0.00 in0.0 mm 0.00 in0.0 mm 1.54 in39.1 mm
01:26 PM 83.2°F28.4°C 51.9°F11.1°C 34% 5.0 mph WSW8.0 kmh WSW 20.0 mph32.2 kmh 29.72 in1006.4 mb 0.00 in0.0 mm 0.00 in0.0 mm 1.54 in39.1 mm
01:27 PM 83.2°F28.4°C 51.9°F11.1°C 34% 5.0 mph WSW8.0 kmh WSW 20.0 mph32.2 kmh 29.72 in1006.4 mb 0.00 in0.0 mm 0.00 in0.0 mm 1.54 in39.1 mm
01:28 PM 83.2°F28.4°C 51.9°F11.1°C 34% 5.0 mph WSW8.0 kmh WSW 20.0 mph32.2 kmh 29.72 in1006.4 mb 0.00 in0.0 mm 0.00 in0.0 mm 1.54 in39.1 mm
01:29 PM 83.1°F28.4°C 51.8°F11.0°C 34% 4.0 mph WSW6.4 kmh WSW 17.0 mph27.4 kmh 29.72 in1006.4 mb 0.00 in0.0 mm 0.00 in0.0 mm 1.54 in39.1 mm
01:30 PM 83.1°F28.4°C 51.8°F11.0°C 34% 4.0 mph WSW6.4 kmh WSW 17.0 mph27.4 kmh 29.72 in1006.4 mb 0.00 in0.0 mm 0.00 in0.0 mm 1.54 in39.1 mm
01:31 PM 83.1°F28.4°C 51.8°F11.0°C 34% 4.0 mph W6.4 kmh W 17.0 mph27.4 kmh 29.72 in1006.4 mb 0.00 in0.0 mm 0.00 in0.0 mm 1.54 in39.1 mm
01:32 PM 83.1°F28.4°C 51.8°F11.0°C 34% 4.0 mph W6.4 kmh W 17.0 mph27.4 kmh 29.72 in1006.4 mb 0.00 in0.0 mm 0.00 in0.0 mm 1.54 in39.1 mm
01:33 PM 83.0°F28.3°C 52.5°F11.4°C 35% 4.0 mph WNW6.4 kmh WNW 15.0 mph24.1 kmh 29.72 in1006.4 mb 0.00 in0.0 mm 0.00 in0.0 mm 1.54 in39.1 mm
01:34 PM 83.0°F28.3°C 55.5°F13.1°C 39% 4.0 mph WNW6.4 kmh WNW 15.0 mph24.1 kmh 29.72 in1006.4 mb 0.00 in0.0 mm 0.00 in0.0 mm 1.54 in39.1 mm
01:35 PM 83.0°F28.3°C 55.5°F13.1°C 39% 4.0 mph WNW6.4 kmh WNW 15.0 mph24.1 kmh 29.72 in1006.4 mb 0.00 in0.0 mm 0.00 in0.0 mm 1.54 in39.1 mm
01:36 PM 82.9°F28.3°C 55.4°F13.0°C 39% 4.0 mph WNW6.4 kmh WNW 15.0 mph24.1 kmh 29.72 in1006.4 mb 0.00 in0.0 mm 0.00 in0.0 mm 1.54 in39.1 mm
01:37 PM 82.9°F28.3°C 55.4°F13.0°C 39% 4.0 mph WNW6.4 kmh WNW 15.0 mph24.1 kmh 29.72 in1006.4 mb 0.00 in0.0 mm 0.00 in0.0 mm 1.54 in39.1 mm
01:38 PM 82.9°F28.3°C 54.7°F12.6°C 38% 4.0 mph WNW6.4 kmh WNW 15.0 mph24.1 kmh 29.72 in1006.4 mb 0.00 in0.0 mm 0.00 in0.0 mm 1.54 in39.1 mm
01:39 PM 82.9°F28.3°C 54.0°F12.2°C 37% 5.0 mph WNW8.0 kmh WNW 15.0 mph24.1 kmh 29.71 in1006.1 mb 0.00 in0.0 mm 0.00 in0.0 mm 1.54 in39.1 mm
01:40 PM 82.9°F28.3°C 54.0°F12.2°C 37% 4.0 mph WNW6.4 kmh WNW 15.0 mph24.1 kmh 29.72 in1006.4 mb 0.00 in0.0 mm 0.00 in0.0 mm 1.54 in39.1 mm
01:41 PM 82.9°F28.3°C 53.2°F11.8°C 36% 4.0 mph WNW6.4 kmh WNW 15.0 mph24.1 kmh 29.72 in1006.4 mb 0.00 in0.0 mm 0.00 in0.0 mm 1.54 in39.1 mm
01:42 PM 83.0°F28.3°C 52.5°F11.4°C 35% 5.0 mph WNW8.0 kmh WNW 15.0 mph24.1 kmh 29.72 in1006.4 mb 0.00 in0.0 mm 0.00 in0.0 mm 1.54 in39.1 mm
01:43 PM 83.0°F28.3°C 52.5°F11.4°C 35% 4.0 mph W6.4 kmh W 11.0 mph17.7 kmh 29.72 in1006.4 mb 0.00 in0.0 mm 0.00 in0.0 mm 1.54 in39.1 mm
01:44 PM 83.0°F28.3°C 53.3°F11.8°C 36% 4.0 mph W6.4 kmh W 12.0 mph19.3 kmh 29.72 in1006.4 mb 0.00 in0.0 mm 0.00 in0.0 mm 1.54 in39.1 mm
01:45 PM 83.0°F28.3°C 53.3°F11.8°C 36% 5.0 mph W8.0 kmh W 13.0 mph20.9 kmh 29.72 in1006.4 mb 0.00 in0.0 mm 0.00 in0.0 mm 1.54 in39.1 mm
01:46 PM 83.0°F28.3°C 55.5°F13.1°C 39% 5.0 mph WNW8.0 kmh WNW 13.0 mph20.9 kmh 29.72 in1006.4 mb 0.00 in0.0 mm 0.00 in0.0 mm 1.54 in39.1 mm
01:47 PM 83.0°F28.3°C 56.2°F13.4°C 40% 5.0 mph WNW8.0 kmh WNW 13.0 mph20.9 kmh 29.72 in1006.4 mb 0.00 in0.0 mm 0.00 in0.0 mm 1.54 in39.1 mm
01:48 PM 83.0°F28.3°C 56.2°F13.4°C 40% 5.0 mph WNW8.0 kmh WNW 13.0 mph20.9 kmh 29.72 in1006.4 mb 0.00 in0.0 mm 0.00 in0.0 mm 1.54 in39.1 mm
01:49 PM 83.0°F28.3°C 55.5°F13.1°C 39% 5.0 mph NW8.0 kmh NW 13.0 mph20.9 kmh 29.72 in1006.4 mb 0.00 in0.0 mm 0.00 in0.0 mm 1.54 in39.1 mm
01:50 PM 83.0°F28.3°C 55.5°F13.1°C 39% 5.0 mph NW8.0 kmh NW 13.0 mph20.9 kmh 29.72 in1006.4 mb 0.00 in0.0 mm 0.00 in0.0 mm 1.54 in39.1 mm
01:51 PM 83.1°F28.4°C 54.9°F12.7°C 38% 5.0 mph WNW8.0 kmh WNW 13.0 mph20.9 kmh 29.72 in1006.4 mb 0.00 in0.0 mm 0.00 in0.0 mm 1.54 in39.1 mm
01:52 PM 83.1°F28.4°C 54.1°F12.3°C 37% 5.0 mph NW8.0 kmh NW 13.0 mph20.9 kmh 29.72 in1006.4 mb 0.00 in0.0 mm 0.00 in0.0 mm 1.54 in39.1 mm
01:53 PM 83.1°F28.4°C 54.9°F12.7°C 38% 5.0 mph NW8.0 kmh NW 13.0 mph20.9 kmh 29.72 in1006.4 mb 0.00 in0.0 mm 0.00 in0.0 mm 1.54 in39.1 mm
01:54 PM 83.2°F28.4°C 55.0°F12.8°C 38% 5.0 mph NW8.0 kmh NW 13.0 mph20.9 kmh 29.72 in1006.4 mb 0.00 in0.0 mm 0.00 in0.0 mm 1.54 in39.1 mm
01:55 PM 83.3°F28.5°C 55.8°F13.2°C 39% 5.0 mph NW8.0 kmh NW 13.0 mph20.9 kmh 29.72 in1006.4 mb 0.00 in0.0 mm 0.00 in0.0 mm 1.54 in39.1 mm
01:56 PM 83.3°F28.5°C 57.1°F13.9°C 41% 5.0 mph NW8.0 kmh NW 14.0 mph22.5 kmh 29.72 in1006.4 mb 0.00 in0.0 mm 0.00 in0.0 mm 1.54 in39.1 mm
01:57 PM 83.3°F28.5°C 57.8°F14.3°C 42% 5.0 mph NW8.0 kmh NW 14.0 mph22.5 kmh 29.72 in1006.4 mb 0.00 in0.0 mm 0.00 in0.0 mm 1.54 in39.1 mm
01:58 PM 83.3°F28.5°C 58.5°F14.7°C 43% 5.0 mph NW8.0 kmh NW 14.0 mph22.5 kmh 29.72 in1006.4 mb 0.00 in0.0 mm 0.00 in0.0 mm 1.54 in39.1 mm
01:59 PM 83.4°F28.6°C 57.2°F14.0°C 41% 5.0 mph NW8.0 kmh NW 14.0 mph22.5 kmh 29.72 in1006.4 mb 0.00 in0.0 mm 0.00 in0.0 mm 1.54 in39.1 mm
02:00 PM 83.5°F28.6°C 56.6°F13.7°C 40% 5.0 mph NW8.0 kmh NW 14.0 mph22.5 kmh 29.72 in1006.4 mb 0.00 in0.0 mm 0.00 in0.0 mm 1.54 in39.1 mm
02:01 PM 83.5°F28.6°C 55.9°F13.3°C 39% 6.0 mph NW9.7 kmh NW 14.0 mph22.5 kmh 29.72 in1006.4 mb 0.00 in0.0 mm 0.00 in0.0 mm 1.54 in39.1 mm
02:02 PM 83.6°F28.7°C 56.0°F13.3°C 39% 5.0 mph NW8.0 kmh NW 14.0 mph22.5 kmh 29.72 in1006.4 mb 0.00 in0.0 mm 0.00 in0.0 mm 1.54 in39.1 mm
02:03 PM 83.6°F28.7°C 56.0°F13.3°C 39% 5.0 mph NW8.0 kmh NW 14.0 mph22.5 kmh 29.72 in1006.4 mb 0.00 in0.0 mm 0.00 in0.0 mm 1.54 in39.1 mm
02:04 PM 83.7°F28.7°C 56.1°F13.4°C 39% 5.0 mph NW8.0 kmh NW 14.0 mph22.5 kmh 29.72 in1006.4 mb 0.00 in0.0 mm 0.00 in0.0 mm 1.54 in39.1 mm
02:05 PM 83.7°F28.7°C 56.1°F13.4°C 39% 4.0 mph NW6.4 kmh NW 14.0 mph22.5 kmh 29.72 in1006.4 mb 0.00 in0.0 mm 0.00 in0.0 mm 1.54 in39.1 mm
02:06 PM 83.7°F28.7°C 56.8°F13.8°C 40% 4.0 mph NW6.4 kmh NW 10.0 mph16.1 kmh 29.72 in1006.4 mb 0.00 in0.0 mm 0.00 in0.0 mm 1.54 in39.1 mm
02:07 PM 83.7°F28.7°C 56.8°F13.8°C 40% 3.0 mph WNW4.8 kmh WNW 10.0 mph16.1 kmh 29.71 in1006.1 mb 0.00 in0.0 mm 0.00 in0.0 mm 1.54 in39.1 mm
02:08 PM 83.8°F28.8°C 56.9°F13.8°C 40% 3.0 mph WNW4.8 kmh WNW 17.0 mph27.4 kmh 29.72 in1006.4 mb 0.00 in0.0 mm 0.00 in0.0 mm 1.54 in39.1 mm
02:09 PM 83.8°F28.8°C 56.9°F13.8°C 40% 3.0 mph WNW4.8 kmh WNW 17.0 mph27.4 kmh 29.72 in1006.4 mb 0.00 in0.0 mm 0.00 in0.0 mm 1.54 in39.1 mm
02:10 PM 83.9°F28.8°C 57.0°F13.9°C 40% 4.0 mph W6.4 kmh W 17.0 mph27.4 kmh 29.72 in1006.4 mb 0.00 in0.0 mm 0.00 in0.0 mm 1.54 in39.1 mm
02:11 PM 84.0°F28.9°C 57.8°F14.3°C 41% 4.0 mph W6.4 kmh W 17.0 mph27.4 kmh 29.72 in1006.4 mb 0.00 in0.0 mm 0.00 in0.0 mm 1.54 in39.1 mm
02:12 PM 84.0°F28.9°C 57.8°F14.3°C 41% 4.0 mph W6.4 kmh W 17.0 mph27.4 kmh 29.72 in1006.4 mb 0.00 in0.0 mm 0.00 in0.0 mm 1.54 in39.1 mm
02:13 PM 84.0°F28.9°C 57.8°F14.3°C 41% 4.0 mph W6.4 kmh W 17.0 mph27.4 kmh 29.72 in1006.4 mb 0.00 in0.0 mm 0.00 in0.0 mm 1.54 in39.1 mm
02:14 PM 84.0°F28.9°C 58.4°F14.7°C 42% 4.0 mph W6.4 kmh W 17.0 mph27.4 kmh 29.72 in1006.4 mb 0.00 in0.0 mm 0.00 in0.0 mm 1.54 in39.1 mm
02:15 PM 84.0°F28.9°C 59.1°F15.1°C 43% 4.0 mph W6.4 kmh W 17.0 mph27.4 kmh 29.71 in1006.1 mb 0.00 in0.0 mm 0.00 in0.0 mm 1.54 in39.1 mm
02:16 PM 84.0°F28.9°C 59.7°F15.4°C 44% 4.0 mph W6.4 kmh W 17.0 mph27.4 kmh 29.72 in1006.4 mb 0.00 in0.0 mm 0.00 in0.0 mm 1.54 in39.1 mm
02:17 PM 84.0°F28.9°C 61.0°F16.1°C 46% 5.0 mph W8.0 kmh W 17.0 mph27.4 kmh 29.72 in1006.4 mb 0.00 in0.0 mm 0.00 in0.0 mm 1.54 in39.1 mm
02:18 PM 83.9°F28.8°C 60.9°F16.1°C 46% 4.0 mph W6.4 kmh W 15.0 mph24.1 kmh 29.72 in1006.4 mb 0.00 in0.0 mm 0.00 in0.0 mm 1.54 in39.1 mm
02:19 PM 83.9°F28.8°C 60.3°F15.7°C 45% 4.0 mph WNW6.4 kmh WNW 15.0 mph24.1 kmh 29.71 in1006.1 mb 0.00 in0.0 mm 0.00 in0.0 mm 1.54 in39.1 mm
02:20 PM 84.0°F28.9°C 61.0°F16.1°C 46% 4.0 mph NW6.4 kmh NW 15.0 mph24.1 kmh 29.71 in1006.1 mb 0.00 in0.0 mm 0.00 in0.0 mm 1.54 in39.1 mm
02:21 PM 84.0°F28.9°C 61.0°F16.1°C 46% 4.0 mph NW6.4 kmh NW 15.0 mph24.1 kmh 29.72 in1006.4 mb 0.00 in0.0 mm 0.00 in0.0 mm 1.54 in39.1 mm
02:22 PM 83.9°F28.8°C 61.5°F16.4°C 47% 5.0 mph NW8.0 kmh NW 15.0 mph24.1 kmh 29.71 in1006.1 mb 0.00 in0.0 mm 0.00 in0.0 mm 1.54 in39.1 mm
02:23 PM 83.9°F28.8°C 62.1°F16.7°C 48% 5.0 mph NW8.0 kmh NW 15.0 mph24.1 kmh 29.71 in1006.1 mb 0.00 in0.0 mm 0.00 in0.0 mm 1.54 in39.1 mm
02:24 PM 83.9°F28.8°C 62.1°F16.7°C 48% 5.0 mph NW8.0 kmh NW 15.0 mph24.1 kmh 29.71 in1006.1 mb 0.00 in0.0 mm 0.00 in0.0 mm 1.54 in39.1 mm
02:25 PM 83.9°F28.8°C 62.1°F16.7°C 48% 5.0 mph NW8.0 kmh NW 10.0 mph16.1 kmh 29.71 in1006.1 mb 0.00 in0.0 mm 0.00 in0.0 mm 1.54 in39.1 mm
02:26 PM 83.8°F28.8°C 62.0°F16.7°C 48% 4.0 mph NW6.4 kmh NW 10.0 mph16.1 kmh 29.71 in1006.1 mb 0.00 in0.0 mm 0.00 in0.0 mm 1.54 in39.1 mm
02:27 PM 83.8°F28.8°C 62.0°F16.7°C 48% 4.0 mph NW6.4 kmh NW 10.0 mph16.1 kmh 29.71 in1006.1 mb 0.00 in0.0 mm 0.00 in0.0 mm 1.54 in39.1 mm
02:28 PM 83.8°F28.8°C 62.0°F16.7°C 48% 5.0 mph NW8.0 kmh NW 10.0 mph16.1 kmh 29.72 in1006.4 mb 0.00 in0.0 mm 0.00 in0.0 mm 1.54 in39.1 mm
02:29 PM 83.7°F28.7°C 61.9°F16.6°C 48% 4.0 mph NW6.4 kmh NW 10.0 mph16.1 kmh 29.71 in1006.1 mb 0.00 in0.0 mm 0.00 in0.0 mm 1.54 in39.1 mm
02:30 PM 83.7°F28.7°C 61.9°F16.6°C 48% 4.0 mph NW6.4 kmh NW 10.0 mph16.1 kmh 29.72 in1006.4 mb 0.00 in0.0 mm 0.00 in0.0 mm 1.54 in39.1 mm
02:31 PM 83.8°F28.8°C 62.0°F16.7°C 48% 4.0 mph NW6.4 kmh NW 10.0 mph16.1 kmh 29.71 in1006.1 mb 0.00 in0.0 mm 0.00 in0.0 mm 1.54 in39.1 mm
02:32 PM 83.8°F28.8°C 61.4°F16.3°C 47% 4.0 mph NW6.4 kmh NW 10.0 mph16.1 kmh 29.71 in1006.1 mb 0.00 in0.0 mm 0.00 in0.0 mm 1.54 in39.1 mm
02:33 PM 83.8°F28.8°C 61.4°F16.3°C 47% 3.0 mph NW4.8 kmh NW 10.0 mph16.1 kmh 29.71 in1006.1 mb 0.00 in0.0 mm 0.00 in0.0 mm 1.54 in39.1 mm
02:34 PM 83.8°F28.8°C 62.0°F16.7°C 48% 4.0 mph NW6.4 kmh NW 10.0 mph16.1 kmh 29.71 in1006.1 mb 0.00 in0.0 mm 0.00 in0.0 mm 1.54 in39.1 mm
02:35 PM 83.8°F28.8°C 62.0°F16.7°C 48% 4.0 mph NW6.4 kmh NW 10.0 mph16.1 kmh 29.71 in1006.1 mb 0.00 in0.0 mm 0.00 in0.0 mm 1.54 in39.1 mm
02:36 PM 83.8°F28.8°C 62.6°F17.0°C 49% 4.0 mph NW6.4 kmh NW 9.0 mph14.5 kmh 29.71 in1006.1 mb 0.00 in0.0 mm 0.00 in0.0 mm 1.54 in39.1 mm
02:37 PM 83.8°F28.8°C 63.7°F17.6°C 51% 4.0 mph NW6.4 kmh NW 9.0 mph14.5 kmh 29.71 in1006.1 mb 0.00 in0.0 mm 0.00 in0.0 mm 1.54 in39.1 mm
02:38 PM 83.9°F28.8°C 62.7°F17.1°C 49% 4.0 mph NW6.4 kmh NW 9.0 mph14.5 kmh 29.71 in1006.1 mb 0.00 in0.0 mm 0.00 in0.0 mm 1.54 in39.1 mm
02:39 PM 83.9°F28.8°C 62.7°F17.1°C 49% 4.0 mph NW6.4 kmh NW 9.0 mph14.5 kmh 29.71 in1006.1 mb 0.00 in0.0 mm 0.00 in0.0 mm 1.54 in39.1 mm
02:40 PM 83.9°F28.8°C 62.1°F16.7°C 48% 4.0 mph NW6.4 kmh NW 9.0 mph14.5 kmh 29.71 in1006.1 mb 0.00 in0.0 mm 0.00 in0.0 mm 1.54 in39.1 mm
02:41 PM 84.0°F28.9°C 61.6°F16.4°C 47% 4.0 mph NW6.4 kmh NW 9.0 mph14.5 kmh 29.71 in1006.1 mb 0.00 in0.0 mm 0.00 in0.0 mm 1.54 in39.1 mm
02:42 PM 84.0°F28.9°C 61.6°F16.4°C 47% 4.0 mph NW6.4 kmh NW 9.0 mph14.5 kmh 29.71 in1006.1 mb 0.00 in0.0 mm 0.00 in0.0 mm 1.54 in39.1 mm
02:43 PM 84.2°F29.0°C 61.2°F16.2°C 46% 4.0 mph NW6.4 kmh NW 9.0 mph14.5 kmh 29.71 in1006.1 mb 0.00 in0.0 mm 0.00 in0.0 mm 1.54 in39.1 mm
02:44 PM 84.2°F29.0°C 61.2°F16.2°C 46% 4.0 mph NW6.4 kmh NW 9.0 mph14.5 kmh 29.71 in1006.1 mb 0.00 in0.0 mm 0.00 in0.0 mm 1.54 in39.1 mm
02:45 PM 84.3°F29.1°C 61.3°F16.3°C 46% 4.0 mph NW6.4 kmh NW 9.0 mph14.5 kmh 29.71 in1006.1 mb 0.00 in0.0 mm 0.00 in0.0 mm 1.54 in39.1 mm
02:46 PM 84.4°F29.1°C 62.0°F16.7°C 47% 4.0 mph NW6.4 kmh NW 9.0 mph14.5 kmh 29.71 in1006.1 mb 0.00 in0.0 mm 0.00 in0.0 mm 1.54 in39.1 mm
02:47 PM 84.4°F29.1°C 62.0°F16.7°C 47% 4.0 mph NW6.4 kmh NW 9.0 mph14.5 kmh 29.71 in1006.1 mb 0.00 in0.0 mm 0.00 in0.0 mm 1.54 in39.1 mm
02:48 PM 84.4°F29.1°C 63.2°F17.3°C 49% 4.0 mph NW6.4 kmh NW 9.0 mph14.5 kmh 29.71 in1006.1 mb 0.00 in0.0 mm 0.00 in0.0 mm 1.54 in39.1 mm
02:49 PM 84.4°F29.1°C 63.2°F17.3°C 49% 4.0 mph NW6.4 kmh NW 9.0 mph14.5 kmh 29.71 in1006.1 mb 0.00 in0.0 mm 0.00 in0.0 mm 1.54 in39.1 mm
02:50 PM 84.5°F29.2°C 63.2°F17.3°C 49% 4.0 mph NW6.4 kmh NW 9.0 mph14.5 kmh 29.71 in1006.1 mb 0.00 in0.0 mm 0.00 in0.0 mm 1.54 in39.1 mm
02:51 PM 84.5°F29.2°C 63.2°F17.3°C 49% 4.0 mph NW6.4 kmh NW 9.0 mph14.5 kmh 29.71 in1006.1 mb 0.00 in0.0 mm 0.00 in0.0 mm 1.54 in39.1 mm
02:52 PM 84.6°F29.2°C 62.7°F17.1°C 48% 4.0 mph NW6.4 kmh NW 9.0 mph14.5 kmh 29.71 in1006.1 mb 0.00 in0.0 mm 0.00 in0.0 mm 1.54 in39.1 mm
02:53 PM 84.6°F29.2°C 62.7°F17.1°C 48% 4.0 mph NW6.4 kmh NW 9.0 mph14.5 kmh 29.71 in1006.1 mb 0.00 in0.0 mm 0.00 in0.0 mm 1.54 in39.1 mm
02:54 PM 84.6°F29.2°C 62.7°F17.1°C 48% 4.0 mph NW6.4 kmh NW 9.0 mph14.5 kmh 29.71 in1006.1 mb 0.00 in0.0 mm 0.00 in0.0 mm 1.54 in39.1 mm
02:55 PM 84.6°F29.2°C 63.3°F17.4°C 49% 4.0 mph NW6.4 kmh NW 7.0 mph11.3 kmh 29.71 in1006.1 mb 0.00 in0.0 mm 0.00 in0.0 mm 1.54 in39.1 mm
02:56 PM 84.7°F29.3°C 63.4°F17.4°C 49% 3.0 mph NW4.8 kmh NW 7.0 mph11.3 kmh 29.71 in1006.1 mb 0.00 in0.0 mm 0.00 in0.0 mm 1.54 in39.1 mm
02:57 PM 84.7°F29.3°C 63.4°F17.4°C 49% 4.0 mph NW6.4 kmh NW 7.0 mph11.3 kmh 29.71 in1006.1 mb 0.00 in0.0 mm 0.00 in0.0 mm 1.54 in39.1 mm
02:58 PM 84.7°F29.3°C 64.0°F17.8°C 50% 4.0 mph WNW6.4 kmh WNW 8.0 mph12.9 kmh 29.71 in1006.1 mb 0.00 in0.0 mm 0.00 in0.0 mm 1.54 in39.1 mm
02:59 PM 84.8°F29.3°C 64.1°F17.8°C 50% 4.0 mph WNW6.4 kmh WNW 8.0 mph12.9 kmh 29.71 in1006.1 mb 0.00 in0.0 mm 0.00 in0.0 mm 1.54 in39.1 mm
03:00 PM 84.7°F29.3°C 64.0°F17.8°C 50% 4.0 mph WNW6.4 kmh WNW 9.0 mph14.5 kmh 29.71 in1006.1 mb 0.00 in0.0 mm 0.00 in0.0 mm 1.54 in39.1 mm
03:01 PM 84.8°F29.3°C 65.8°F18.8°C 53% 4.0 mph WNW6.4 kmh WNW 9.0 mph14.5 kmh 29.71 in1006.1 mb 0.00 in0.0 mm 0.00 in0.0 mm 1.54 in39.1 mm
03:02 PM 84.8°F29.3°C 66.3°F19.1°C 54% 4.0 mph WNW6.4 kmh WNW 9.0 mph14.5 kmh 29.71 in1006.1 mb 0.00 in0.0 mm 0.00 in0.0 mm 1.54 in39.1 mm
03:03 PM 84.8°F29.3°C 65.8°F18.8°C 53% 4.0 mph WNW6.4 kmh WNW 9.0 mph14.5 kmh 29.71 in1006.1 mb 0.00 in0.0 mm 0.00 in0.0 mm 1.54 in39.1 mm
03:04 PM 84.8°F29.3°C 65.2°F18.4°C 52% 4.0 mph WNW6.4 kmh WNW 9.0 mph14.5 kmh 29.71 in1006.1 mb 0.00 in0.0 mm 0.00 in0.0 mm 1.54 in39.1 mm
03:05 PM 84.8°F29.3°C 65.2°F18.4°C 52% 4.0 mph WNW6.4 kmh WNW 9.0 mph14.5 kmh 29.71 in1006.1 mb 0.00 in0.0 mm 0.00 in0.0 mm 1.54 in39.1 mm
03:06 PM 84.9°F29.4°C 65.9°F18.8°C 53% 4.0 mph WNW6.4 kmh WNW 10.0 mph16.1 kmh 29.71 in1006.1 mb 0.00 in0.0 mm 0.00 in0.0 mm 1.54 in39.1 mm
03:07 PM 84.9°F29.4°C 65.3°F18.5°C 52% 4.0 mph WNW6.4 kmh WNW 10.0 mph16.1 kmh 29.71 in1006.1 mb 0.00 in0.0 mm 0.00 in0.0 mm 1.54 in39.1 mm
03:08 PM 84.9°F29.4°C 65.9°F18.8°C 53% 5.0 mph WNW8.0 kmh WNW 10.0 mph16.1 kmh 29.71 in1006.1 mb 0.00 in0.0 mm 0.00 in0.0 mm 1.54 in39.1 mm
03:09 PM 85.0°F29.4°C 66.0°F18.9°C 53% 5.0 mph NW8.0 kmh NW 10.0 mph16.1 kmh 29.71 in1006.1 mb 0.00 in0.0 mm 0.00 in0.0 mm 1.54 in39.1 mm
03:10 PM 85.0°F29.4°C 66.0°F18.9°C 53% 5.0 mph WNW8.0 kmh WNW 10.0 mph16.1 kmh 29.71 in1006.1 mb 0.00 in0.0 mm 0.00 in0.0 mm 1.54 in39.1 mm
03:11 PM 85.1°F29.5°C 66.0°F18.9°C 53% 5.0 mph WNW8.0 kmh WNW 10.0 mph16.1 kmh 29.71 in1006.1 mb 0.00 in0.0 mm 0.00 in0.0 mm 1.54 in39.1 mm
03:12 PM 85.1°F29.5°C 65.5°F18.6°C 52% 4.0 mph WNW6.4 kmh WNW 10.0 mph16.1 kmh 29.71 in1006.1 mb 0.00 in0.0 mm 0.00 in0.0 mm 1.54 in39.1 mm
03:13 PM 85.2°F29.6°C 65.6°F18.7°C 52% 4.0 mph WNW6.4 kmh WNW 10.0 mph16.1 kmh 29.71 in1006.1 mb 0.00 in0.0 mm 0.00 in0.0 mm 1.54 in39.1 mm
03:14 PM 85.3°F29.6°C 65.7°F18.7°C 52% 4.0 mph WNW6.4 kmh WNW 10.0 mph16.1 kmh 29.71 in1006.1 mb 0.00 in0.0 mm 0.00 in0.0 mm 1.54 in39.1 mm
03:15 PM 85.3°F29.6°C 66.8°F19.3°C 54% 4.0 mph WNW6.4 kmh WNW 10.0 mph16.1 kmh 29.71 in1006.1 mb 0.00 in0.0 mm 0.00 in0.0 mm 1.54 in39.1 mm
03:16 PM 85.4°F29.7°C 66.9°F19.4°C 54% 4.0 mph WNW6.4 kmh WNW 10.0 mph16.1 kmh 29.71 in1006.1 mb 0.00 in0.0 mm 0.00 in0.0 mm 1.54 in39.1 mm
03:17 PM 85.4°F29.7°C 66.9°F19.4°C 54% 4.0 mph WNW6.4 kmh WNW 10.0 mph16.1 kmh 29.71 in1006.1 mb 0.00 in0.0 mm 0.00 in0.0 mm 1.54 in39.1 mm
03:18 PM 85.5°F29.7°C 67.0°F19.4°C 54% 4.0 mph WNW6.4 kmh WNW 10.0 mph16.1 kmh 29.71 in1006.1 mb 0.00 in0.0 mm 0.00 in0.0 mm 1.54 in39.1 mm
03:19 PM 85.5°F29.7°C 67.5°F19.7°C 55% 4.0 mph WNW6.4 kmh WNW 11.0 mph17.7 kmh 29.71 in1006.1 mb 0.00 in0.0 mm 0.00 in0.0 mm 1.54 in39.1 mm
03:20 PM 85.5°F29.7°C 68.5°F20.3°C 57% 4.0 mph WNW6.4 kmh WNW 11.0 mph17.7 kmh 29.71 in1006.1 mb 0.00 in0.0 mm 0.00 in0.0 mm 1.54 in39.1 mm
03:21 PM 85.5°F29.7°C 68.0°F20.0°C 56% 4.0 mph WNW6.4 kmh WNW 11.0 mph17.7 kmh 29.71 in1006.1 mb 0.00 in0.0 mm 0.00 in0.0 mm 1.54 in39.1 mm
03:22 PM 85.5°F29.7°C 67.5°F19.7°C 55% 4.0 mph WNW6.4 kmh WNW 11.0 mph17.7 kmh 29.71 in1006.1 mb 0.00 in0.0 mm 0.00 in0.0 mm 1.54 in39.1 mm
03:23 PM 85.5°F29.7°C 67.5°F19.7°C 55% 4.0 mph WNW6.4 kmh WNW 11.0 mph17.7 kmh 29.71 in1006.1 mb 0.00 in0.0 mm 0.00 in0.0 mm 1.54 in39.1 mm
03:24 PM 85.5°F29.7°C 67.5°F19.7°C 55% 4.0 mph WNW6.4 kmh WNW 11.0 mph17.7 kmh 29.71 in1006.1 mb 0.00 in0.0 mm 0.00 in0.0 mm 1.54 in39.1 mm
03:25 PM 85.6°F29.8°C 67.6°F19.8°C 55% 4.0 mph WNW6.4 kmh WNW 11.0 mph17.7 kmh 29.71 in1006.1 mb 0.00 in0.0 mm 0.00 in0.0 mm 1.54 in39.1 mm
03:26 PM 85.5°F29.7°C 67.5°F19.7°C 55% 4.0 mph WNW6.4 kmh WNW 11.0 mph17.7 kmh 29.71 in1006.1 mb 0.00 in0.0 mm 0.00 in0.0 mm 1.54 in39.1 mm
03:27 PM 85.5°F29.7°C 69.0°F20.6°C 58% 4.0 mph NW6.4 kmh NW 11.0 mph17.7 kmh 29.71 in1006.1 mb 0.00 in0.0 mm 0.00 in0.0 mm 1.54 in39.1 mm
03:28 PM 85.4°F29.7°C 68.4°F20.2°C 57% 4.0 mph NW6.4 kmh NW 13.0 mph20.9 kmh 29.71 in1006.1 mb 0.00 in0.0 mm 0.00 in0.0 mm 1.54 in39.1 mm
03:29 PM 85.4°F29.7°C 68.9°F20.5°C 58% 4.0 mph NW6.4 kmh NW 13.0 mph20.9 kmh 29.71 in1006.1 mb 0.00 in0.0 mm 0.00 in0.0 mm 1.54 in39.1 mm
03:30 PM 85.4°F29.7°C 68.4°F20.2°C 57% 4.0 mph NW6.4 kmh NW 13.0 mph20.9 kmh 29.71 in1006.1 mb 0.00 in0.0 mm 0.00 in0.0 mm 1.54 in39.1 mm
03:31 PM 85.3°F29.6°C 68.8°F20.4°C 58% 4.0 mph NW6.4 kmh NW 13.0 mph20.9 kmh 29.71 in1006.1 mb 0.00 in0.0 mm 0.00 in0.0 mm 1.54 in39.1 mm
03:32 PM 85.3°F29.6°C 68.3°F20.2°C 57% 4.0 mph NW6.4 kmh NW 13.0 mph20.9 kmh 29.71 in1006.1 mb 0.00 in0.0 mm 0.00 in0.0 mm 1.54 in39.1 mm
03:33 PM 85.3°F29.6°C 68.3°F20.2°C 57% 4.0 mph NW6.4 kmh NW 13.0 mph20.9 kmh 29.71 in1006.1 mb 0.00 in0.0 mm 0.00 in0.0 mm 1.54 in39.1 mm
03:34 PM 85.3°F29.6°C 68.3°F20.2°C 57% 4.0 mph NW6.4 kmh NW 13.0 mph20.9 kmh 29.71 in1006.1 mb 0.00 in0.0 mm 0.00 in0.0 mm 1.54 in39.1 mm
03:35 PM 85.3°F29.6°C 67.8°F19.9°C 56% 4.0 mph NW6.4 kmh NW 13.0 mph20.9 kmh 29.71 in1006.1 mb 0.00 in0.0 mm 0.00 in0.0 mm 1.54 in39.1 mm
03:36 PM 85.3°F29.6°C 68.3°F20.2°C 57% 4.0 mph NW6.4 kmh NW 13.0 mph20.9 kmh 29.71 in1006.1 mb 0.00 in0.0 mm 0.00 in0.0 mm 1.54 in39.1 mm
03:37 PM 85.3°F29.6°C 68.3°F20.2°C 57% 4.0 mph NW6.4 kmh NW 13.0 mph20.9 kmh 29.71 in1006.1 mb 0.00 in0.0 mm 0.00 in0.0 mm 1.54 in39.1 mm
03:38 PM 85.4°F29.7°C 67.9°F19.9°C 56% 4.0 mph NW6.4 kmh NW 7.0 mph11.3 kmh 29.71 in1006.1 mb 0.00 in0.0 mm 0.00 in0.0 mm 1.54 in39.1 mm
03:39 PM 85.4°F29.7°C 67.9°F19.9°C 56% 3.0 mph NW4.8 kmh NW 10.0 mph16.1 kmh 29.71 in1006.1 mb 0.00 in0.0 mm 0.00 in0.0 mm 1.54 in39.1 mm
03:40 PM 85.4°F29.7°C 68.4°F20.2°C 57% 4.0 mph NW6.4 kmh NW 11.0 mph17.7 kmh 29.70 in1005.8 mb 0.00 in0.0 mm 0.00 in0.0 mm 1.54 in39.1 mm
03:41 PM 85.4°F29.7°C 68.4°F20.2°C 57% 4.0 mph NW6.4 kmh NW 11.0 mph17.7 kmh 29.71 in1006.1 mb 0.00 in0.0 mm 0.00 in0.0 mm 1.54 in39.1 mm
03:42 PM 85.4°F29.7°C 68.9°F20.5°C 58% 4.0 mph NW6.4 kmh NW 11.0 mph17.7 kmh 29.71 in1006.1 mb 0.00 in0.0 mm 0.00 in0.0 mm 1.54 in39.1 mm
03:43 PM 85.5°F29.7°C 68.5°F20.3°C 57% 4.0 mph NW6.4 kmh NW 11.0 mph17.7 kmh 29.71 in1006.1 mb 0.00 in0.0 mm 0.00 in0.0 mm 1.54 in39.1 mm
03:44 PM 85.5°F29.7°C 68.5°F20.3°C 57% 4.0 mph NW6.4 kmh NW 11.0 mph17.7 kmh 29.71 in1006.1 mb 0.00 in0.0 mm 0.00 in0.0 mm 1.54 in39.1 mm
03:45 PM 85.6°F29.8°C 68.1°F20.1°C 56% 4.0 mph NW6.4 kmh NW 11.0 mph17.7 kmh 29.71 in1006.1 mb 0.00 in0.0 mm 0.00 in0.0 mm 1.54 in39.1 mm
03:46 PM 85.7°F29.8°C 68.2°F20.1°C 56% 4.0 mph NW6.4 kmh NW 11.0 mph17.7 kmh 29.71 in1006.1 mb 0.00 in0.0 mm 0.00 in0.0 mm 1.54 in39.1 mm
03:47 PM 85.7°F29.8°C 68.2°F20.1°C 56% 4.0 mph NW6.4 kmh NW 11.0 mph17.7 kmh 29.71 in1006.1 mb 0.00 in0.0 mm 0.00 in0.0 mm 1.54 in39.1 mm
03:48 PM 85.8°F29.9°C 68.3°F20.2°C 56% 4.0 mph NW6.4 kmh NW 11.0 mph17.7 kmh 29.71 in1006.1 mb 0.00 in0.0 mm 0.00 in0.0 mm 1.54 in39.1 mm
03:49 PM 85.9°F29.9°C 68.4°F20.2°C 56% 4.0 mph NW6.4 kmh NW 11.0 mph17.7 kmh 29.71 in1006.1 mb 0.00 in0.0 mm 0.00 in0.0 mm 1.54 in39.1 mm
03:50 PM 86.0°F30.0°C 68.5°F20.3°C 56% 4.0 mph WNW6.4 kmh WNW 10.0 mph16.1 kmh 29.71 in1006.1 mb 0.00 in0.0 mm 0.00 in0.0 mm 1.54 in39.1 mm
03:51 PM 86.0°F30.0°C 68.5°F20.3°C 56% 3.0 mph WNW4.8 kmh WNW 10.0 mph16.1 kmh 29.71 in1006.1 mb 0.00 in0.0 mm 0.00 in0.0 mm 1.54 in39.1 mm
03:52 PM 86.0°F30.0°C 69.0°F20.6°C 57% 3.0 mph W4.8 kmh W 10.0 mph16.1 kmh 29.71 in1006.1 mb 0.00 in0.0 mm 0.00 in0.0 mm 1.54 in39.1 mm
03:53 PM 86.1°F30.1°C 68.6°F20.3°C 56% 3.0 mph W4.8 kmh W 10.0 mph16.1 kmh 29.71 in1006.1 mb 0.00 in0.0 mm 0.00 in0.0 mm 1.54 in39.1 mm
03:54 PM 86.1°F30.1°C 68.6°F20.3°C 56% 3.0 mph WNW4.8 kmh WNW 8.0 mph12.9 kmh 29.71 in1006.1 mb 0.00 in0.0 mm 0.00 in0.0 mm 1.54 in39.1 mm
03:55 PM 86.1°F30.1°C 69.6°F20.9°C 58% 3.0 mph WNW4.8 kmh WNW 8.0 mph12.9 kmh 29.71 in1006.1 mb 0.00 in0.0 mm 0.00 in0.0 mm 1.54 in39.1 mm
03:56 PM 86.1°F30.1°C 69.6°F20.9°C 58% 3.0 mph NW4.8 kmh NW 8.0 mph12.9 kmh 29.71 in1006.1 mb 0.00 in0.0 mm 0.00 in0.0 mm 1.54 in39.1 mm
03:57 PM 86.1°F30.1°C 69.6°F20.9°C 58% 3.0 mph NW4.8 kmh NW 8.0 mph12.9 kmh 29.71 in1006.1 mb 0.00 in0.0 mm 0.00 in0.0 mm 1.54 in39.1 mm
03:58 PM 86.1°F30.1°C 69.6°F20.9°C 58% 3.0 mph NW4.8 kmh NW 8.0 mph12.9 kmh 29.71 in1006.1 mb 0.00 in0.0 mm 0.00 in0.0 mm 1.54 in39.1 mm
03:59 PM 86.1°F30.1°C 70.1°F21.2°C 59% 3.0 mph WNW4.8 kmh WNW 8.0 mph12.9 kmh 29.71 in1006.1 mb 0.00 in0.0 mm 0.00 in0.0 mm 1.54 in39.1 mm
04:00 PM 86.0°F30.0°C 70.0°F21.1°C 59% 3.0 mph WNW4.8 kmh WNW 8.0 mph12.9 kmh 29.71 in1006.1 mb 0.00 in0.0 mm 0.00 in0.0 mm 1.54 in39.1 mm
04:01 PM 86.0°F30.0°C 70.5°F21.4°C 60% 3.0 mph NW4.8 kmh NW 8.0 mph12.9 kmh 29.71 in1006.1 mb 0.00 in0.0 mm 0.00 in0.0 mm 1.54 in39.1 mm
04:02 PM 86.0°F30.0°C 70.0°F21.1°C 59% 3.0 mph WNW4.8 kmh WNW 8.0 mph12.9 kmh 29.71 in1006.1 mb 0.00 in0.0 mm 0.00 in0.0 mm 1.54 in39.1 mm
04:03 PM 86.0°F30.0°C 70.0°F21.1°C 59% 3.0 mph WNW4.8 kmh WNW 8.0 mph12.9 kmh 29.71 in1006.1 mb 0.00 in0.0 mm 0.00 in0.0 mm 1.54 in39.1 mm
04:04 PM 86.0°F30.0°C 70.0°F21.1°C 59% 4.0 mph WNW6.4 kmh WNW 8.0 mph12.9 kmh 29.71 in1006.1 mb 0.00 in0.0 mm 0.00 in0.0 mm 1.54 in39.1 mm
04:05 PM 86.1°F30.1°C 69.6°F20.9°C 58% 3.0 mph W4.8 kmh W 8.0 mph12.9 kmh 29.71 in1006.1 mb 0.00 in0.0 mm 0.00 in0.0 mm 1.54 in39.1 mm
04:06 PM 86.1°F30.1°C 69.6°F20.9°C 58% 3.0 mph W4.8 kmh W 8.0 mph12.9 kmh 29.71 in1006.1 mb 0.00 in0.0 mm 0.00 in0.0 mm 1.54 in39.1 mm
04:07 PM 86.2°F30.1°C 69.7°F20.9°C 58% 3.0 mph W4.8 kmh W 8.0 mph12.9 kmh 29.71 in1006.1 mb 0.00 in0.0 mm 0.00 in0.0 mm 1.54 in39.1 mm
04:08 PM 86.2°F30.1°C 69.7°F20.9°C 58% 3.0 mph W4.8 kmh W 8.0 mph12.9 kmh 29.71 in1006.1 mb 0.00 in0.0 mm 0.00 in0.0 mm 1.54 in39.1 mm
04:09 PM 86.3°F30.2°C 69.8°F21.0°C 58% 3.0 mph W4.8 kmh W 8.0 mph12.9 kmh 29.71 in1006.1 mb 0.00 in0.0 mm 0.00 in0.0 mm 1.54 in39.1 mm
04:10 PM 86.3°F30.2°C 69.8°F21.0°C 58% 3.0 mph WSW4.8 kmh WSW 8.0 mph12.9 kmh 29.71 in1006.1 mb 0.00 in0.0 mm 0.00 in0.0 mm 1.54 in39.1 mm
04:11 PM 86.4°F30.2°C 69.9°F21.1°C 58% 3.0 mph WSW4.8 kmh WSW 8.0 mph12.9 kmh 29.71 in1006.1 mb 0.00 in0.0 mm 0.00 in0.0 mm 1.54 in39.1 mm
04:12 PM 86.4°F30.2°C 69.9°F21.1°C 58% 3.0 mph WSW4.8 kmh WSW 8.0 mph12.9 kmh 29.71 in1006.1 mb 0.00 in0.0 mm 0.00 in0.0 mm 1.54 in39.1 mm
04:13 PM 86.4°F30.2°C 69.9°F21.1°C 58% 3.0 mph WSW4.8 kmh WSW 8.0 mph12.9 kmh 29.71 in1006.1 mb 0.00 in0.0 mm 0.00 in0.0 mm 1.54 in39.1 mm
04:14 PM 86.4°F30.2°C 70.4°F21.3°C 59% 3.0 mph WSW4.8 kmh WSW 8.0 mph12.9 kmh 29.71 in1006.1 mb 0.00 in0.0 mm 0.00 in0.0 mm 1.54 in39.1 mm
04:15 PM 86.4°F30.2°C 70.4°F21.3°C 59% 3.0 mph WSW4.8 kmh WSW 8.0 mph12.9 kmh 29.71 in1006.1 mb 0.00 in0.0 mm 0.00 in0.0 mm 1.54 in39.1 mm
04:16 PM 86.4°F30.2°C 70.4°F21.3°C 59% 3.0 mph WSW4.8 kmh WSW 7.0 mph11.3 kmh 29.71 in1006.1 mb 0.00 in0.0 mm 0.00 in0.0 mm 1.54 in39.1 mm
04:17 PM 86.4°F30.2°C 70.4°F21.3°C 59% 3.0 mph WSW4.8 kmh WSW 7.0 mph11.3 kmh 29.71 in1006.1 mb 0.00 in0.0 mm 0.00 in0.0 mm 1.54 in39.1 mm
04:18 PM 86.4°F30.2°C 70.4°F21.3°C 59% 3.0 mph W4.8 kmh W 7.0 mph11.3 kmh 29.71 in1006.1 mb 0.00 in0.0 mm 0.00 in0.0 mm 1.54 in39.1 mm
04:19 PM 86.4°F30.2°C 70.9°F21.6°C 60% 3.0 mph W4.8 kmh W 7.0 mph11.3 kmh 29.71 in1006.1 mb 0.00 in0.0 mm 0.00 in0.0 mm 1.54 in39.1 mm
04:20 PM 86.4°F30.2°C 70.9°F21.6°C 60% 3.0 mph W4.8 kmh W 7.0 mph11.3 kmh 29.71 in1006.1 mb 0.00 in0.0 mm 0.00 in0.0 mm 1.54 in39.1 mm
04:21 PM 86.4°F30.2°C 70.9°F21.6°C 60% 3.0 mph W4.8 kmh W 9.0 mph14.5 kmh 29.71 in1006.1 mb 0.00 in0.0 mm 0.00 in0.0 mm 1.54 in39.1 mm
04:23 PM 86.4°F30.2°C 70.9°F21.6°C 60% 3.0 mph W4.8 kmh W 9.0 mph14.5 kmh 29.71 in1006.1 mb 0.00 in0.0 mm 0.00 in0.0 mm 1.54 in39.1 mm
04:24 PM 86.4°F30.2°C 70.9°F21.6°C 60% 3.0 mph W4.8 kmh W 9.0 mph14.5 kmh 29.71 in1006.1 mb 0.00 in0.0 mm 0.00 in0.0 mm 1.54 in39.1 mm
04:25 PM 86.4°F30.2°C 70.9°F21.6°C 60% 3.0 mph W4.8 kmh W 9.0 mph14.5 kmh 29.71 in1006.1 mb 0.00 in0.0 mm 0.00 in0.0 mm 1.54 in39.1 mm
04:26 PM 86.4°F30.2°C 70.9°F21.6°C 60% 3.0 mph W4.8 kmh W 9.0 mph14.5 kmh 29.71 in1006.1 mb 0.00 in0.0 mm 0.00 in0.0 mm 1.54 in39.1 mm
04:27 PM 86.4°F30.2°C 70.9°F21.6°C 60% 3.0 mph W4.8 kmh W 9.0 mph14.5 kmh 29.71 in1006.1 mb 0.00 in0.0 mm 0.00 in0.0 mm 1.54 in39.1 mm
04:28 PM 86.5°F30.3°C 71.0°F21.7°C 60% 3.0 mph W4.8 kmh W 9.0 mph14.5 kmh 29.71 in1006.1 mb 0.00 in0.0 mm 0.00 in0.0 mm 1.54 in39.1 mm
04:29 PM 86.5°F30.3°C 71.0°F21.7°C 60% 3.0 mph W4.8 kmh W 9.0 mph14.5 kmh 29.71 in1006.1 mb 0.00 in0.0 mm 0.00 in0.0 mm 1.54 in39.1 mm
04:30 PM 86.5°F30.3°C 71.0°F21.7°C 60% 3.0 mph W4.8 kmh W 9.0 mph14.5 kmh 29.71 in1006.1 mb 0.00 in0.0 mm 0.00 in0.0 mm 1.54 in39.1 mm
04:31 PM 86.5°F30.3°C 71.0°F21.7°C 60% 3.0 mph W4.8 kmh W 8.0 mph12.9 kmh 29.71 in1006.1 mb 0.00 in0.0 mm 0.00 in0.0 mm 1.54 in39.1 mm
04:32 PM 86.6°F30.3°C 71.1°F21.7°C 60% 2.0 mph W3.2 kmh W 8.0 mph12.9 kmh 29.71 in1006.1 mb 0.00 in0.0 mm 0.00 in0.0 mm 1.54 in39.1 mm
04:33 PM 86.6°F30.3°C 71.1°F21.7°C 60% 3.0 mph WNW4.8 kmh WNW 7.0 mph11.3 kmh 29.71 in1006.1 mb 0.00 in0.0 mm 0.00 in0.0 mm 1.54 in39.1 mm
04:34 PM 86.6°F30.3°C 71.1°F21.7°C 60% 2.0 mph WNW3.2 kmh WNW 7.0 mph11.3 kmh 29.71 in1006.1 mb 0.00 in0.0 mm 0.00 in0.0 mm 1.54 in39.1 mm
04:35 PM 86.7°F30.4°C 71.2°F21.8°C 60% 2.0 mph NW3.2 kmh NW 7.0 mph11.3 kmh 29.71 in1006.1 mb 0.00 in0.0 mm 0.00 in0.0 mm 1.54 in39.1 mm
04:36 PM 86.7°F30.4°C 71.2°F21.8°C 60% 2.0 mph NW3.2 kmh NW 7.0 mph11.3 kmh 29.71 in1006.1 mb 0.00 in0.0 mm 0.00 in0.0 mm 1.54 in39.1 mm
04:37 PM 86.7°F30.4°C 71.2°F21.8°C 60% 2.0 mph NW3.2 kmh NW 7.0 mph11.3 kmh 29.72 in1006.4 mb 0.00 in0.0 mm 0.00 in0.0 mm 1.54 in39.1 mm
04:38 PM 86.6°F30.3°C 71.5°F21.9°C 61% 2.0 mph NW3.2 kmh NW 7.0 mph11.3 kmh 29.72 in1006.4 mb 0.00 in0.0 mm 0.00 in0.0 mm 1.54 in39.1 mm
04:39 PM 86.7°F30.4°C 71.6°F22.0°C 61% 2.0 mph NW3.2 kmh NW 7.0 mph11.3 kmh 29.72 in1006.4 mb 0.00 in0.0 mm 0.00 in0.0 mm 1.54 in39.1 mm
04:40 PM 86.6°F30.3°C 71.5°F21.9°C 61% 2.0 mph NW3.2 kmh NW 7.0 mph11.3 kmh 29.72 in1006.4 mb 0.00 in0.0 mm 0.00 in0.0 mm 1.54 in39.1 mm
04:41 PM 86.6°F30.3°C 71.5°F21.9°C 61% 2.0 mph NW3.2 kmh NW 7.0 mph11.3 kmh 29.72 in1006.4 mb 0.00 in0.0 mm 0.00 in0.0 mm 1.54 in39.1 mm
04:42 PM 86.6°F30.3°C 71.5°F21.9°C 61% 2.0 mph NW3.2 kmh NW 6.0 mph9.7 kmh 29.72 in1006.4 mb 0.00 in0.0 mm 0.00 in0.0 mm 1.54 in39.1 mm
04:44 PM 86.6°F30.3°C 72.0°F22.2°C 62% 2.0 mph NW3.2 kmh NW 9.0 mph14.5 kmh 29.72 in1006.4 mb 0.00 in0.0 mm 0.00 in0.0 mm 1.54 in39.1 mm
04:45 PM 86.6°F30.3°C 72.0°F22.2°C 62% 2.0 mph NW3.2 kmh NW 9.0 mph14.5 kmh 29.71 in1006.1 mb 0.00 in0.0 mm 0.00 in0.0 mm 1.54 in39.1 mm
04:46 PM 86.6°F30.3°C 71.5°F21.9°C 61% 2.0 mph NW3.2 kmh NW 9.0 mph14.5 kmh 29.72 in1006.4 mb 0.00 in0.0 mm 0.00 in0.0 mm 1.54 in39.1 mm
04:47 PM 86.5°F30.3°C 71.9°F22.2°C 62% 3.0 mph NW4.8 kmh NW 9.0 mph14.5 kmh 29.71 in1006.1 mb 0.00 in0.0 mm 0.00 in0.0 mm 1.54 in39.1 mm
04:48 PM 86.5°F30.3°C 71.9°F22.2°C 62% 3.0 mph NW4.8 kmh NW 9.0 mph14.5 kmh 29.72 in1006.4 mb 0.00 in0.0 mm 0.00 in0.0 mm 1.54 in39.1 mm
04:49 PM 86.4°F30.2°C 71.8°F22.1°C 62% 3.0 mph NW4.8 kmh NW 9.0 mph14.5 kmh 29.72 in1006.4 mb 0.00 in0.0 mm 0.00 in0.0 mm 1.54 in39.1 mm
04:50 PM 86.4°F30.2°C 71.8°F22.1°C 62% 4.0 mph NW6.4 kmh NW 9.0 mph14.5 kmh 29.72 in1006.4 mb 0.00 in0.0 mm 0.00 in0.0 mm 1.54 in39.1 mm
04:51 PM 86.3°F30.2°C 71.7°F22.1°C 62% 4.0 mph NW6.4 kmh NW 9.0 mph14.5 kmh 29.72 in1006.4 mb 0.00 in0.0 mm 0.00 in0.0 mm 1.54 in39.1 mm
04:52 PM 86.3°F30.2°C 71.7°F22.1°C 62% 4.0 mph NW6.4 kmh NW 9.0 mph14.5 kmh 29.72 in1006.4 mb 0.00 in0.0 mm 0.00 in0.0 mm 1.54 in39.1 mm
04:53 PM 86.3°F30.2°C 71.7°F22.1°C 62% 4.0 mph NW6.4 kmh NW 9.0 mph14.5 kmh 29.72 in1006.4 mb 0.00 in0.0 mm 0.00 in0.0 mm 1.54 in39.1 mm
04:54 PM 86.2°F30.1°C 71.2°F21.8°C 61% 4.0 mph NW6.4 kmh NW 8.0 mph12.9 kmh 29.71 in1006.1 mb 0.00 in0.0 mm 0.00 in0.0 mm 1.54 in39.1 mm
04:55 PM 86.2°F30.1°C 71.6°F22.0°C 62% 4.0 mph NW6.4 kmh NW 8.0 mph12.9 kmh 29.72 in1006.4 mb 0.00 in0.0 mm 0.00 in0.0 mm 1.54 in39.1 mm
04:56 PM 86.1°F30.1°C 71.6°F22.0°C 62% 4.0 mph NW6.4 kmh NW 8.0 mph12.9 kmh 29.71 in1006.1 mb 0.00 in0.0 mm 0.00 in0.0 mm 1.54 in39.1 mm
04:57 PM 86.1°F30.1°C 71.6°F22.0°C 62% 4.0 mph NW6.4 kmh NW 8.0 mph12.9 kmh 29.71 in1006.1 mb 0.00 in0.0 mm 0.00 in0.0 mm 1.54 in39.1 mm
04:58 PM 86.1°F30.1°C 71.6°F22.0°C 62% 4.0 mph NW6.4 kmh NW 8.0 mph12.9 kmh 29.72 in1006.4 mb 0.00 in0.0 mm 0.00 in0.0 mm 1.54 in39.1 mm
04:59 PM 86.1°F30.1°C 71.6°F22.0°C 62% 4.0 mph NW6.4 kmh NW 8.0 mph12.9 kmh 29.72 in1006.4 mb 0.00 in0.0 mm 0.00 in0.0 mm 1.54 in39.1 mm
05:00 PM 86.1°F30.1°C 71.6°F22.0°C 62% 3.0 mph NW4.8 kmh NW 8.0 mph12.9 kmh 29.72 in1006.4 mb 0.00 in0.0 mm 0.00 in0.0 mm 1.54 in39.1 mm
05:01 PM 86.0°F30.0°C 71.5°F21.9°C 62% 4.0 mph NW6.4 kmh NW 10.0 mph16.1 kmh 29.72 in1006.4 mb 0.00 in0.0 mm 0.00 in0.0 mm 1.54 in39.1 mm
05:02 PM 86.0°F30.0°C 71.5°F21.9°C 62% 4.0 mph NW6.4 kmh NW 10.0 mph16.1 kmh 29.72 in1006.4 mb 0.00 in0.0 mm 0.00 in0.0 mm 1.54 in39.1 mm
05:03 PM 86.0°F30.0°C 71.5°F21.9°C 62% 3.0 mph NW4.8 kmh NW 10.0 mph16.1 kmh 29.72 in1006.4 mb 0.00 in0.0 mm 0.00 in0.0 mm 1.54 in39.1 mm
05:04 PM 86.0°F30.0°C 71.5°F21.9°C 62% 3.0 mph NW4.8 kmh NW 10.0 mph16.1 kmh 29.72 in1006.4 mb 0.00 in0.0 mm 0.00 in0.0 mm 1.54 in39.1 mm
05:05 PM 86.1°F30.1°C 71.6°F22.0°C 62% 3.0 mph NW4.8 kmh NW 10.0 mph16.1 kmh 29.72 in1006.4 mb 0.00 in0.0 mm 0.00 in0.0 mm 1.54 in39.1 mm
05:06 PM 86.1°F30.1°C 71.6°F22.0°C 62% 3.0 mph NW4.8 kmh NW 10.0 mph16.1 kmh 29.72 in1006.4 mb 0.00 in0.0 mm 0.00 in0.0 mm 1.54 in39.1 mm
05:07 PM 86.1°F30.1°C 71.6°F22.0°C 62% 2.0 mph WNW3.2 kmh WNW 10.0 mph16.1 kmh 29.72 in1006.4 mb 0.00 in0.0 mm 0.00 in0.0 mm 1.54 in39.1 mm
05:08 PM 86.1°F30.1°C 71.6°F22.0°C 62% 2.0 mph W3.2 kmh W 10.0 mph16.1 kmh 29.72 in1006.4 mb 0.00 in0.0 mm 0.00 in0.0 mm 1.54 in39.1 mm
05:09 PM 86.2°F30.1°C 71.6°F22.0°C 62% 2.0 mph W3.2 kmh W 10.0 mph16.1 kmh 29.72 in1006.4 mb 0.00 in0.0 mm 0.00 in0.0 mm 1.54 in39.1 mm
05:10 PM 86.2°F30.1°C 71.6°F22.0°C 62% 2.0 mph WSW3.2 kmh WSW 10.0 mph16.1 kmh 29.72 in1006.4 mb 0.00 in0.0 mm 0.00 in0.0 mm 1.54 in39.1 mm
05:11 PM 86.2°F30.1°C 71.6°F22.0°C 62% 2.0 mph WSW3.2 kmh WSW 7.0 mph11.3 kmh 29.72 in1006.4 mb 0.00 in0.0 mm 0.00 in0.0 mm 1.54 in39.1 mm
05:12 PM 86.2°F30.1°C 71.6°F22.0°C 62% 2.0 mph WSW3.2 kmh WSW 7.0 mph11.3 kmh 29.72 in1006.4 mb 0.00 in0.0 mm 0.00 in0.0 mm 1.54 in39.1 mm
05:13 PM 86.2°F30.1°C 71.6°F22.0°C 62% 3.0 mph WSW4.8 kmh WSW 7.0 mph11.3 kmh 29.72 in1006.4 mb 0.00 in0.0 mm 0.00 in0.0 mm 1.54 in39.1 mm
05:14 PM 86.2°F30.1°C 71.6°F22.0°C 62% 3.0 mph WSW4.8 kmh WSW 7.0 mph11.3 kmh 29.72 in1006.4 mb 0.00 in0.0 mm 0.00 in0.0 mm 1.54 in39.1 mm
05:15 PM 86.2°F30.1°C 71.6°F22.0°C 62% 3.0 mph WSW4.8 kmh WSW 7.0 mph11.3 kmh 29.72 in1006.4 mb 0.00 in0.0 mm 0.00 in0.0 mm 1.54 in39.1 mm
05:16 PM 86.2°F30.1°C 71.6°F22.0°C 62% 3.0 mph WSW4.8 kmh WSW 9.0 mph14.5 kmh 29.72 in1006.4 mb 0.00 in0.0 mm 0.00 in0.0 mm 1.54 in39.1 mm
05:17 PM 86.1°F30.1°C 71.6°F22.0°C 62% 3.0 mph WSW4.8 kmh WSW 9.0 mph14.5 kmh 29.72 in1006.4 mb 0.00 in0.0 mm 0.00 in0.0 mm 1.54 in39.1 mm
05:18 PM 86.1°F30.1°C 71.6°F22.0°C 62% 3.0 mph WSW4.8 kmh WSW 9.0 mph14.5 kmh 29.72 in1006.4 mb 0.00 in0.0 mm 0.00 in0.0 mm 1.54 in39.1 mm
05:19 PM 86.1°F30.1°C 71.6°F22.0°C 62% 3.0 mph WSW4.8 kmh WSW 9.0 mph14.5 kmh 29.72 in1006.4 mb 0.00 in0.0 mm 0.00 in0.0 mm 1.54 in39.1 mm
05:20 PM 86.1°F30.1°C 71.6°F22.0°C 62% 3.0 mph WSW4.8 kmh WSW 9.0 mph14.5 kmh 29.72 in1006.4 mb 0.00 in0.0 mm 0.00 in0.0 mm 1.54 in39.1 mm
05:21 PM 86.1°F30.1°C 71.6°F22.0°C 62% 3.0 mph WSW4.8 kmh WSW 20.0 mph32.2 kmh 29.72 in1006.4 mb 0.00 in0.0 mm 0.00 in0.0 mm 1.54 in39.1 mm
05:22 PM 86.0°F30.0°C 71.5°F21.9°C 62% 4.0 mph WSW6.4 kmh WSW 20.0 mph32.2 kmh 29.72 in1006.4 mb 0.00 in0.0 mm 0.00 in0.0 mm 1.54 in39.1 mm
05:23 PM 86.0°F30.0°C 71.5°F21.9°C 62% 4.0 mph WSW6.4 kmh WSW 20.0 mph32.2 kmh 29.73 in1006.8 mb 0.00 in0.0 mm 0.00 in0.0 mm 1.54 in39.1 mm
05:24 PM 85.9°F29.9°C 71.4°F21.9°C 62% 4.0 mph WSW6.4 kmh WSW 20.0 mph32.2 kmh 29.72 in1006.4 mb 0.00 in0.0 mm 0.00 in0.0 mm 1.54 in39.1 mm
05:25 PM 85.9°F29.9°C 71.4°F21.9°C 62% 4.0 mph WSW6.4 kmh WSW 20.0 mph32.2 kmh 29.72 in1006.4 mb 0.00 in0.0 mm 0.00 in0.0 mm 1.54 in39.1 mm
05:26 PM 85.8°F29.9°C 71.7°F22.1°C 63% 4.0 mph WSW6.4 kmh WSW 20.0 mph32.2 kmh 29.72 in1006.4 mb 0.00 in0.0 mm 0.00 in0.0 mm 1.54 in39.1 mm
05:27 PM 85.8°F29.9°C 71.3°F21.8°C 62% 4.0 mph W6.4 kmh W 20.0 mph32.2 kmh 29.72 in1006.4 mb 0.00 in0.0 mm 0.00 in0.0 mm 1.54 in39.1 mm
05:28 PM 85.7°F29.8°C 71.7°F22.1°C 63% 4.0 mph W6.4 kmh W 20.0 mph32.2 kmh 29.73 in1006.8 mb 0.00 in0.0 mm 0.00 in0.0 mm 1.54 in39.1 mm
05:29 PM 85.6°F29.8°C 71.6°F22.0°C 63% 4.0 mph W6.4 kmh W 20.0 mph32.2 kmh 29.72 in1006.4 mb 0.00 in0.0 mm 0.00 in0.0 mm 1.54 in39.1 mm
05:30 PM 85.6°F29.8°C 71.6°F22.0°C 63% 4.0 mph W6.4 kmh W 20.0 mph32.2 kmh 29.73 in1006.8 mb 0.00 in0.0 mm 0.00 in0.0 mm 1.54 in39.1 mm
05:31 PM 85.5°F29.7°C 71.5°F21.9°C 63% 4.0 mph W6.4 kmh W 13.0 mph20.9 kmh 29.73 in1006.8 mb 0.00 in0.0 mm 0.00 in0.0 mm 1.54 in39.1 mm
05:32 PM 85.5°F29.7°C 71.5°F21.9°C 63% 4.0 mph WNW6.4 kmh WNW 13.0 mph20.9 kmh 29.72 in1006.4 mb 0.00 in0.0 mm 0.00 in0.0 mm 1.54 in39.1 mm
05:33 PM 85.4°F29.7°C 71.4°F21.9°C 63% 4.0 mph WNW6.4 kmh WNW 13.0 mph20.9 kmh 29.73 in1006.8 mb 0.00 in0.0 mm 0.00 in0.0 mm 1.54 in39.1 mm
05:34 PM 85.3°F29.6°C 70.8°F21.6°C 62% 4.0 mph WNW6.4 kmh WNW 13.0 mph20.9 kmh 29.73 in1006.8 mb 0.00 in0.0 mm 0.00 in0.0 mm 1.54 in39.1 mm
05:35 PM 85.2°F29.6°C 71.2°F21.8°C 63% 4.0 mph WNW6.4 kmh WNW 13.0 mph20.9 kmh 29.73 in1006.8 mb 0.00 in0.0 mm 0.00 in0.0 mm 1.54 in39.1 mm
05:36 PM 85.1°F29.5°C 71.1°F21.7°C 63% 3.0 mph NW4.8 kmh NW 9.0 mph14.5 kmh 29.73 in1006.8 mb 0.00 in0.0 mm 0.00 in0.0 mm 1.54 in39.1 mm
05:37 PM 85.1°F29.5°C 71.1°F21.7°C 63% 3.0 mph WNW4.8 kmh WNW 9.0 mph14.5 kmh 29.73 in1006.8 mb 0.00 in0.0 mm 0.00 in0.0 mm 1.54 in39.1 mm
05:38 PM 85.0°F29.4°C 71.0°F21.7°C 63% 3.0 mph WNW4.8 kmh WNW 9.0 mph14.5 kmh 29.73 in1006.8 mb 0.00 in0.0 mm 0.00 in0.0 mm 1.54 in39.1 mm
05:39 PM 84.9°F29.4°C 70.9°F21.6°C 63% 3.0 mph WNW4.8 kmh WNW 9.0 mph14.5 kmh 29.73 in1006.8 mb 0.00 in0.0 mm 0.00 in0.0 mm 1.54 in39.1 mm
05:40 PM 84.9°F29.4°C 70.4°F21.3°C 62% 2.0 mph WNW3.2 kmh WNW 9.0 mph14.5 kmh 29.73 in1006.8 mb 0.00 in0.0 mm 0.00 in0.0 mm 1.54 in39.1 mm
05:41 PM 84.8°F29.3°C 70.8°F21.6°C 63% 2.0 mph WNW3.2 kmh WNW 9.0 mph14.5 kmh 29.73 in1006.8 mb 0.00 in0.0 mm 0.00 in0.0 mm 1.54 in39.1 mm
05:42 PM 84.8°F29.3°C 70.8°F21.6°C 63% 2.0 mph WNW3.2 kmh WNW 9.0 mph14.5 kmh 29.73 in1006.8 mb 0.00 in0.0 mm 0.00 in0.0 mm 1.54 in39.1 mm
05:43 PM 84.7°F29.3°C 70.2°F21.2°C 62% 2.0 mph W3.2 kmh W 6.0 mph9.7 kmh 29.73 in1006.8 mb 0.00 in0.0 mm 0.00 in0.0 mm 1.54 in39.1 mm
05:44 PM 84.7°F29.3°C 70.7°F21.5°C 63% 2.0 mph W3.2 kmh W 6.0 mph9.7 kmh 29.73 in1006.8 mb 0.00 in0.0 mm 0.00 in0.0 mm 1.54 in39.1 mm
05:45 PM 84.6°F29.2°C 70.6°F21.4°C 63% 2.0 mph W3.2 kmh W 6.0 mph9.7 kmh 29.73 in1006.8 mb 0.00 in0.0 mm 0.00 in0.0 mm 1.54 in39.1 mm
05:46 PM 84.6°F29.2°C 70.6°F21.4°C 63% 2.0 mph W3.2 kmh W 6.0 mph9.7 kmh 29.73 in1006.8 mb 0.00 in0.0 mm 0.00 in0.0 mm 1.54 in39.1 mm
05:47 PM 84.5°F29.2°C 70.5°F21.4°C 63% 2.0 mph W3.2 kmh W 6.0 mph9.7 kmh 29.73 in1006.8 mb 0.00 in0.0 mm 0.00 in0.0 mm 1.54 in39.1 mm
05:48 PM 84.5°F29.2°C 70.5°F21.4°C 63% 2.0 mph WNW3.2 kmh WNW 7.0 mph11.3 kmh 29.73 in1006.8 mb 0.00 in0.0 mm 0.00 in0.0 mm 1.54 in39.1 mm
05:49 PM 84.4°F29.1°C 70.4°F21.3°C 63% 2.0 mph WNW3.2 kmh WNW 7.0 mph11.3 kmh 29.73 in1006.8 mb 0.00 in0.0 mm 0.00 in0.0 mm 1.54 in39.1 mm
05:50 PM 84.3°F29.1°C 70.3°F21.3°C 63% 3.0 mph NW4.8 kmh NW 7.0 mph11.3 kmh 29.73 in1006.8 mb 0.00 in0.0 mm 0.00 in0.0 mm 1.54 in39.1 mm
05:51 PM 84.3°F29.1°C 70.3°F21.3°C 63% 3.0 mph NW4.8 kmh NW 7.0 mph11.3 kmh 29.73 in1006.8 mb 0.00 in0.0 mm 0.00 in0.0 mm 1.54 in39.1 mm
05:52 PM 84.2°F29.0°C 70.2°F21.2°C 63% 3.0 mph NW4.8 kmh NW 7.0 mph11.3 kmh 29.73 in1006.8 mb 0.00 in0.0 mm 0.00 in0.0 mm 1.54 in39.1 mm
05:53 PM 84.1°F28.9°C 70.1°F21.2°C 63% 3.0 mph NW4.8 kmh NW 7.0 mph11.3 kmh 29.73 in1006.8 mb 0.00 in0.0 mm 0.00 in0.0 mm 1.54 in39.1 mm
05:54 PM 84.1°F28.9°C 69.7°F20.9°C 62% 2.0 mph NW3.2 kmh NW 7.0 mph11.3 kmh 29.73 in1006.8 mb 0.00 in0.0 mm 0.00 in0.0 mm 1.54 in39.1 mm
05:55 PM 84.0°F28.9°C 70.0°F21.1°C 63% 2.0 mph NW3.2 kmh NW 7.0 mph11.3 kmh 29.73 in1006.8 mb 0.00 in0.0 mm 0.00 in0.0 mm 1.54 in39.1 mm
05:57 PM 83.9°F28.8°C 70.0°F21.1°C 63% 2.0 mph NW3.2 kmh NW 7.0 mph11.3 kmh 29.73 in1006.8 mb 0.00 in0.0 mm 0.00 in0.0 mm 1.54 in39.1 mm
05:58 PM 83.9°F28.8°C 68.5°F20.3°C 60% 2.0 mph NW3.2 kmh NW 6.0 mph9.7 kmh 29.73 in1006.8 mb 0.00 in0.0 mm 0.00 in0.0 mm 1.54 in39.1 mm
05:59 PM 83.8°F28.8°C 69.9°F21.1°C 63% 2.0 mph NW3.2 kmh NW 5.0 mph8.0 kmh 29.73 in1006.8 mb 0.00 in0.0 mm 0.00 in0.0 mm 1.54 in39.1 mm
06:00 PM 83.8°F28.8°C 69.9°F21.1°C 63% 1.0 mph NW1.6 kmh NW 5.0 mph8.0 kmh 29.73 in1006.8 mb 0.00 in0.0 mm 0.00 in0.0 mm 1.54 in39.1 mm
06:01 PM 83.7°F28.7°C 69.8°F21.0°C 63% 1.0 mph NW1.6 kmh NW 5.0 mph8.0 kmh 29.73 in1006.8 mb 0.00 in0.0 mm 0.00 in0.0 mm 1.54 in39.1 mm
06:02 PM 83.7°F28.7°C 69.8°F21.0°C 63% 1.0 mph NW1.6 kmh NW 5.0 mph8.0 kmh 29.73 in1006.8 mb 0.00 in0.0 mm 0.00 in0.0 mm 1.54 in39.1 mm
06:03 PM 83.7°F28.7°C 69.8°F21.0°C 63% 1.0 mph NW1.6 kmh NW 5.0 mph8.0 kmh 29.74 in1007.1 mb 0.00 in0.0 mm 0.00 in0.0 mm 1.54 in39.1 mm
06:04 PM 83.6°F28.7°C 69.7°F20.9°C 63% 1.0 mph NW1.6 kmh NW 5.0 mph8.0 kmh 29.73 in1006.8 mb 0.00 in0.0 mm 0.00 in0.0 mm 1.54 in39.1 mm
06:05 PM 83.6°F28.7°C 69.2°F20.7°C 62% 1.0 mph NW1.6 kmh NW 5.0 mph8.0 kmh 29.74 in1007.1 mb 0.00 in0.0 mm 0.00 in0.0 mm 1.54 in39.1 mm
06:06 PM 83.5°F28.6°C 69.6°F20.9°C 63% 1.0 mph NW1.6 kmh NW 5.0 mph8.0 kmh 29.74 in1007.1 mb 0.00 in0.0 mm 0.00 in0.0 mm 1.54 in39.1 mm
06:07 PM 83.5°F28.6°C 69.6°F20.9°C 63% 1.0 mph NW1.6 kmh NW 5.0 mph8.0 kmh 29.74 in1007.1 mb 0.00 in0.0 mm 0.00 in0.0 mm 1.54 in39.1 mm
06:08 PM 83.4°F28.6°C 69.5°F20.8°C 63% 1.0 mph NW1.6 kmh NW 5.0 mph8.0 kmh 29.74 in1007.1 mb 0.00 in0.0 mm 0.00 in0.0 mm 1.54 in39.1 mm
06:09 PM 83.4°F28.6°C 69.5°F20.8°C 63% 1.0 mph NW1.6 kmh NW 5.0 mph8.0 kmh 29.74 in1007.1 mb 0.00 in0.0 mm 0.00 in0.0 mm 1.54 in39.1 mm
06:10 PM 83.4°F28.6°C 69.5°F20.8°C 63% 2.0 mph NW3.2 kmh NW 5.0 mph8.0 kmh 29.74 in1007.1 mb 0.00 in0.0 mm 0.00 in0.0 mm 1.54 in39.1 mm
06:11 PM 83.3°F28.5°C 69.4°F20.8°C 63% 2.0 mph NW3.2 kmh NW 5.0 mph8.0 kmh 29.74 in1007.1 mb 0.00 in0.0 mm 0.00 in0.0 mm 1.54 in39.1 mm
06:12 PM 83.2°F28.4°C 68.8°F20.4°C 62% 2.0 mph NW3.2 kmh NW 6.0 mph9.7 kmh 29.74 in1007.1 mb 0.00 in0.0 mm 0.00 in0.0 mm 1.54 in39.1 mm
06:13 PM 83.2°F28.4°C 68.8°F20.4°C 62% 2.0 mph NW3.2 kmh NW 6.0 mph9.7 kmh 29.74 in1007.1 mb 0.00 in0.0 mm 0.00 in0.0 mm 1.54 in39.1 mm
06:14 PM 83.1°F28.4°C 69.2°F20.7°C 63% 2.0 mph NW3.2 kmh NW 6.0 mph9.7 kmh 29.74 in1007.1 mb 0.00 in0.0 mm 0.00 in0.0 mm 1.54 in39.1 mm
06:15 PM 83.1°F28.4°C 69.2°F20.7°C 63% 2.0 mph NW3.2 kmh NW 6.0 mph9.7 kmh 29.74 in1007.1 mb 0.00 in0.0 mm 0.00 in0.0 mm 1.54 in39.1 mm
06:16 PM 83.0°F28.3°C 68.6°F20.3°C 62% 2.0 mph NW3.2 kmh NW 6.0 mph9.7 kmh 29.74 in1007.1 mb 0.00 in0.0 mm 0.00 in0.0 mm 1.54 in39.1 mm
06:17 PM 83.0°F28.3°C 69.1°F20.6°C 63% 2.0 mph NW3.2 kmh NW 6.0 mph9.7 kmh 29.74 in1007.1 mb 0.00 in0.0 mm 0.00 in0.0 mm 1.54 in39.1 mm
06:18 PM 82.9°F28.3°C 69.0°F20.6°C 63% 2.0 mph NW3.2 kmh NW 6.0 mph9.7 kmh 29.74 in1007.1 mb 0.00 in0.0 mm 0.00 in0.0 mm 1.54 in39.1 mm
06:19 PM 82.9°F28.3°C 69.0°F20.6°C 63% 2.0 mph NW3.2 kmh NW 6.0 mph9.7 kmh 29.74 in1007.1 mb 0.00 in0.0 mm 0.00 in0.0 mm 1.54 in39.1 mm
06:20 PM 82.8°F28.2°C 68.9°F20.5°C 63% 2.0 mph NW3.2 kmh NW 6.0 mph9.7 kmh 29.74 in1007.1 mb 0.00 in0.0 mm 0.00 in0.0 mm 1.54 in39.1 mm
06:21 PM 82.8°F28.2°C 68.9°F20.5°C 63% 2.0 mph NW3.2 kmh NW 7.0 mph11.3 kmh 29.74 in1007.1 mb 0.00 in0.0 mm 0.00 in0.0 mm 1.54 in39.1 mm
06:22 PM 82.7°F28.2°C 68.8°F20.4°C 63% 2.0 mph NW3.2 kmh NW 7.0 mph11.3 kmh 29.74 in1007.1 mb 0.00 in0.0 mm 0.00 in0.0 mm 1.54 in39.1 mm
06:23 PM 82.7°F28.2°C 68.8°F20.4°C 63% 2.0 mph NW3.2 kmh NW 7.0 mph11.3 kmh 29.74 in1007.1 mb 0.00 in0.0 mm 0.00 in0.0 mm 1.54 in39.1 mm
06:24 PM 82.6°F28.1°C 68.7°F20.4°C 63% 2.0 mph NW3.2 kmh NW 7.0 mph11.3 kmh 29.75 in1007.5 mb 0.00 in0.0 mm 0.00 in0.0 mm 1.54 in39.1 mm
06:25 PM 82.6°F28.1°C 68.7°F20.4°C 63% 2.0 mph WNW3.2 kmh WNW 7.0 mph11.3 kmh 29.75 in1007.5 mb 0.00 in0.0 mm 0.00 in0.0 mm 1.54 in39.1 mm
06:26 PM 82.6°F28.1°C 68.7°F20.4°C 63% 2.0 mph WNW3.2 kmh WNW 7.0 mph11.3 kmh 29.75 in1007.5 mb 0.00 in0.0 mm 0.00 in0.0 mm 1.54 in39.1 mm
06:27 PM 82.5°F28.1°C 68.6°F20.3°C 63% 2.0 mph NW3.2 kmh NW 7.0 mph11.3 kmh 29.75 in1007.5 mb 0.00 in0.0 mm 0.00 in0.0 mm 1.54 in39.1 mm
06:28 PM 82.4°F28.0°C 68.1°F20.1°C 62% 2.0 mph WNW3.2 kmh WNW 7.0 mph11.3 kmh 29.75 in1007.5 mb 0.00 in0.0 mm 0.00 in0.0 mm 1.54 in39.1 mm
06:29 PM 82.4°F28.0°C 68.1°F20.1°C 62% 2.0 mph WNW3.2 kmh WNW 7.0 mph11.3 kmh 29.75 in1007.5 mb 0.00 in0.0 mm 0.00 in0.0 mm 1.54 in39.1 mm
06:30 PM 82.4°F28.0°C 68.1°F20.1°C 62% 2.0 mph W3.2 kmh W 7.0 mph11.3 kmh 29.75 in1007.5 mb 0.00 in0.0 mm 0.00 in0.0 mm 1.54 in39.1 mm
06:31 PM 82.3°F27.9°C 68.0°F20.0°C 62% 2.0 mph WSW3.2 kmh WSW 7.0 mph11.3 kmh 29.75 in1007.5 mb 0.00 in0.0 mm 0.00 in0.0 mm 1.54 in39.1 mm
06:32 PM 82.3°F27.9°C 68.0°F20.0°C 62% 2.0 mph WSW3.2 kmh WSW 7.0 mph11.3 kmh 29.75 in1007.5 mb 0.00 in0.0 mm 0.00 in0.0 mm 1.54 in39.1 mm
06:33 PM 82.2°F27.9°C 68.3°F20.2°C 63% 2.0 mph WSW3.2 kmh WSW 7.0 mph11.3 kmh 29.75 in1007.5 mb 0.00 in0.0 mm 0.00 in0.0 mm 1.54 in39.1 mm
06:34 PM 82.2°F27.9°C 68.3°F20.2°C 63% 2.0 mph WSW3.2 kmh WSW 7.0 mph11.3 kmh 29.75 in1007.5 mb 0.00 in0.0 mm 0.00 in0.0 mm 1.54 in39.1 mm
06:35 PM 82.1°F27.8°C 68.3°F20.2°C 63% 2.0 mph SW3.2 kmh SW 7.0 mph11.3 kmh 29.75 in1007.5 mb 0.00 in0.0 mm 0.00 in0.0 mm 1.54 in39.1 mm
06:36 PM 82.1°F27.8°C 68.3°F20.2°C 63% 2.0 mph SW3.2 kmh SW 7.0 mph11.3 kmh 29.75 in1007.5 mb 0.00 in0.0 mm 0.00 in0.0 mm 1.54 in39.1 mm
06:37 PM 82.0°F27.8°C 68.2°F20.1°C 63% 2.0 mph SW3.2 kmh SW 4.0 mph6.4 kmh 29.75 in1007.5 mb 0.00 in0.0 mm 0.00 in0.0 mm 1.54 in39.1 mm
06:38 PM 82.0°F27.8°C 68.2°F20.1°C 63% 2.0 mph WSW3.2 kmh WSW 4.0 mph6.4 kmh 29.75 in1007.5 mb 0.00 in0.0 mm 0.00 in0.0 mm 1.54 in39.1 mm
06:39 PM 81.9°F27.7°C 68.1°F20.1°C 63% 2.0 mph WSW3.2 kmh WSW 4.0 mph6.4 kmh 29.75 in1007.5 mb 0.00 in0.0 mm 0.00 in0.0 mm 1.54 in39.1 mm
06:40 PM 81.9°F27.7°C 67.6°F19.8°C 62% 2.0 mph WSW3.2 kmh WSW 4.0 mph6.4 kmh 29.75 in1007.5 mb 0.00 in0.0 mm 0.00 in0.0 mm 1.54 in39.1 mm
06:41 PM 81.8°F27.7°C 68.0°F20.0°C 63% 2.0 mph WSW3.2 kmh WSW 4.0 mph6.4 kmh 29.75 in1007.5 mb 0.00 in0.0 mm 0.00 in0.0 mm 1.54 in39.1 mm
06:42 PM 81.7°F27.6°C 67.9°F19.9°C 63% 1.0 mph W1.6 kmh W 4.0 mph6.4 kmh 29.75 in1007.5 mb 0.00 in0.0 mm 0.00 in0.0 mm 1.54 in39.1 mm
06:43 PM 81.7°F27.6°C 67.9°F19.9°C 63% 1.0 mph W1.6 kmh W 5.0 mph8.0 kmh 29.76 in1007.8 mb 0.00 in0.0 mm 0.00 in0.0 mm 1.54 in39.1 mm
06:44 PM 81.6°F27.6°C 67.8°F19.9°C 63% 1.0 mph WNW1.6 kmh WNW 5.0 mph8.0 kmh 29.76 in1007.8 mb 0.00 in0.0 mm 0.00 in0.0 mm 1.54 in39.1 mm
06:45 PM 81.5°F27.5°C 67.7°F19.8°C 63% 1.0 mph NW1.6 kmh NW 5.0 mph8.0 kmh 29.76 in1007.8 mb 0.00 in0.0 mm 0.00 in0.0 mm 1.54 in39.1 mm
06:46 PM 81.5°F27.5°C 67.7°F19.8°C 63% 1.0 mph NW1.6 kmh NW 6.0 mph9.7 kmh 29.76 in1007.8 mb 0.00 in0.0 mm 0.00 in0.0 mm 1.54 in39.1 mm
06:47 PM 81.4°F27.4°C 67.6°F19.8°C 63% 1.0 mph NW1.6 kmh NW 6.0 mph9.7 kmh 29.76 in1007.8 mb 0.00 in0.0 mm 0.00 in0.0 mm 1.54 in39.1 mm
06:48 PM 81.3°F27.4°C 67.5°F19.7°C 63% 1.0 mph NW1.6 kmh NW 6.0 mph9.7 kmh 29.76 in1007.8 mb 0.00 in0.0 mm 0.00 in0.0 mm 1.54 in39.1 mm
06:49 PM 81.3°F27.4°C 67.5°F19.7°C 63% 1.0 mph NW1.6 kmh NW 6.0 mph9.7 kmh 29.76 in1007.8 mb 0.00 in0.0 mm 0.00 in0.0 mm 1.54 in39.1 mm
06:50 PM 81.2°F27.3°C 67.4°F19.7°C 63% 1.0 mph NW1.6 kmh NW 6.0 mph9.7 kmh 29.76 in1007.8 mb 0.00 in0.0 mm 0.00 in0.0 mm 1.54 in39.1 mm
06:51 PM 81.1°F27.3°C 67.3°F19.6°C 63% 1.0 mph NW1.6 kmh NW 6.0 mph9.7 kmh 29.76 in1007.8 mb 0.00 in0.0 mm 0.00 in0.0 mm 1.54 in39.1 mm
06:52 PM 81.1°F27.3°C 67.3°F19.6°C 63% 1.0 mph NW1.6 kmh NW 6.0 mph9.7 kmh 29.76 in1007.8 mb 0.00 in0.0 mm 0.00 in0.0 mm 1.54 in39.1 mm
06:53 PM 81.0°F27.2°C 67.2°F19.6°C 63% 1.0 mph NW1.6 kmh NW 6.0 mph9.7 kmh 29.76 in1007.8 mb 0.00 in0.0 mm 0.00 in0.0 mm 1.54 in39.1 mm
06:54 PM 81.0°F27.2°C 67.2°F19.6°C 63% 1.0 mph NW1.6 kmh NW 6.0 mph9.7 kmh 29.76 in1007.8 mb 0.00 in0.0 mm 0.00 in0.0 mm 1.54 in39.1 mm
06:55 PM 80.9°F27.2°C 67.1°F19.5°C 63% 1.0 mph NW1.6 kmh NW 6.0 mph9.7 kmh 29.77 in1008.1 mb 0.00 in0.0 mm 0.00 in0.0 mm 1.54 in39.1 mm
06:56 PM 80.8°F27.1°C 67.0°F19.4°C 63% 1.0 mph NW1.6 kmh NW 6.0 mph9.7 kmh 29.77 in1008.1 mb 0.00 in0.0 mm 0.00 in0.0 mm 1.54 in39.1 mm
06:57 PM 80.8°F27.1°C 67.0°F19.4°C 63% 1.0 mph NNW1.6 kmh NNW 6.0 mph9.7 kmh 29.77 in1008.1 mb 0.00 in0.0 mm 0.00 in0.0 mm 1.54 in39.1 mm
06:58 PM 80.7°F27.1°C 66.9°F19.4°C 63% 1.0 mph NW1.6 kmh NW 6.0 mph9.7 kmh 29.77 in1008.1 mb 0.00 in0.0 mm 0.00 in0.0 mm 1.54 in39.1 mm
06:59 PM 80.6°F27.0°C 66.8°F19.3°C 63% 1.0 mph NW1.6 kmh NW 6.0 mph9.7 kmh 29.77 in1008.1 mb 0.00 in0.0 mm 0.00 in0.0 mm 1.54 in39.1 mm
07:00 PM 80.5°F26.9°C 66.7°F19.3°C 63% 1.0 mph NW1.6 kmh NW 5.0 mph8.0 kmh 29.77 in1008.1 mb 0.00 in0.0 mm 0.00 in0.0 mm 1.54 in39.1 mm
07:01 PM 80.5°F26.9°C 66.7°F19.3°C 63% 1.0 mph NW1.6 kmh NW 5.0 mph8.0 kmh 29.77 in1008.1 mb 0.00 in0.0 mm 0.00 in0.0 mm 1.54 in39.1 mm
07:02 PM 80.4°F26.9°C 66.6°F19.2°C 63% 1.0 mph NW1.6 kmh NW 5.0 mph8.0 kmh 29.77 in1008.1 mb 0.00 in0.0 mm 0.00 in0.0 mm 1.54 in39.1 mm
07:03 PM 80.3°F26.8°C 66.6°F19.2°C 63% 1.0 mph NW1.6 kmh NW 8.0 mph12.9 kmh 29.77 in1008.1 mb 0.00 in0.0 mm 0.00 in0.0 mm 1.54 in39.1 mm
07:04 PM 80.2°F26.8°C 66.5°F19.2°C 63% 1.0 mph NW1.6 kmh NW 8.0 mph12.9 kmh 29.77 in1008.1 mb 0.00 in0.0 mm 0.00 in0.0 mm 1.54 in39.1 mm
07:05 PM 80.1°F26.7°C 66.4°F19.1°C 63% 1.0 mph NW1.6 kmh NW 8.0 mph12.9 kmh 29.77 in1008.1 mb 0.00 in0.0 mm 0.00 in0.0 mm 1.54 in39.1 mm
07:06 PM 80.0°F26.7°C 66.3°F19.1°C 63% 1.0 mph NW1.6 kmh NW 8.0 mph12.9 kmh 29.77 in1008.1 mb 0.00 in0.0 mm 0.00 in0.0 mm 1.54 in39.1 mm
07:07 PM 80.0°F26.7°C 66.3°F19.1°C 63% 1.0 mph NW1.6 kmh NW 8.0 mph12.9 kmh 29.77 in1008.1 mb 0.00 in0.0 mm 0.00 in0.0 mm 1.54 in39.1 mm
07:08 PM 79.9°F26.6°C 66.2°F19.0°C 63% 1.0 mph NNW1.6 kmh NNW 8.0 mph12.9 kmh 29.77 in1008.1 mb 0.00 in0.0 mm 0.00 in0.0 mm 1.54 in39.1 mm
07:09 PM 79.8°F26.6°C 66.1°F18.9°C 63% 1.0 mph NNW1.6 kmh NNW 8.0 mph12.9 kmh 29.77 in1008.1 mb 0.00 in0.0 mm 0.00 in0.0 mm 1.54 in39.1 mm
07:10 PM 79.7°F26.5°C 66.0°F18.9°C 63% 1.0 mph NNW1.6 kmh NNW 8.0 mph12.9 kmh 29.77 in1008.1 mb 0.00 in0.0 mm 0.00 in0.0 mm 1.54 in39.1 mm
07:11 PM 79.7°F26.5°C 66.0°F18.9°C 63% 1.0 mph NNW1.6 kmh NNW 8.0 mph12.9 kmh 29.77 in1008.1 mb 0.00 in0.0 mm 0.00 in0.0 mm 1.54 in39.1 mm
07:12 PM 79.6°F26.4°C 65.9°F18.8°C 63% 1.0 mph NNW1.6 kmh NNW 8.0 mph12.9 kmh 29.77 in1008.1 mb 0.00 in0.0 mm 0.00 in0.0 mm 1.54 in39.1 mm
07:13 PM 79.5°F26.4°C 65.8°F18.8°C 63% 1.0 mph NNW1.6 kmh NNW 6.0 mph9.7 kmh 29.78 in1008.5 mb 0.00 in0.0 mm 0.00 in0.0 mm 1.54 in39.1 mm
07:14 PM 79.5°F26.4°C 65.8°F18.8°C 63% 1.0 mph NNW1.6 kmh NNW 6.0 mph9.7 kmh 29.78 in1008.5 mb 0.00 in0.0 mm 0.00 in0.0 mm 1.54 in39.1 mm
07:15 PM 79.4°F26.3°C 65.7°F18.7°C 63% 1.0 mph NNW1.6 kmh NNW 6.0 mph9.7 kmh 29.78 in1008.5 mb 0.00 in0.0 mm 0.00 in0.0 mm 1.54 in39.1 mm
07:16 PM 79.4°F26.3°C 65.7°F18.7°C 63% 1.0 mph NW1.6 kmh NW 6.0 mph9.7 kmh 29.77 in1008.1 mb 0.00 in0.0 mm 0.00 in0.0 mm 1.54 in39.1 mm
07:17 PM 79.3°F26.3°C 65.6°F18.7°C 63% 1.0 mph NW1.6 kmh NW 6.0 mph9.7 kmh 29.78 in1008.5 mb 0.00 in0.0 mm 0.00 in0.0 mm 1.54 in39.1 mm
07:18 PM 79.2°F26.2°C 65.5°F18.6°C 63% 1.0 mph NW1.6 kmh NW 6.0 mph9.7 kmh 29.78 in1008.5 mb 0.00 in0.0 mm 0.00 in0.0 mm 1.54 in39.1 mm
07:19 PM 79.2°F26.2°C 65.5°F18.6°C 63% 1.0 mph NW1.6 kmh NW 6.0 mph9.7 kmh 29.78 in1008.5 mb 0.00 in0.0 mm 0.00 in0.0 mm 1.54 in39.1 mm
07:20 PM 79.1°F26.2°C 65.4°F18.6°C 63% 1.0 mph NW1.6 kmh NW 6.0 mph9.7 kmh 29.78 in1008.5 mb 0.00 in0.0 mm 0.00 in0.0 mm 1.54 in39.1 mm
07:21 PM 79.1°F26.2°C 65.4°F18.6°C 63% 1.0 mph NW1.6 kmh NW 6.0 mph9.7 kmh 29.78 in1008.5 mb 0.00 in0.0 mm 0.00 in0.0 mm 1.54 in39.1 mm
07:22 PM 79.0°F26.1°C 65.3°F18.5°C 63% 1.0 mph NW1.6 kmh NW 6.0 mph9.7 kmh 29.78 in1008.5 mb 0.00 in0.0 mm 0.00 in0.0 mm 1.54 in39.1 mm
07:23 PM 78.9°F26.1°C 64.8°F18.2°C 62% 1.0 mph NW1.6 kmh NW 5.0 mph8.0 kmh 29.78 in1008.5 mb 0.00 in0.0 mm 0.00 in0.0 mm 1.54 in39.1 mm
07:24 PM 78.8°F26.0°C 65.1°F18.4°C 63% 1.0 mph NW1.6 kmh NW 5.0 mph8.0 kmh 29.78 in1008.5 mb 0.00 in0.0 mm 0.00 in0.0 mm 1.54 in39.1 mm
07:25 PM 78.8°F26.0°C 65.1°F18.4°C 63% 1.0 mph NW1.6 kmh NW 5.0 mph8.0 kmh 29.78 in1008.5 mb 0.00 in0.0 mm 0.00 in0.0 mm 1.54 in39.1 mm
07:26 PM 78.7°F25.9°C 65.0°F18.3°C 63% 1.0 mph NW1.6 kmh NW 5.0 mph8.0 kmh 29.78 in1008.5 mb 0.00 in0.0 mm 0.00 in0.0 mm 1.54 in39.1 mm
07:27 PM 78.7°F25.9°C 65.0°F18.3°C 63% 1.0 mph NW1.6 kmh NW 5.0 mph8.0 kmh 29.78 in1008.5 mb 0.00 in0.0 mm 0.00 in0.0 mm 1.54 in39.1 mm
07:28 PM 78.6°F25.9°C 64.9°F18.3°C 63% 1.0 mph NW1.6 kmh NW 5.0 mph8.0 kmh 29.78 in1008.5 mb 0.00 in0.0 mm 0.00 in0.0 mm 1.54 in39.1 mm
07:29 PM 78.6°F25.9°C 64.9°F18.3°C 63% 1.0 mph NW1.6 kmh NW 5.0 mph8.0 kmh 29.78 in1008.5 mb 0.00 in0.0 mm 0.00 in0.0 mm 1.54 in39.1 mm
07:30 PM 78.5°F25.8°C 64.9°F18.3°C 63% 1.0 mph NW1.6 kmh NW 5.0 mph8.0 kmh 29.78 in1008.5 mb 0.00 in0.0 mm 0.00 in0.0 mm 1.54 in39.1 mm
07:31 PM 78.5°F25.8°C 64.9°F18.3°C 63% 1.0 mph NW1.6 kmh NW 5.0 mph8.0 kmh 29.78 in1008.5 mb 0.00 in0.0 mm 0.00 in0.0 mm 1.54 in39.1 mm
07:32 PM 78.4°F25.8°C 64.8°F18.2°C 63% 1.0 mph NW1.6 kmh NW 5.0 mph8.0 kmh 29.78 in1008.5 mb 0.00 in0.0 mm 0.00 in0.0 mm 1.54 in39.1 mm
07:33 PM 78.3°F25.7°C 64.7°F18.2°C 63% Calm Calm 3.0 mph4.8 kmh 29.78 in1008.5 mb 0.00 in0.0 mm 0.00 in0.0 mm 1.54 in39.1 mm
07:34 PM 78.3°F25.7°C 64.7°F18.2°C 63% Calm Calm 3.0 mph4.8 kmh 29.78 in1008.5 mb 0.00 in0.0 mm 0.00 in0.0 mm 1.54 in39.1 mm
07:35 PM 78.2°F25.7°C 64.6°F18.1°C 63% Calm Calm 3.0 mph4.8 kmh 29.78 in1008.5 mb 0.00 in0.0 mm 0.00 in0.0 mm 1.54 in39.1 mm
07:36 PM 78.2°F25.7°C 64.6°F18.1°C 63% Calm Calm 3.0 mph4.8 kmh 29.78 in1008.5 mb 0.00 in0.0 mm 0.00 in0.0 mm 1.54 in39.1 mm
07:37 PM 78.1°F25.6°C 64.5°F18.1°C 63% Calm Calm 3.0 mph4.8 kmh 29.78 in1008.5 mb 0.00 in0.0 mm 0.00 in0.0 mm 1.54 in39.1 mm
07:38 PM 78.0°F25.6°C 64.4°F18.0°C 63% Calm Calm 2.0 mph3.2 kmh 29.78 in1008.5 mb 0.00 in0.0 mm 0.00 in0.0 mm 1.54 in39.1 mm
07:39 PM 78.0°F25.6°C 64.4°F18.0°C 63% Calm Calm 2.0 mph3.2 kmh 29.78 in1008.5 mb 0.00 in0.0 mm 0.00 in0.0 mm 1.54 in39.1 mm
07:40 PM 77.9°F25.5°C 64.3°F17.9°C 63% Calm Calm 2.0 mph3.2 kmh 29.78 in1008.5 mb 0.00 in0.0 mm 0.00 in0.0 mm 1.54 in39.1 mm
07:41 PM 77.9°F25.5°C 64.3°F17.9°C 63% Calm Calm 2.0 mph3.2 kmh 29.78 in1008.5 mb 0.00 in0.0 mm 0.00 in0.0 mm 1.54 in39.1 mm
07:42 PM 77.9°F25.5°C 64.3°F17.9°C 63% Calm Calm 2.0 mph3.2 kmh 29.78 in1008.5 mb 0.00 in0.0 mm 0.00 in0.0 mm 1.54 in39.1 mm
07:43 PM 77.8°F25.4°C 64.2°F17.9°C 63% Calm Calm 2.0 mph3.2 kmh 29.78 in1008.5 mb 0.00 in0.0 mm 0.00 in0.0 mm 1.54 in39.1 mm
07:44 PM 77.7°F25.4°C 64.1°F17.8°C 63% Calm Calm -- 29.78 in1008.5 mb 0.00 in0.0 mm 0.00 in0.0 mm 1.54 in39.1 mm
07:45 PM 77.7°F25.4°C 64.1°F17.8°C 63% Calm Calm -- 29.78 in1008.5 mb 0.00 in0.0 mm 0.00 in0.0 mm 1.54 in39.1 mm
07:46 PM 77.6°F25.3°C 64.0°F17.8°C 63% Calm Calm -- 29.78 in1008.5 mb 0.00 in0.0 mm 0.00 in0.0 mm 1.54 in39.1 mm